<?xml version="1.0" encoding="UTF-8" standalone="no" ?>
<gpx xmlns="http://www.topografix.com/GPX/1/1" xmlns:xsi="http://www.w3.org/2001/XMLSchema-instance" xsi:schemaLocation="http://www.topografix.com/GPX/1/1 http://www.topografix.com/GPX/1/1/gpx.xsd" version="1.1" creator="VisuGPX - https://www.visugpx.com">
  <metadata>
    <name>Caunes Minervois - plateau de la matte - Biot</name>
    <desc><![CDATA[Caunes Minervois plateau de la matte - Biot]]></desc>
  </metadata>
  <trk>
    <name><![CDATA[Caunes Minervois - plateau de la matte - Biot_1]]></name>
    <trkseg>
      <trkpt lat="43.33418" lon="2.54479">
        <ele>194.4</ele>
        <time>2017-02-27T09:02:51Z</time>
      </trkpt>
      <trkpt lat="43.33417" lon="2.5448">
        <ele>194.4</ele>
        <time>2017-02-27T09:02:52Z</time>
      </trkpt>
      <trkpt lat="43.33413" lon="2.54488">
        <ele>194.3</ele>
        <time>2017-02-27T09:02:58Z</time>
      </trkpt>
      <trkpt lat="43.33411" lon="2.54495">
        <ele>194.2</ele>
        <time>2017-02-27T09:03:05Z</time>
      </trkpt>
      <trkpt lat="43.33411" lon="2.545">
        <ele>193.6</ele>
        <time>2017-02-27T09:03:12Z</time>
      </trkpt>
      <trkpt lat="43.33411" lon="2.54509">
        <ele>193.1</ele>
        <time>2017-02-27T09:03:19Z</time>
      </trkpt>
      <trkpt lat="43.33414" lon="2.54519">
        <ele>192.9</ele>
        <time>2017-02-27T09:03:26Z</time>
      </trkpt>
      <trkpt lat="43.33418" lon="2.54527">
        <ele>192.8</ele>
        <time>2017-02-27T09:03:33Z</time>
      </trkpt>
      <trkpt lat="43.33425" lon="2.54528">
        <ele>193.1</ele>
        <time>2017-02-27T09:03:37Z</time>
      </trkpt>
      <trkpt lat="43.33427" lon="2.54527">
        <ele>193.7</ele>
        <time>2017-02-27T09:03:44Z</time>
      </trkpt>
      <trkpt lat="43.33426" lon="2.54524">
        <ele>193.6</ele>
        <time>2017-02-27T09:03:51Z</time>
      </trkpt>
      <trkpt lat="43.33428" lon="2.54517">
        <ele>192.5</ele>
        <time>2017-02-27T09:03:58Z</time>
      </trkpt>
      <trkpt lat="43.33438" lon="2.54514">
        <ele>191.4</ele>
        <time>2017-02-27T09:04:12Z</time>
      </trkpt>
      <trkpt lat="43.33444" lon="2.54516">
        <ele>191.9</ele>
        <time>2017-02-27T09:04:19Z</time>
      </trkpt>
      <trkpt lat="43.33448" lon="2.54513">
        <ele>191.9</ele>
        <time>2017-02-27T09:04:26Z</time>
      </trkpt>
      <trkpt lat="43.33454" lon="2.54516">
        <ele>192</ele>
        <time>2017-02-27T09:04:33Z</time>
      </trkpt>
      <trkpt lat="43.33461" lon="2.54521">
        <ele>192</ele>
        <time>2017-02-27T09:04:39Z</time>
      </trkpt>
      <trkpt lat="43.33469" lon="2.54523">
        <ele>192.4</ele>
        <time>2017-02-27T09:04:43Z</time>
      </trkpt>
      <trkpt lat="43.33476" lon="2.54529">
        <ele>192.7</ele>
        <time>2017-02-27T09:04:50Z</time>
      </trkpt>
      <trkpt lat="43.33484" lon="2.54533">
        <ele>191.8</ele>
        <time>2017-02-27T09:04:57Z</time>
      </trkpt>
      <trkpt lat="43.33489" lon="2.5454">
        <ele>191.1</ele>
        <time>2017-02-27T09:05:04Z</time>
      </trkpt>
      <trkpt lat="43.33491" lon="2.54549">
        <ele>190.2</ele>
        <time>2017-02-27T09:05:11Z</time>
      </trkpt>
      <trkpt lat="43.33493" lon="2.54559">
        <ele>189.7</ele>
        <time>2017-02-27T09:05:18Z</time>
      </trkpt>
      <trkpt lat="43.33493" lon="2.54571">
        <ele>189.3</ele>
        <time>2017-02-27T09:05:25Z</time>
      </trkpt>
      <trkpt lat="43.33491" lon="2.54581">
        <ele>189.9</ele>
        <time>2017-02-27T09:05:31Z</time>
      </trkpt>
      <trkpt lat="43.33489" lon="2.54591">
        <ele>193.2</ele>
        <time>2017-02-27T09:05:38Z</time>
      </trkpt>
      <trkpt lat="43.33491" lon="2.546">
        <ele>195.9</ele>
        <time>2017-02-27T09:05:45Z</time>
      </trkpt>
      <trkpt lat="43.33492" lon="2.54607">
        <ele>198.4</ele>
        <time>2017-02-27T09:05:52Z</time>
      </trkpt>
      <trkpt lat="43.33496" lon="2.54615">
        <ele>199.2</ele>
        <time>2017-02-27T09:05:59Z</time>
      </trkpt>
      <trkpt lat="43.33497" lon="2.54624">
        <ele>200.2</ele>
        <time>2017-02-27T09:06:06Z</time>
      </trkpt>
      <trkpt lat="43.33498" lon="2.5463">
        <ele>200.4</ele>
        <time>2017-02-27T09:06:13Z</time>
      </trkpt>
      <trkpt lat="43.33501" lon="2.54639">
        <ele>199.8</ele>
        <time>2017-02-27T09:06:20Z</time>
      </trkpt>
      <trkpt lat="43.33501" lon="2.54648">
        <ele>199.1</ele>
        <time>2017-02-27T09:06:27Z</time>
      </trkpt>
      <trkpt lat="43.33502" lon="2.54655">
        <ele>197.9</ele>
        <time>2017-02-27T09:06:34Z</time>
      </trkpt>
      <trkpt lat="43.33508" lon="2.54666">
        <ele>197.2</ele>
        <time>2017-02-27T09:06:46Z</time>
      </trkpt>
      <trkpt lat="43.33504" lon="2.54668">
        <ele>197.4</ele>
        <time>2017-02-27T09:06:53Z</time>
      </trkpt>
      <trkpt lat="43.33498" lon="2.54665">
        <ele>197.8</ele>
        <time>2017-02-27T09:07:00Z</time>
      </trkpt>
      <trkpt lat="43.33493" lon="2.54662">
        <ele>198.2</ele>
        <time>2017-02-27T09:07:07Z</time>
      </trkpt>
      <trkpt lat="43.33485" lon="2.54662">
        <ele>198</ele>
        <time>2017-02-27T09:07:13Z</time>
      </trkpt>
      <trkpt lat="43.33478" lon="2.54658">
        <ele>197.1</ele>
        <time>2017-02-27T09:07:20Z</time>
      </trkpt>
      <trkpt lat="43.3347" lon="2.54657">
        <ele>196.3</ele>
        <time>2017-02-27T09:07:26Z</time>
      </trkpt>
      <trkpt lat="43.33463" lon="2.54657">
        <ele>195.6</ele>
        <time>2017-02-27T09:07:31Z</time>
      </trkpt>
      <trkpt lat="43.33455" lon="2.54657">
        <ele>195.3</ele>
        <time>2017-02-27T09:07:37Z</time>
      </trkpt>
      <trkpt lat="43.33447" lon="2.54656">
        <ele>194.9</ele>
        <time>2017-02-27T09:07:43Z</time>
      </trkpt>
      <trkpt lat="43.33439" lon="2.54656">
        <ele>195.1</ele>
        <time>2017-02-27T09:07:48Z</time>
      </trkpt>
      <trkpt lat="43.33432" lon="2.5466">
        <ele>195.4</ele>
        <time>2017-02-27T09:07:53Z</time>
      </trkpt>
      <trkpt lat="43.33425" lon="2.54664">
        <ele>195.3</ele>
        <time>2017-02-27T09:07:58Z</time>
      </trkpt>
      <trkpt lat="43.33417" lon="2.54667">
        <ele>195.8</ele>
        <time>2017-02-27T09:08:04Z</time>
      </trkpt>
      <trkpt lat="43.3341" lon="2.54671">
        <ele>196.9</ele>
        <time>2017-02-27T09:08:09Z</time>
      </trkpt>
      <trkpt lat="43.33404" lon="2.54676">
        <ele>198.1</ele>
        <time>2017-02-27T09:08:14Z</time>
      </trkpt>
      <trkpt lat="43.33398" lon="2.54683">
        <ele>199.2</ele>
        <time>2017-02-27T09:08:20Z</time>
      </trkpt>
      <trkpt lat="43.33394" lon="2.54691">
        <ele>200.5</ele>
        <time>2017-02-27T09:08:26Z</time>
      </trkpt>
      <trkpt lat="43.3339" lon="2.547">
        <ele>202.6</ele>
        <time>2017-02-27T09:08:32Z</time>
      </trkpt>
      <trkpt lat="43.33387" lon="2.5471">
        <ele>204.9</ele>
        <time>2017-02-27T09:08:39Z</time>
      </trkpt>
      <trkpt lat="43.33384" lon="2.54721">
        <ele>207.2</ele>
        <time>2017-02-27T09:08:46Z</time>
      </trkpt>
      <trkpt lat="43.33381" lon="2.5473">
        <ele>207.9</ele>
        <time>2017-02-27T09:08:52Z</time>
      </trkpt>
      <trkpt lat="43.33376" lon="2.54742">
        <ele>208.4</ele>
        <time>2017-02-27T09:08:58Z</time>
      </trkpt>
      <trkpt lat="43.3337" lon="2.5475">
        <ele>208.2</ele>
        <time>2017-02-27T09:09:03Z</time>
      </trkpt>
      <trkpt lat="43.33365" lon="2.54758">
        <ele>209.3</ele>
        <time>2017-02-27T09:09:09Z</time>
      </trkpt>
      <trkpt lat="43.33361" lon="2.54767">
        <ele>211.7</ele>
        <time>2017-02-27T09:09:16Z</time>
      </trkpt>
      <trkpt lat="43.33354" lon="2.54773">
        <ele>214.4</ele>
        <time>2017-02-27T09:09:23Z</time>
      </trkpt>
      <trkpt lat="43.33348" lon="2.5478">
        <ele>217.4</ele>
        <time>2017-02-27T09:09:29Z</time>
      </trkpt>
      <trkpt lat="43.33342" lon="2.54787">
        <ele>219.4</ele>
        <time>2017-02-27T09:09:35Z</time>
      </trkpt>
      <trkpt lat="43.33335" lon="2.54793">
        <ele>221.2</ele>
        <time>2017-02-27T09:09:40Z</time>
      </trkpt>
      <trkpt lat="43.33328" lon="2.54799">
        <ele>224</ele>
        <time>2017-02-27T09:09:47Z</time>
      </trkpt>
      <trkpt lat="43.33321" lon="2.54804">
        <ele>227.2</ele>
        <time>2017-02-27T09:09:53Z</time>
      </trkpt>
      <trkpt lat="43.33314" lon="2.54809">
        <ele>231.4</ele>
        <time>2017-02-27T09:10:00Z</time>
      </trkpt>
      <trkpt lat="43.33308" lon="2.54816">
        <ele>234.6</ele>
        <time>2017-02-27T09:10:06Z</time>
      </trkpt>
      <trkpt lat="43.33302" lon="2.54823">
        <ele>237.6</ele>
        <time>2017-02-27T09:10:12Z</time>
      </trkpt>
      <trkpt lat="43.33298" lon="2.54832">
        <ele>239.7</ele>
        <time>2017-02-27T09:10:18Z</time>
      </trkpt>
      <trkpt lat="43.33294" lon="2.54841">
        <ele>242.8</ele>
        <time>2017-02-27T09:10:24Z</time>
      </trkpt>
      <trkpt lat="43.33293" lon="2.54851">
        <ele>245</ele>
        <time>2017-02-27T09:10:31Z</time>
      </trkpt>
      <trkpt lat="43.33292" lon="2.54861">
        <ele>247.4</ele>
        <time>2017-02-27T09:10:38Z</time>
      </trkpt>
      <trkpt lat="43.33291" lon="2.54872">
        <ele>249.3</ele>
        <time>2017-02-27T09:10:44Z</time>
      </trkpt>
      <trkpt lat="43.33286" lon="2.54879">
        <ele>251.2</ele>
        <time>2017-02-27T09:10:51Z</time>
      </trkpt>
      <trkpt lat="43.3328" lon="2.54886">
        <ele>251.1</ele>
        <time>2017-02-27T09:10:57Z</time>
      </trkpt>
      <trkpt lat="43.33277" lon="2.54897">
        <ele>250.4</ele>
        <time>2017-02-27T09:11:04Z</time>
      </trkpt>
      <trkpt lat="43.33278" lon="2.54907">
        <ele>249.4</ele>
        <time>2017-02-27T09:11:11Z</time>
      </trkpt>
      <trkpt lat="43.33285" lon="2.5491">
        <ele>250.5</ele>
        <time>2017-02-27T09:11:18Z</time>
      </trkpt>
      <trkpt lat="43.33292" lon="2.54908">
        <ele>251.6</ele>
        <time>2017-02-27T09:11:24Z</time>
      </trkpt>
      <trkpt lat="43.33299" lon="2.54907">
        <ele>252.5</ele>
        <time>2017-02-27T09:11:30Z</time>
      </trkpt>
      <trkpt lat="43.33307" lon="2.54905">
        <ele>254.1</ele>
        <time>2017-02-27T09:11:36Z</time>
      </trkpt>
      <trkpt lat="43.33313" lon="2.54905">
        <ele>255</ele>
        <time>2017-02-27T09:11:43Z</time>
      </trkpt>
      <trkpt lat="43.33321" lon="2.54903">
        <ele>255.3</ele>
        <time>2017-02-27T09:11:50Z</time>
      </trkpt>
      <trkpt lat="43.33328" lon="2.54902">
        <ele>255.6</ele>
        <time>2017-02-27T09:11:57Z</time>
      </trkpt>
      <trkpt lat="43.33336" lon="2.549">
        <ele>256.6</ele>
        <time>2017-02-27T09:12:04Z</time>
      </trkpt>
      <trkpt lat="43.33343" lon="2.54898">
        <ele>256.7</ele>
        <time>2017-02-27T09:12:11Z</time>
      </trkpt>
      <trkpt lat="43.33351" lon="2.54898">
        <ele>257.2</ele>
        <time>2017-02-27T09:12:18Z</time>
      </trkpt>
      <trkpt lat="43.33359" lon="2.54897">
        <ele>258</ele>
        <time>2017-02-27T09:12:25Z</time>
      </trkpt>
      <trkpt lat="43.33366" lon="2.54896">
        <ele>259.2</ele>
        <time>2017-02-27T09:12:31Z</time>
      </trkpt>
      <trkpt lat="43.33374" lon="2.54894">
        <ele>260.2</ele>
        <time>2017-02-27T09:12:38Z</time>
      </trkpt>
      <trkpt lat="43.33381" lon="2.54891">
        <ele>261.4</ele>
        <time>2017-02-27T09:12:45Z</time>
      </trkpt>
      <trkpt lat="43.33388" lon="2.54885">
        <ele>262.5</ele>
        <time>2017-02-27T09:12:51Z</time>
      </trkpt>
      <trkpt lat="43.33395" lon="2.54879">
        <ele>264</ele>
        <time>2017-02-27T09:12:58Z</time>
      </trkpt>
      <trkpt lat="43.33401" lon="2.54872">
        <ele>264.9</ele>
        <time>2017-02-27T09:13:04Z</time>
      </trkpt>
      <trkpt lat="43.33407" lon="2.54866">
        <ele>265.7</ele>
        <time>2017-02-27T09:13:10Z</time>
      </trkpt>
      <trkpt lat="43.33413" lon="2.54861">
        <ele>266.7</ele>
        <time>2017-02-27T09:13:15Z</time>
      </trkpt>
      <trkpt lat="43.3342" lon="2.54854">
        <ele>267.7</ele>
        <time>2017-02-27T09:13:21Z</time>
      </trkpt>
      <trkpt lat="43.33426" lon="2.54847">
        <ele>269.2</ele>
        <time>2017-02-27T09:13:27Z</time>
      </trkpt>
      <trkpt lat="43.33432" lon="2.5484">
        <ele>270.9</ele>
        <time>2017-02-27T09:13:33Z</time>
      </trkpt>
      <trkpt lat="43.33439" lon="2.54834">
        <ele>272.1</ele>
        <time>2017-02-27T09:13:39Z</time>
      </trkpt>
      <trkpt lat="43.33446" lon="2.54832">
        <ele>271.8</ele>
        <time>2017-02-27T09:13:45Z</time>
      </trkpt>
      <trkpt lat="43.33454" lon="2.5483">
        <ele>269.6</ele>
        <time>2017-02-27T09:13:51Z</time>
      </trkpt>
      <trkpt lat="43.33462" lon="2.54828">
        <ele>268.5</ele>
        <time>2017-02-27T09:13:58Z</time>
      </trkpt>
      <trkpt lat="43.3347" lon="2.54829">
        <ele>267.5</ele>
        <time>2017-02-27T09:14:05Z</time>
      </trkpt>
      <trkpt lat="43.33478" lon="2.54832">
        <ele>266.7</ele>
        <time>2017-02-27T09:14:10Z</time>
      </trkpt>
      <trkpt lat="43.33487" lon="2.54833">
        <ele>265.2</ele>
        <time>2017-02-27T09:14:16Z</time>
      </trkpt>
      <trkpt lat="43.33495" lon="2.54834">
        <ele>264.1</ele>
        <time>2017-02-27T09:14:23Z</time>
      </trkpt>
      <trkpt lat="43.33502" lon="2.54836">
        <ele>264.8</ele>
        <time>2017-02-27T09:14:28Z</time>
      </trkpt>
      <trkpt lat="43.3351" lon="2.54836">
        <ele>266.8</ele>
        <time>2017-02-27T09:14:32Z</time>
      </trkpt>
      <trkpt lat="43.33517" lon="2.54838">
        <ele>269.1</ele>
        <time>2017-02-27T09:14:38Z</time>
      </trkpt>
      <trkpt lat="43.33525" lon="2.54838">
        <ele>272</ele>
        <time>2017-02-27T09:14:44Z</time>
      </trkpt>
      <trkpt lat="43.33534" lon="2.54843">
        <ele>272.7</ele>
        <time>2017-02-27T09:14:50Z</time>
      </trkpt>
      <trkpt lat="43.3354" lon="2.54848">
        <ele>271.5</ele>
        <time>2017-02-27T09:14:55Z</time>
      </trkpt>
      <trkpt lat="43.33547" lon="2.54854">
        <ele>263.9</ele>
        <time>2017-02-27T09:15:01Z</time>
      </trkpt>
      <trkpt lat="43.33554" lon="2.54859">
        <ele>263.2</ele>
        <time>2017-02-27T09:15:07Z</time>
      </trkpt>
      <trkpt lat="43.33561" lon="2.54864">
        <ele>262.8</ele>
        <time>2017-02-27T09:15:12Z</time>
      </trkpt>
      <trkpt lat="43.33567" lon="2.5487">
        <ele>261.7</ele>
        <time>2017-02-27T09:15:18Z</time>
      </trkpt>
      <trkpt lat="43.33572" lon="2.54877">
        <ele>261.9</ele>
        <time>2017-02-27T09:15:23Z</time>
      </trkpt>
      <trkpt lat="43.33579" lon="2.54884">
        <ele>261.4</ele>
        <time>2017-02-27T09:15:29Z</time>
      </trkpt>
      <trkpt lat="43.33585" lon="2.54888">
        <ele>261.2</ele>
        <time>2017-02-27T09:15:34Z</time>
      </trkpt>
      <trkpt lat="43.33591" lon="2.54895">
        <ele>261.8</ele>
        <time>2017-02-27T09:15:40Z</time>
      </trkpt>
      <trkpt lat="43.33598" lon="2.54899">
        <ele>261.8</ele>
        <time>2017-02-27T09:15:45Z</time>
      </trkpt>
      <trkpt lat="43.33605" lon="2.54905">
        <ele>262.7</ele>
        <time>2017-02-27T09:15:51Z</time>
      </trkpt>
      <trkpt lat="43.33612" lon="2.54912">
        <ele>264.2</ele>
        <time>2017-02-27T09:15:57Z</time>
      </trkpt>
      <trkpt lat="43.33616" lon="2.54919">
        <ele>265.4</ele>
        <time>2017-02-27T09:16:03Z</time>
      </trkpt>
      <trkpt lat="43.33621" lon="2.54929">
        <ele>265.3</ele>
        <time>2017-02-27T09:16:10Z</time>
      </trkpt>
      <trkpt lat="43.33626" lon="2.54937">
        <ele>263.7</ele>
        <time>2017-02-27T09:16:15Z</time>
      </trkpt>
      <trkpt lat="43.33631" lon="2.54945">
        <ele>262.9</ele>
        <time>2017-02-27T09:16:21Z</time>
      </trkpt>
      <trkpt lat="43.33639" lon="2.54947">
        <ele>263.1</ele>
        <time>2017-02-27T09:16:26Z</time>
      </trkpt>
      <trkpt lat="43.33647" lon="2.54948">
        <ele>262.8</ele>
        <time>2017-02-27T09:16:31Z</time>
      </trkpt>
      <trkpt lat="43.33655" lon="2.54948">
        <ele>263</ele>
        <time>2017-02-27T09:16:37Z</time>
      </trkpt>
      <trkpt lat="43.33662" lon="2.54949">
        <ele>262.4</ele>
        <time>2017-02-27T09:16:42Z</time>
      </trkpt>
      <trkpt lat="43.33671" lon="2.54948">
        <ele>260.1</ele>
        <time>2017-02-27T09:16:49Z</time>
      </trkpt>
      <trkpt lat="43.33678" lon="2.5495">
        <ele>256</ele>
        <time>2017-02-27T09:16:55Z</time>
      </trkpt>
      <trkpt lat="43.33685" lon="2.54953">
        <ele>253.9</ele>
        <time>2017-02-27T09:17:00Z</time>
      </trkpt>
      <trkpt lat="43.33692" lon="2.54958">
        <ele>252.8</ele>
        <time>2017-02-27T09:17:05Z</time>
      </trkpt>
      <trkpt lat="43.33697" lon="2.54966">
        <ele>252.4</ele>
        <time>2017-02-27T09:17:11Z</time>
      </trkpt>
      <trkpt lat="43.33702" lon="2.54974">
        <ele>252.3</ele>
        <time>2017-02-27T09:17:17Z</time>
      </trkpt>
      <trkpt lat="43.33705" lon="2.54986">
        <ele>252.8</ele>
        <time>2017-02-27T09:17:23Z</time>
      </trkpt>
      <trkpt lat="43.33708" lon="2.54996">
        <ele>251.9</ele>
        <time>2017-02-27T09:17:29Z</time>
      </trkpt>
      <trkpt lat="43.33708" lon="2.55008">
        <ele>252.2</ele>
        <time>2017-02-27T09:17:35Z</time>
      </trkpt>
      <trkpt lat="43.33709" lon="2.5502">
        <ele>252.1</ele>
        <time>2017-02-27T09:17:41Z</time>
      </trkpt>
      <trkpt lat="43.3371" lon="2.55031">
        <ele>252.3</ele>
        <time>2017-02-27T09:17:46Z</time>
      </trkpt>
      <trkpt lat="43.3371" lon="2.55042">
        <ele>252.3</ele>
        <time>2017-02-27T09:17:51Z</time>
      </trkpt>
      <trkpt lat="43.3371" lon="2.55052">
        <ele>252.4</ele>
        <time>2017-02-27T09:17:56Z</time>
      </trkpt>
      <trkpt lat="43.33711" lon="2.55063">
        <ele>252.1</ele>
        <time>2017-02-27T09:18:02Z</time>
      </trkpt>
      <trkpt lat="43.33712" lon="2.55075">
        <ele>251.2</ele>
        <time>2017-02-27T09:18:08Z</time>
      </trkpt>
      <trkpt lat="43.33714" lon="2.55085">
        <ele>250.7</ele>
        <time>2017-02-27T09:18:14Z</time>
      </trkpt>
      <trkpt lat="43.33717" lon="2.55095">
        <ele>250</ele>
        <time>2017-02-27T09:18:20Z</time>
      </trkpt>
      <trkpt lat="43.33723" lon="2.55101">
        <ele>248.9</ele>
        <time>2017-02-27T09:18:25Z</time>
      </trkpt>
      <trkpt lat="43.3373" lon="2.55108">
        <ele>247.2</ele>
        <time>2017-02-27T09:18:31Z</time>
      </trkpt>
      <trkpt lat="43.33736" lon="2.55113">
        <ele>246.4</ele>
        <time>2017-02-27T09:18:36Z</time>
      </trkpt>
      <trkpt lat="43.33744" lon="2.55118">
        <ele>245.5</ele>
        <time>2017-02-27T09:18:42Z</time>
      </trkpt>
      <trkpt lat="43.3375" lon="2.55123">
        <ele>243.9</ele>
        <time>2017-02-27T09:18:49Z</time>
      </trkpt>
      <trkpt lat="43.33758" lon="2.55127">
        <ele>242.5</ele>
        <time>2017-02-27T09:18:56Z</time>
      </trkpt>
      <trkpt lat="43.3376" lon="2.55135">
        <ele>241.6</ele>
        <time>2017-02-27T09:19:03Z</time>
      </trkpt>
      <trkpt lat="43.33768" lon="2.55139">
        <ele>240.5</ele>
        <time>2017-02-27T09:19:09Z</time>
      </trkpt>
      <trkpt lat="43.33776" lon="2.55143">
        <ele>239</ele>
        <time>2017-02-27T09:19:16Z</time>
      </trkpt>
      <trkpt lat="43.33783" lon="2.55147">
        <ele>237.6</ele>
        <time>2017-02-27T09:19:20Z</time>
      </trkpt>
      <trkpt lat="43.33791" lon="2.55148">
        <ele>237.1</ele>
        <time>2017-02-27T09:19:23Z</time>
      </trkpt>
      <trkpt lat="43.33798" lon="2.55149">
        <ele>235.8</ele>
        <time>2017-02-27T09:19:28Z</time>
      </trkpt>
      <trkpt lat="43.33804" lon="2.55152">
        <ele>233.8</ele>
        <time>2017-02-27T09:19:35Z</time>
      </trkpt>
      <trkpt lat="43.33811" lon="2.55158">
        <ele>231.8</ele>
        <time>2017-02-27T09:19:42Z</time>
      </trkpt>
      <trkpt lat="43.33817" lon="2.55165">
        <ele>230.8</ele>
        <time>2017-02-27T09:19:47Z</time>
      </trkpt>
      <trkpt lat="43.33822" lon="2.55173">
        <ele>230.3</ele>
        <time>2017-02-27T09:19:52Z</time>
      </trkpt>
      <trkpt lat="43.33823" lon="2.55183">
        <ele>230.7</ele>
        <time>2017-02-27T09:19:59Z</time>
      </trkpt>
      <trkpt lat="43.33826" lon="2.55192">
        <ele>230.6</ele>
        <time>2017-02-27T09:20:06Z</time>
      </trkpt>
      <trkpt lat="43.33829" lon="2.55201">
        <ele>230.7</ele>
        <time>2017-02-27T09:20:13Z</time>
      </trkpt>
      <trkpt lat="43.33832" lon="2.55211">
        <ele>231</ele>
        <time>2017-02-27T09:20:18Z</time>
      </trkpt>
      <trkpt lat="43.33831" lon="2.55221">
        <ele>231</ele>
        <time>2017-02-27T09:20:22Z</time>
      </trkpt>
      <trkpt lat="43.33834" lon="2.55232">
        <ele>231</ele>
        <time>2017-02-27T09:20:26Z</time>
      </trkpt>
      <trkpt lat="43.33836" lon="2.55241">
        <ele>231.3</ele>
        <time>2017-02-27T09:20:32Z</time>
      </trkpt>
      <trkpt lat="43.33839" lon="2.55251">
        <ele>231.5</ele>
        <time>2017-02-27T09:20:38Z</time>
      </trkpt>
      <trkpt lat="43.3384" lon="2.55261">
        <ele>232.3</ele>
        <time>2017-02-27T09:20:45Z</time>
      </trkpt>
      <trkpt lat="43.3384" lon="2.55274">
        <ele>232.9</ele>
        <time>2017-02-27T09:20:51Z</time>
      </trkpt>
      <trkpt lat="43.33838" lon="2.55285">
        <ele>233.1</ele>
        <time>2017-02-27T09:20:55Z</time>
      </trkpt>
      <trkpt lat="43.3384" lon="2.55294">
        <ele>235.2</ele>
        <time>2017-02-27T09:21:02Z</time>
      </trkpt>
      <trkpt lat="43.33839" lon="2.55303">
        <ele>234.3</ele>
        <time>2017-02-27T09:21:09Z</time>
      </trkpt>
      <trkpt lat="43.33844" lon="2.5531">
        <ele>234.4</ele>
        <time>2017-02-27T09:21:16Z</time>
      </trkpt>
      <trkpt lat="43.33845" lon="2.55322">
        <ele>235.4</ele>
        <time>2017-02-27T09:21:20Z</time>
      </trkpt>
      <trkpt lat="43.3385" lon="2.55331">
        <ele>235.9</ele>
        <time>2017-02-27T09:21:27Z</time>
      </trkpt>
      <trkpt lat="43.33854" lon="2.55341">
        <ele>236.6</ele>
        <time>2017-02-27T09:21:33Z</time>
      </trkpt>
      <trkpt lat="43.33861" lon="2.55346">
        <ele>237.8</ele>
        <time>2017-02-27T09:21:40Z</time>
      </trkpt>
      <trkpt lat="43.3387" lon="2.55348">
        <ele>239</ele>
        <time>2017-02-27T09:21:46Z</time>
      </trkpt>
      <trkpt lat="43.33878" lon="2.5535">
        <ele>239</ele>
        <time>2017-02-27T09:21:52Z</time>
      </trkpt>
      <trkpt lat="43.33887" lon="2.55351">
        <ele>240.5</ele>
        <time>2017-02-27T09:21:58Z</time>
      </trkpt>
      <trkpt lat="43.33894" lon="2.55354">
        <ele>242.7</ele>
        <time>2017-02-27T09:22:03Z</time>
      </trkpt>
      <trkpt lat="43.33901" lon="2.5536">
        <ele>245.3</ele>
        <time>2017-02-27T09:22:09Z</time>
      </trkpt>
      <trkpt lat="43.33908" lon="2.55367">
        <ele>246.7</ele>
        <time>2017-02-27T09:22:15Z</time>
      </trkpt>
      <trkpt lat="43.33914" lon="2.55373">
        <ele>247.4</ele>
        <time>2017-02-27T09:22:20Z</time>
      </trkpt>
      <trkpt lat="43.33921" lon="2.55379">
        <ele>248.3</ele>
        <time>2017-02-27T09:22:26Z</time>
      </trkpt>
      <trkpt lat="43.33929" lon="2.55383">
        <ele>248.8</ele>
        <time>2017-02-27T09:22:31Z</time>
      </trkpt>
      <trkpt lat="43.33934" lon="2.55391">
        <ele>249.2</ele>
        <time>2017-02-27T09:22:37Z</time>
      </trkpt>
      <trkpt lat="43.33934" lon="2.55401">
        <ele>249.1</ele>
        <time>2017-02-27T09:22:43Z</time>
      </trkpt>
      <trkpt lat="43.33931" lon="2.55412">
        <ele>249.1</ele>
        <time>2017-02-27T09:22:49Z</time>
      </trkpt>
      <trkpt lat="43.33929" lon="2.55421">
        <ele>248</ele>
        <time>2017-02-27T09:22:54Z</time>
      </trkpt>
      <trkpt lat="43.33926" lon="2.55431">
        <ele>247.1</ele>
        <time>2017-02-27T09:23:00Z</time>
      </trkpt>
      <trkpt lat="43.33924" lon="2.55441">
        <ele>247.9</ele>
        <time>2017-02-27T09:23:06Z</time>
      </trkpt>
      <trkpt lat="43.33919" lon="2.55448">
        <ele>249.5</ele>
        <time>2017-02-27T09:23:12Z</time>
      </trkpt>
      <trkpt lat="43.33914" lon="2.55454">
        <ele>252.2</ele>
        <time>2017-02-27T09:23:19Z</time>
      </trkpt>
      <trkpt lat="43.33908" lon="2.55457">
        <ele>255.2</ele>
        <time>2017-02-27T09:23:26Z</time>
      </trkpt>
      <trkpt lat="43.33904" lon="2.55467">
        <ele>258.9</ele>
        <time>2017-02-27T09:23:33Z</time>
      </trkpt>
      <trkpt lat="43.33902" lon="2.55478">
        <ele>259.5</ele>
        <time>2017-02-27T09:23:39Z</time>
      </trkpt>
      <trkpt lat="43.33903" lon="2.55488">
        <ele>260.2</ele>
        <time>2017-02-27T09:23:45Z</time>
      </trkpt>
      <trkpt lat="43.33906" lon="2.55498">
        <ele>260.6</ele>
        <time>2017-02-27T09:23:51Z</time>
      </trkpt>
      <trkpt lat="43.33911" lon="2.55505">
        <ele>260.9</ele>
        <time>2017-02-27T09:23:57Z</time>
      </trkpt>
      <trkpt lat="43.33916" lon="2.55513">
        <ele>261.5</ele>
        <time>2017-02-27T09:24:03Z</time>
      </trkpt>
      <trkpt lat="43.33921" lon="2.55522">
        <ele>261.7</ele>
        <time>2017-02-27T09:24:09Z</time>
      </trkpt>
      <trkpt lat="43.33926" lon="2.55531">
        <ele>262.2</ele>
        <time>2017-02-27T09:24:16Z</time>
      </trkpt>
      <trkpt lat="43.33931" lon="2.5554">
        <ele>261.7</ele>
        <time>2017-02-27T09:24:22Z</time>
      </trkpt>
      <trkpt lat="43.33935" lon="2.55549">
        <ele>260.4</ele>
        <time>2017-02-27T09:24:28Z</time>
      </trkpt>
      <trkpt lat="43.33935" lon="2.55561">
        <ele>258.5</ele>
        <time>2017-02-27T09:24:34Z</time>
      </trkpt>
      <trkpt lat="43.33939" lon="2.55569">
        <ele>256.6</ele>
        <time>2017-02-27T09:24:38Z</time>
      </trkpt>
      <trkpt lat="43.33941" lon="2.5558">
        <ele>255.9</ele>
        <time>2017-02-27T09:24:44Z</time>
      </trkpt>
      <trkpt lat="43.33943" lon="2.55589">
        <ele>255.3</ele>
        <time>2017-02-27T09:24:49Z</time>
      </trkpt>
      <trkpt lat="43.33944" lon="2.556">
        <ele>255.3</ele>
        <time>2017-02-27T09:24:55Z</time>
      </trkpt>
      <trkpt lat="43.33944" lon="2.55611">
        <ele>256</ele>
        <time>2017-02-27T09:25:02Z</time>
      </trkpt>
      <trkpt lat="43.33944" lon="2.55623">
        <ele>255.8</ele>
        <time>2017-02-27T09:25:09Z</time>
      </trkpt>
      <trkpt lat="43.33946" lon="2.55634">
        <ele>257.4</ele>
        <time>2017-02-27T09:25:15Z</time>
      </trkpt>
      <trkpt lat="43.33946" lon="2.55644">
        <ele>258.6</ele>
        <time>2017-02-27T09:25:21Z</time>
      </trkpt>
      <trkpt lat="43.33948" lon="2.55656">
        <ele>260</ele>
        <time>2017-02-27T09:25:27Z</time>
      </trkpt>
      <trkpt lat="43.3395" lon="2.55666">
        <ele>261.1</ele>
        <time>2017-02-27T09:25:33Z</time>
      </trkpt>
      <trkpt lat="43.33953" lon="2.55676">
        <ele>262.9</ele>
        <time>2017-02-27T09:25:39Z</time>
      </trkpt>
      <trkpt lat="43.33956" lon="2.55686">
        <ele>263.7</ele>
        <time>2017-02-27T09:25:45Z</time>
      </trkpt>
      <trkpt lat="43.33958" lon="2.55697">
        <ele>264.3</ele>
        <time>2017-02-27T09:25:51Z</time>
      </trkpt>
      <trkpt lat="43.33957" lon="2.55708">
        <ele>265.2</ele>
        <time>2017-02-27T09:25:56Z</time>
      </trkpt>
      <trkpt lat="43.33955" lon="2.55718">
        <ele>265.8</ele>
        <time>2017-02-27T09:26:01Z</time>
      </trkpt>
      <trkpt lat="43.33953" lon="2.55728">
        <ele>267.1</ele>
        <time>2017-02-27T09:26:06Z</time>
      </trkpt>
      <trkpt lat="43.33951" lon="2.55738">
        <ele>268.5</ele>
        <time>2017-02-27T09:26:11Z</time>
      </trkpt>
      <trkpt lat="43.33948" lon="2.55747">
        <ele>270.3</ele>
        <time>2017-02-27T09:26:15Z</time>
      </trkpt>
      <trkpt lat="43.33947" lon="2.55757">
        <ele>271.7</ele>
        <time>2017-02-27T09:26:20Z</time>
      </trkpt>
      <trkpt lat="43.33949" lon="2.55767">
        <ele>272.3</ele>
        <time>2017-02-27T09:26:26Z</time>
      </trkpt>
      <trkpt lat="43.3395" lon="2.55777">
        <ele>273.5</ele>
        <time>2017-02-27T09:26:33Z</time>
      </trkpt>
      <trkpt lat="43.33954" lon="2.55785">
        <ele>273.9</ele>
        <time>2017-02-27T09:26:40Z</time>
      </trkpt>
      <trkpt lat="43.33956" lon="2.55793">
        <ele>273.8</ele>
        <time>2017-02-27T09:26:47Z</time>
      </trkpt>
      <trkpt lat="43.33962" lon="2.55801">
        <ele>273.5</ele>
        <time>2017-02-27T09:26:54Z</time>
      </trkpt>
      <trkpt lat="43.33965" lon="2.5581">
        <ele>271.6</ele>
        <time>2017-02-27T09:27:01Z</time>
      </trkpt>
      <trkpt lat="43.33962" lon="2.55815">
        <ele>271.3</ele>
        <time>2017-02-27T09:27:08Z</time>
      </trkpt>
      <trkpt lat="43.33956" lon="2.5582">
        <ele>271.9</ele>
        <time>2017-02-27T09:27:14Z</time>
      </trkpt>
      <trkpt lat="43.3395" lon="2.55828">
        <ele>272.7</ele>
        <time>2017-02-27T09:27:19Z</time>
      </trkpt>
      <trkpt lat="43.33947" lon="2.55837">
        <ele>273.5</ele>
        <time>2017-02-27T09:27:25Z</time>
      </trkpt>
      <trkpt lat="43.33943" lon="2.55847">
        <ele>273.9</ele>
        <time>2017-02-27T09:27:30Z</time>
      </trkpt>
      <trkpt lat="43.3394" lon="2.55856">
        <ele>274.1</ele>
        <time>2017-02-27T09:27:34Z</time>
      </trkpt>
      <trkpt lat="43.33935" lon="2.55865">
        <ele>274.7</ele>
        <time>2017-02-27T09:27:39Z</time>
      </trkpt>
      <trkpt lat="43.33936" lon="2.55874">
        <ele>275.6</ele>
        <time>2017-02-27T09:27:46Z</time>
      </trkpt>
      <trkpt lat="43.33934" lon="2.55884">
        <ele>276.2</ele>
        <time>2017-02-27T09:27:51Z</time>
      </trkpt>
      <trkpt lat="43.33933" lon="2.55894">
        <ele>276.4</ele>
        <time>2017-02-27T09:27:57Z</time>
      </trkpt>
      <trkpt lat="43.3393" lon="2.55903">
        <ele>277.1</ele>
        <time>2017-02-27T09:28:02Z</time>
      </trkpt>
      <trkpt lat="43.33933" lon="2.55915">
        <ele>277.1</ele>
        <time>2017-02-27T09:28:09Z</time>
      </trkpt>
      <trkpt lat="43.33933" lon="2.55925">
        <ele>276.6</ele>
        <time>2017-02-27T09:28:14Z</time>
      </trkpt>
      <trkpt lat="43.33937" lon="2.55934">
        <ele>276.1</ele>
        <time>2017-02-27T09:28:20Z</time>
      </trkpt>
      <trkpt lat="43.33938" lon="2.55945">
        <ele>276.3</ele>
        <time>2017-02-27T09:28:27Z</time>
      </trkpt>
      <trkpt lat="43.33938" lon="2.55955">
        <ele>274.9</ele>
        <time>2017-02-27T09:28:33Z</time>
      </trkpt>
      <trkpt lat="43.3394" lon="2.55964">
        <ele>272.6</ele>
        <time>2017-02-27T09:28:39Z</time>
      </trkpt>
      <trkpt lat="43.33947" lon="2.5597">
        <ele>271.6</ele>
        <time>2017-02-27T09:28:43Z</time>
      </trkpt>
      <trkpt lat="43.33957" lon="2.55975">
        <ele>272.4</ele>
        <time>2017-02-27T09:28:47Z</time>
      </trkpt>
      <trkpt lat="43.33965" lon="2.55977">
        <ele>272.6</ele>
        <time>2017-02-27T09:28:52Z</time>
      </trkpt>
      <trkpt lat="43.33973" lon="2.55976">
        <ele>272</ele>
        <time>2017-02-27T09:28:59Z</time>
      </trkpt>
      <trkpt lat="43.3398" lon="2.55976">
        <ele>272</ele>
        <time>2017-02-27T09:29:05Z</time>
      </trkpt>
      <trkpt lat="43.33988" lon="2.55975">
        <ele>271</ele>
        <time>2017-02-27T09:29:12Z</time>
      </trkpt>
      <trkpt lat="43.33996" lon="2.55972">
        <ele>270.5</ele>
        <time>2017-02-27T09:29:18Z</time>
      </trkpt>
      <trkpt lat="43.34003" lon="2.55968">
        <ele>270.3</ele>
        <time>2017-02-27T09:29:24Z</time>
      </trkpt>
      <trkpt lat="43.34011" lon="2.55965">
        <ele>269.7</ele>
        <time>2017-02-27T09:29:30Z</time>
      </trkpt>
      <trkpt lat="43.34019" lon="2.55962">
        <ele>267.6</ele>
        <time>2017-02-27T09:29:36Z</time>
      </trkpt>
      <trkpt lat="43.34027" lon="2.5596">
        <ele>268.1</ele>
        <time>2017-02-27T09:29:42Z</time>
      </trkpt>
      <trkpt lat="43.34034" lon="2.55959">
        <ele>270.6</ele>
        <time>2017-02-27T09:29:48Z</time>
      </trkpt>
      <trkpt lat="43.34041" lon="2.55961">
        <ele>272.1</ele>
        <time>2017-02-27T09:29:54Z</time>
      </trkpt>
      <trkpt lat="43.34049" lon="2.55962">
        <ele>275.7</ele>
        <time>2017-02-27T09:30:00Z</time>
      </trkpt>
      <trkpt lat="43.34057" lon="2.55964">
        <ele>281.6</ele>
        <time>2017-02-27T09:30:06Z</time>
      </trkpt>
      <trkpt lat="43.34065" lon="2.55964">
        <ele>285.7</ele>
        <time>2017-02-27T09:30:12Z</time>
      </trkpt>
      <trkpt lat="43.34073" lon="2.55965">
        <ele>287.9</ele>
        <time>2017-02-27T09:30:17Z</time>
      </trkpt>
      <trkpt lat="43.34081" lon="2.55966">
        <ele>290.9</ele>
        <time>2017-02-27T09:30:23Z</time>
      </trkpt>
      <trkpt lat="43.34089" lon="2.55965">
        <ele>294.5</ele>
        <time>2017-02-27T09:30:29Z</time>
      </trkpt>
      <trkpt lat="43.34096" lon="2.55961">
        <ele>297.3</ele>
        <time>2017-02-27T09:30:36Z</time>
      </trkpt>
      <trkpt lat="43.34105" lon="2.55957">
        <ele>299</ele>
        <time>2017-02-27T09:30:42Z</time>
      </trkpt>
      <trkpt lat="43.34111" lon="2.55952">
        <ele>301.3</ele>
        <time>2017-02-27T09:30:47Z</time>
      </trkpt>
      <trkpt lat="43.34118" lon="2.55946">
        <ele>302.8</ele>
        <time>2017-02-27T09:30:52Z</time>
      </trkpt>
      <trkpt lat="43.34123" lon="2.55941">
        <ele>303.7</ele>
        <time>2017-02-27T09:30:57Z</time>
      </trkpt>
      <trkpt lat="43.3413" lon="2.55934">
        <ele>305.2</ele>
        <time>2017-02-27T09:31:03Z</time>
      </trkpt>
      <trkpt lat="43.34138" lon="2.55934">
        <ele>306.3</ele>
        <time>2017-02-27T09:31:09Z</time>
      </trkpt>
      <trkpt lat="43.34144" lon="2.55941">
        <ele>306.5</ele>
        <time>2017-02-27T09:31:15Z</time>
      </trkpt>
      <trkpt lat="43.34146" lon="2.55951">
        <ele>306.6</ele>
        <time>2017-02-27T09:31:21Z</time>
      </trkpt>
      <trkpt lat="43.34148" lon="2.55962">
        <ele>306.9</ele>
        <time>2017-02-27T09:31:28Z</time>
      </trkpt>
      <trkpt lat="43.34148" lon="2.55973">
        <ele>306.6</ele>
        <time>2017-02-27T09:31:34Z</time>
      </trkpt>
      <trkpt lat="43.34149" lon="2.55984">
        <ele>306</ele>
        <time>2017-02-27T09:31:40Z</time>
      </trkpt>
      <trkpt lat="43.34148" lon="2.55996">
        <ele>304.9</ele>
        <time>2017-02-27T09:31:46Z</time>
      </trkpt>
      <trkpt lat="43.34149" lon="2.56006">
        <ele>304.6</ele>
        <time>2017-02-27T09:31:53Z</time>
      </trkpt>
      <trkpt lat="43.34147" lon="2.56017">
        <ele>304.9</ele>
        <time>2017-02-27T09:31:58Z</time>
      </trkpt>
      <trkpt lat="43.34143" lon="2.56028">
        <ele>305.4</ele>
        <time>2017-02-27T09:32:04Z</time>
      </trkpt>
      <trkpt lat="43.3414" lon="2.56037">
        <ele>306.7</ele>
        <time>2017-02-27T09:32:10Z</time>
      </trkpt>
      <trkpt lat="43.34138" lon="2.56047">
        <ele>308.8</ele>
        <time>2017-02-27T09:32:17Z</time>
      </trkpt>
      <trkpt lat="43.34133" lon="2.56055">
        <ele>310.6</ele>
        <time>2017-02-27T09:32:23Z</time>
      </trkpt>
      <trkpt lat="43.34128" lon="2.56064">
        <ele>312.2</ele>
        <time>2017-02-27T09:32:29Z</time>
      </trkpt>
      <trkpt lat="43.34125" lon="2.56073">
        <ele>312.6</ele>
        <time>2017-02-27T09:32:34Z</time>
      </trkpt>
      <trkpt lat="43.34124" lon="2.56084">
        <ele>311.7</ele>
        <time>2017-02-27T09:32:40Z</time>
      </trkpt>
      <trkpt lat="43.34129" lon="2.56091">
        <ele>311.3</ele>
        <time>2017-02-27T09:32:47Z</time>
      </trkpt>
      <trkpt lat="43.34136" lon="2.56089">
        <ele>311.3</ele>
        <time>2017-02-27T09:32:53Z</time>
      </trkpt>
      <trkpt lat="43.34145" lon="2.56085">
        <ele>311.3</ele>
        <time>2017-02-27T09:33:00Z</time>
      </trkpt>
      <trkpt lat="43.34152" lon="2.56082">
        <ele>311.2</ele>
        <time>2017-02-27T09:33:06Z</time>
      </trkpt>
      <trkpt lat="43.34158" lon="2.56082">
        <ele>310.3</ele>
        <time>2017-02-27T09:33:13Z</time>
      </trkpt>
      <trkpt lat="43.34166" lon="2.56085">
        <ele>310.1</ele>
        <time>2017-02-27T09:33:20Z</time>
      </trkpt>
      <trkpt lat="43.34174" lon="2.56086">
        <ele>309.1</ele>
        <time>2017-02-27T09:33:26Z</time>
      </trkpt>
      <trkpt lat="43.34181" lon="2.56089">
        <ele>309.5</ele>
        <time>2017-02-27T09:33:31Z</time>
      </trkpt>
      <trkpt lat="43.34187" lon="2.56091">
        <ele>310</ele>
        <time>2017-02-27T09:33:38Z</time>
      </trkpt>
      <trkpt lat="43.34188" lon="2.56091">
        <ele>310.3</ele>
        <time>2017-02-27T09:33:45Z</time>
      </trkpt>
      <trkpt lat="43.34197" lon="2.56089">
        <ele>307.4</ele>
        <time>2017-02-27T09:34:02Z</time>
      </trkpt>
      <trkpt lat="43.34194" lon="2.56091">
        <ele>307</ele>
        <time>2017-02-27T09:34:09Z</time>
      </trkpt>
      <trkpt lat="43.34187" lon="2.56099">
        <ele>308.6</ele>
        <time>2017-02-27T09:34:23Z</time>
      </trkpt>
      <trkpt lat="43.34191" lon="2.56095">
        <ele>310.6</ele>
        <time>2017-02-27T09:35:08Z</time>
      </trkpt>
      <trkpt lat="43.34196" lon="2.56091">
        <ele>310.7</ele>
        <time>2017-02-27T09:35:15Z</time>
      </trkpt>
      <trkpt lat="43.342" lon="2.56087">
        <ele>310.8</ele>
        <time>2017-02-27T09:35:22Z</time>
      </trkpt>
      <trkpt lat="43.34202" lon="2.56082">
        <ele>310.9</ele>
        <time>2017-02-27T09:35:29Z</time>
      </trkpt>
      <trkpt lat="43.34207" lon="2.56081">
        <ele>311.2</ele>
        <time>2017-02-27T09:35:36Z</time>
      </trkpt>
      <trkpt lat="43.3421" lon="2.56082">
        <ele>312</ele>
        <time>2017-02-27T09:35:43Z</time>
      </trkpt>
      <trkpt lat="43.34215" lon="2.56079">
        <ele>312.1</ele>
        <time>2017-02-27T09:35:50Z</time>
      </trkpt>
      <trkpt lat="43.3422" lon="2.56077">
        <ele>312.4</ele>
        <time>2017-02-27T09:35:57Z</time>
      </trkpt>
      <trkpt lat="43.34224" lon="2.56076">
        <ele>313.1</ele>
        <time>2017-02-27T09:36:04Z</time>
      </trkpt>
      <trkpt lat="43.34227" lon="2.56076">
        <ele>314.3</ele>
        <time>2017-02-27T09:36:11Z</time>
      </trkpt>
      <trkpt lat="43.3423" lon="2.56074">
        <ele>315.4</ele>
        <time>2017-02-27T09:36:18Z</time>
      </trkpt>
      <trkpt lat="43.34232" lon="2.5607">
        <ele>317</ele>
        <time>2017-02-27T09:36:25Z</time>
      </trkpt>
      <trkpt lat="43.34232" lon="2.56065">
        <ele>318.1</ele>
        <time>2017-02-27T09:36:32Z</time>
      </trkpt>
      <trkpt lat="43.34231" lon="2.56059">
        <ele>318.9</ele>
        <time>2017-02-27T09:36:39Z</time>
      </trkpt>
      <trkpt lat="43.34231" lon="2.56051">
        <ele>319.5</ele>
        <time>2017-02-27T09:36:46Z</time>
      </trkpt>
      <trkpt lat="43.34231" lon="2.56042">
        <ele>319.6</ele>
        <time>2017-02-27T09:36:53Z</time>
      </trkpt>
      <trkpt lat="43.34231" lon="2.56034">
        <ele>319</ele>
        <time>2017-02-27T09:37:00Z</time>
      </trkpt>
      <trkpt lat="43.3423" lon="2.56023">
        <ele>318.5</ele>
        <time>2017-02-27T09:37:06Z</time>
      </trkpt>
      <trkpt lat="43.3423" lon="2.56012">
        <ele>318.5</ele>
        <time>2017-02-27T09:37:13Z</time>
      </trkpt>
      <trkpt lat="43.34229" lon="2.56003">
        <ele>318.8</ele>
        <time>2017-02-27T09:37:20Z</time>
      </trkpt>
      <trkpt lat="43.34226" lon="2.55993">
        <ele>320</ele>
        <time>2017-02-27T09:37:27Z</time>
      </trkpt>
      <trkpt lat="43.34225" lon="2.55984">
        <ele>321.4</ele>
        <time>2017-02-27T09:37:34Z</time>
      </trkpt>
      <trkpt lat="43.34225" lon="2.55976">
        <ele>322.8</ele>
        <time>2017-02-27T09:37:41Z</time>
      </trkpt>
      <trkpt lat="43.34227" lon="2.55966">
        <ele>324.1</ele>
        <time>2017-02-27T09:37:48Z</time>
      </trkpt>
      <trkpt lat="43.34229" lon="2.55957">
        <ele>325.7</ele>
        <time>2017-02-27T09:37:55Z</time>
      </trkpt>
      <trkpt lat="43.34232" lon="2.5595">
        <ele>327.3</ele>
        <time>2017-02-27T09:38:02Z</time>
      </trkpt>
      <trkpt lat="43.34235" lon="2.55944">
        <ele>328.5</ele>
        <time>2017-02-27T09:38:09Z</time>
      </trkpt>
      <trkpt lat="43.34238" lon="2.55937">
        <ele>330</ele>
        <time>2017-02-27T09:38:16Z</time>
      </trkpt>
      <trkpt lat="43.34241" lon="2.5593">
        <ele>332</ele>
        <time>2017-02-27T09:38:23Z</time>
      </trkpt>
      <trkpt lat="43.34247" lon="2.55922">
        <ele>333.2</ele>
        <time>2017-02-27T09:38:30Z</time>
      </trkpt>
      <trkpt lat="43.34252" lon="2.55915">
        <ele>334.7</ele>
        <time>2017-02-27T09:38:37Z</time>
      </trkpt>
      <trkpt lat="43.34254" lon="2.55907">
        <ele>336.9</ele>
        <time>2017-02-27T09:38:44Z</time>
      </trkpt>
      <trkpt lat="43.34256" lon="2.55898">
        <ele>339.4</ele>
        <time>2017-02-27T09:38:51Z</time>
      </trkpt>
      <trkpt lat="43.34258" lon="2.5589">
        <ele>341.3</ele>
        <time>2017-02-27T09:38:58Z</time>
      </trkpt>
      <trkpt lat="43.34261" lon="2.55885">
        <ele>343.3</ele>
        <time>2017-02-27T09:39:05Z</time>
      </trkpt>
      <trkpt lat="43.34264" lon="2.5588">
        <ele>344.7</ele>
        <time>2017-02-27T09:39:12Z</time>
      </trkpt>
      <trkpt lat="43.34265" lon="2.55875">
        <ele>345.7</ele>
        <time>2017-02-27T09:39:19Z</time>
      </trkpt>
      <trkpt lat="43.34269" lon="2.55871">
        <ele>346.3</ele>
        <time>2017-02-27T09:39:26Z</time>
      </trkpt>
      <trkpt lat="43.34272" lon="2.55864">
        <ele>346.7</ele>
        <time>2017-02-27T09:39:33Z</time>
      </trkpt>
      <trkpt lat="43.34276" lon="2.5586">
        <ele>347.1</ele>
        <time>2017-02-27T09:39:40Z</time>
      </trkpt>
      <trkpt lat="43.34281" lon="2.55854">
        <ele>346.9</ele>
        <time>2017-02-27T09:39:47Z</time>
      </trkpt>
      <trkpt lat="43.34284" lon="2.55847">
        <ele>347</ele>
        <time>2017-02-27T09:39:54Z</time>
      </trkpt>
      <trkpt lat="43.34289" lon="2.5584">
        <ele>347.8</ele>
        <time>2017-02-27T09:40:01Z</time>
      </trkpt>
      <trkpt lat="43.34293" lon="2.55836">
        <ele>348.9</ele>
        <time>2017-02-27T09:40:08Z</time>
      </trkpt>
      <trkpt lat="43.34297" lon="2.55831">
        <ele>350</ele>
        <time>2017-02-27T09:40:15Z</time>
      </trkpt>
      <trkpt lat="43.34299" lon="2.55823">
        <ele>351.4</ele>
        <time>2017-02-27T09:40:22Z</time>
      </trkpt>
      <trkpt lat="43.34303" lon="2.55816">
        <ele>353.1</ele>
        <time>2017-02-27T09:40:29Z</time>
      </trkpt>
      <trkpt lat="43.34305" lon="2.55812">
        <ele>354.5</ele>
        <time>2017-02-27T09:40:36Z</time>
      </trkpt>
      <trkpt lat="43.34308" lon="2.55806">
        <ele>356.3</ele>
        <time>2017-02-27T09:40:49Z</time>
      </trkpt>
      <trkpt lat="43.34313" lon="2.55803">
        <ele>357.4</ele>
        <time>2017-02-27T09:40:56Z</time>
      </trkpt>
      <trkpt lat="43.34319" lon="2.55805">
        <ele>358</ele>
        <time>2017-02-27T09:41:03Z</time>
      </trkpt>
      <trkpt lat="43.34321" lon="2.55804">
        <ele>358.1</ele>
        <time>2017-02-27T09:41:10Z</time>
      </trkpt>
      <trkpt lat="43.34329" lon="2.55808">
        <ele>359</ele>
        <time>2017-02-27T09:41:23Z</time>
      </trkpt>
      <trkpt lat="43.34336" lon="2.55812">
        <ele>359.7</ele>
        <time>2017-02-27T09:41:30Z</time>
      </trkpt>
      <trkpt lat="43.34344" lon="2.55814">
        <ele>361.1</ele>
        <time>2017-02-27T09:41:37Z</time>
      </trkpt>
      <trkpt lat="43.34349" lon="2.55816">
        <ele>363.9</ele>
        <time>2017-02-27T09:41:44Z</time>
      </trkpt>
      <trkpt lat="43.34355" lon="2.55818">
        <ele>366.4</ele>
        <time>2017-02-27T09:41:51Z</time>
      </trkpt>
      <trkpt lat="43.34362" lon="2.55819">
        <ele>369.4</ele>
        <time>2017-02-27T09:41:58Z</time>
      </trkpt>
      <trkpt lat="43.34367" lon="2.5582">
        <ele>373.9</ele>
        <time>2017-02-27T09:42:05Z</time>
      </trkpt>
      <trkpt lat="43.34373" lon="2.55822">
        <ele>377.6</ele>
        <time>2017-02-27T09:42:12Z</time>
      </trkpt>
      <trkpt lat="43.3438" lon="2.55825">
        <ele>379.5</ele>
        <time>2017-02-27T09:42:19Z</time>
      </trkpt>
      <trkpt lat="43.34386" lon="2.55827">
        <ele>382.2</ele>
        <time>2017-02-27T09:42:26Z</time>
      </trkpt>
      <trkpt lat="43.34393" lon="2.55828">
        <ele>384.8</ele>
        <time>2017-02-27T09:42:33Z</time>
      </trkpt>
      <trkpt lat="43.344" lon="2.5583">
        <ele>387.6</ele>
        <time>2017-02-27T09:42:40Z</time>
      </trkpt>
      <trkpt lat="43.34405" lon="2.55834">
        <ele>390.6</ele>
        <time>2017-02-27T09:42:47Z</time>
      </trkpt>
      <trkpt lat="43.34409" lon="2.55837">
        <ele>392.7</ele>
        <time>2017-02-27T09:42:54Z</time>
      </trkpt>
      <trkpt lat="43.34414" lon="2.55839">
        <ele>394.4</ele>
        <time>2017-02-27T09:43:01Z</time>
      </trkpt>
      <trkpt lat="43.34418" lon="2.55844">
        <ele>396.2</ele>
        <time>2017-02-27T09:43:08Z</time>
      </trkpt>
      <trkpt lat="43.34421" lon="2.55847">
        <ele>397.5</ele>
        <time>2017-02-27T09:43:15Z</time>
      </trkpt>
      <trkpt lat="43.34426" lon="2.55852">
        <ele>398.2</ele>
        <time>2017-02-27T09:43:22Z</time>
      </trkpt>
      <trkpt lat="43.34431" lon="2.55857">
        <ele>399.9</ele>
        <time>2017-02-27T09:43:29Z</time>
      </trkpt>
      <trkpt lat="43.34434" lon="2.55865">
        <ele>401.1</ele>
        <time>2017-02-27T09:43:36Z</time>
      </trkpt>
      <trkpt lat="43.34438" lon="2.55873">
        <ele>401.8</ele>
        <time>2017-02-27T09:43:43Z</time>
      </trkpt>
      <trkpt lat="43.34445" lon="2.55877">
        <ele>402.9</ele>
        <time>2017-02-27T09:43:50Z</time>
      </trkpt>
      <trkpt lat="43.34449" lon="2.55883">
        <ele>403.9</ele>
        <time>2017-02-27T09:43:57Z</time>
      </trkpt>
      <trkpt lat="43.34452" lon="2.55889">
        <ele>404.7</ele>
        <time>2017-02-27T09:44:04Z</time>
      </trkpt>
      <trkpt lat="43.34456" lon="2.55896">
        <ele>405.8</ele>
        <time>2017-02-27T09:44:11Z</time>
      </trkpt>
      <trkpt lat="43.34462" lon="2.55903">
        <ele>407.1</ele>
        <time>2017-02-27T09:44:18Z</time>
      </trkpt>
      <trkpt lat="43.34466" lon="2.55911">
        <ele>407.7</ele>
        <time>2017-02-27T09:44:25Z</time>
      </trkpt>
      <trkpt lat="43.34471" lon="2.55918">
        <ele>409.2</ele>
        <time>2017-02-27T09:44:32Z</time>
      </trkpt>
      <trkpt lat="43.34471" lon="2.55924">
        <ele>410.6</ele>
        <time>2017-02-27T09:44:39Z</time>
      </trkpt>
      <trkpt lat="43.34471" lon="2.55927">
        <ele>411.1</ele>
        <time>2017-02-27T09:44:46Z</time>
      </trkpt>
      <trkpt lat="43.34475" lon="2.55936">
        <ele>410.3</ele>
        <time>2017-02-27T09:45:12Z</time>
      </trkpt>
      <trkpt lat="43.3448" lon="2.55942">
        <ele>410.3</ele>
        <time>2017-02-27T09:45:19Z</time>
      </trkpt>
      <trkpt lat="43.34484" lon="2.55949">
        <ele>410</ele>
        <time>2017-02-27T09:45:26Z</time>
      </trkpt>
      <trkpt lat="43.34486" lon="2.55956">
        <ele>409.3</ele>
        <time>2017-02-27T09:45:33Z</time>
      </trkpt>
      <trkpt lat="43.34485" lon="2.55958">
        <ele>407.9</ele>
        <time>2017-02-27T09:45:40Z</time>
      </trkpt>
      <trkpt lat="43.34481" lon="2.55959">
        <ele>407.8</ele>
        <time>2017-02-27T09:45:47Z</time>
      </trkpt>
      <trkpt lat="43.34479" lon="2.55963">
        <ele>407.4</ele>
        <time>2017-02-27T09:45:54Z</time>
      </trkpt>
      <trkpt lat="43.34478" lon="2.55964">
        <ele>407.3</ele>
        <time>2017-02-27T09:46:01Z</time>
      </trkpt>
      <trkpt lat="43.34474" lon="2.5596">
        <ele>406.5</ele>
        <time>2017-02-27T09:46:10Z</time>
      </trkpt>
      <trkpt lat="43.3448" lon="2.55957">
        <ele>407.1</ele>
        <time>2017-02-27T09:46:36Z</time>
      </trkpt>
      <trkpt lat="43.34486" lon="2.55958">
        <ele>407.5</ele>
        <time>2017-02-27T09:46:43Z</time>
      </trkpt>
      <trkpt lat="43.34492" lon="2.5596">
        <ele>407.8</ele>
        <time>2017-02-27T09:46:50Z</time>
      </trkpt>
      <trkpt lat="43.34494" lon="2.55966">
        <ele>408.2</ele>
        <time>2017-02-27T09:46:57Z</time>
      </trkpt>
      <trkpt lat="43.34495" lon="2.5597">
        <ele>408.3</ele>
        <time>2017-02-27T09:47:04Z</time>
      </trkpt>
      <trkpt lat="43.34496" lon="2.55976">
        <ele>408.7</ele>
        <time>2017-02-27T09:47:11Z</time>
      </trkpt>
      <trkpt lat="43.34498" lon="2.55978">
        <ele>408.7</ele>
        <time>2017-02-27T09:47:25Z</time>
      </trkpt>
      <trkpt lat="43.34512" lon="2.55984">
        <ele>406.4</ele>
        <time>2017-02-27T09:48:31Z</time>
      </trkpt>
      <trkpt lat="43.34514" lon="2.5599">
        <ele>406.2</ele>
        <time>2017-02-27T09:48:38Z</time>
      </trkpt>
      <trkpt lat="43.34516" lon="2.55993">
        <ele>406.5</ele>
        <time>2017-02-27T09:48:45Z</time>
      </trkpt>
      <trkpt lat="43.34516" lon="2.55991">
        <ele>406.4</ele>
        <time>2017-02-27T09:48:52Z</time>
      </trkpt>
      <trkpt lat="43.34509" lon="2.55985">
        <ele>406.7</ele>
        <time>2017-02-27T09:50:10Z</time>
      </trkpt>
      <trkpt lat="43.34508" lon="2.55986">
        <ele>406.7</ele>
        <time>2017-02-27T09:50:17Z</time>
      </trkpt>
      <trkpt lat="43.3451" lon="2.55996">
        <ele>407.5</ele>
        <time>2017-02-27T09:49:57Z</time>
      </trkpt>
      <trkpt lat="43.34513" lon="2.56">
        <ele>407.4</ele>
        <time>2017-02-27T09:51:09Z</time>
      </trkpt>
      <trkpt lat="43.34519" lon="2.56004">
        <ele>407.3</ele>
        <time>2017-02-27T09:51:16Z</time>
      </trkpt>
      <trkpt lat="43.34524" lon="2.56012">
        <ele>407</ele>
        <time>2017-02-27T09:51:23Z</time>
      </trkpt>
      <trkpt lat="43.34529" lon="2.5602">
        <ele>407</ele>
        <time>2017-02-27T09:51:30Z</time>
      </trkpt>
      <trkpt lat="43.34535" lon="2.56024">
        <ele>406.5</ele>
        <time>2017-02-27T09:51:37Z</time>
      </trkpt>
      <trkpt lat="43.34542" lon="2.56023">
        <ele>403.9</ele>
        <time>2017-02-27T09:51:44Z</time>
      </trkpt>
      <trkpt lat="43.3455" lon="2.56023">
        <ele>402.8</ele>
        <time>2017-02-27T09:51:51Z</time>
      </trkpt>
      <trkpt lat="43.34557" lon="2.56025">
        <ele>402</ele>
        <time>2017-02-27T09:51:58Z</time>
      </trkpt>
      <trkpt lat="43.34562" lon="2.56027">
        <ele>401.4</ele>
        <time>2017-02-27T09:52:05Z</time>
      </trkpt>
      <trkpt lat="43.34564" lon="2.56029">
        <ele>401.2</ele>
        <time>2017-02-27T09:52:12Z</time>
      </trkpt>
      <trkpt lat="43.34568" lon="2.56027">
        <ele>401.9</ele>
        <time>2017-02-27T09:52:38Z</time>
      </trkpt>
      <trkpt lat="43.34577" lon="2.56016">
        <ele>406.2</ele>
        <time>2017-02-27T09:54:40Z</time>
      </trkpt>
      <trkpt lat="43.34581" lon="2.56014">
        <ele>406.5</ele>
        <time>2017-02-27T09:54:47Z</time>
      </trkpt>
      <trkpt lat="43.34587" lon="2.56012">
        <ele>406.6</ele>
        <time>2017-02-27T09:54:54Z</time>
      </trkpt>
      <trkpt lat="43.3459" lon="2.56009">
        <ele>406.2</ele>
        <time>2017-02-27T09:55:01Z</time>
      </trkpt>
      <trkpt lat="43.34595" lon="2.56004">
        <ele>406.1</ele>
        <time>2017-02-27T09:55:08Z</time>
      </trkpt>
      <trkpt lat="43.34602" lon="2.56001">
        <ele>406.1</ele>
        <time>2017-02-27T09:55:15Z</time>
      </trkpt>
      <trkpt lat="43.34608" lon="2.55998">
        <ele>406.3</ele>
        <time>2017-02-27T09:55:22Z</time>
      </trkpt>
      <trkpt lat="43.34614" lon="2.55994">
        <ele>406.2</ele>
        <time>2017-02-27T09:55:29Z</time>
      </trkpt>
      <trkpt lat="43.34621" lon="2.55991">
        <ele>405.9</ele>
        <time>2017-02-27T09:55:36Z</time>
      </trkpt>
      <trkpt lat="43.34626" lon="2.55988">
        <ele>405.9</ele>
        <time>2017-02-27T09:55:43Z</time>
      </trkpt>
      <trkpt lat="43.34631" lon="2.55984">
        <ele>405.7</ele>
        <time>2017-02-27T09:55:50Z</time>
      </trkpt>
      <trkpt lat="43.34635" lon="2.55984">
        <ele>405.8</ele>
        <time>2017-02-27T09:55:57Z</time>
      </trkpt>
      <trkpt lat="43.34641" lon="2.5598">
        <ele>405</ele>
        <time>2017-02-27T09:56:04Z</time>
      </trkpt>
      <trkpt lat="43.34647" lon="2.55974">
        <ele>404.6</ele>
        <time>2017-02-27T09:56:11Z</time>
      </trkpt>
      <trkpt lat="43.34654" lon="2.55972">
        <ele>404.6</ele>
        <time>2017-02-27T09:56:18Z</time>
      </trkpt>
      <trkpt lat="43.34659" lon="2.55971">
        <ele>404.6</ele>
        <time>2017-02-27T09:56:25Z</time>
      </trkpt>
      <trkpt lat="43.34664" lon="2.55968">
        <ele>404.8</ele>
        <time>2017-02-27T09:56:32Z</time>
      </trkpt>
      <trkpt lat="43.34668" lon="2.55964">
        <ele>404.4</ele>
        <time>2017-02-27T09:56:39Z</time>
      </trkpt>
      <trkpt lat="43.3467" lon="2.55964">
        <ele>404.1</ele>
        <time>2017-02-27T09:56:46Z</time>
      </trkpt>
      <trkpt lat="43.34666" lon="2.5596">
        <ele>406.7</ele>
        <time>2017-02-27T09:57:17Z</time>
      </trkpt>
      <trkpt lat="43.34664" lon="2.55955">
        <ele>407.4</ele>
        <time>2017-02-27T09:57:37Z</time>
      </trkpt>
      <trkpt lat="43.34667" lon="2.5596">
        <ele>407.8</ele>
        <time>2017-02-27T09:57:52Z</time>
      </trkpt>
      <trkpt lat="43.34661" lon="2.55956">
        <ele>409.1</ele>
        <time>2017-02-27T09:57:26Z</time>
      </trkpt>
      <trkpt lat="43.34656" lon="2.55953">
        <ele>409.8</ele>
        <time>2017-02-27T09:58:38Z</time>
      </trkpt>
      <trkpt lat="43.34656" lon="2.55951">
        <ele>410</ele>
        <time>2017-02-27T09:58:45Z</time>
      </trkpt>
      <trkpt lat="43.34634" lon="2.5597">
        <ele>416.3</ele>
        <time>2017-02-27T10:01:50Z</time>
      </trkpt>
      <trkpt lat="43.3463" lon="2.55971">
        <ele>416.5</ele>
        <time>2017-02-27T10:01:57Z</time>
      </trkpt>
      <trkpt lat="43.34628" lon="2.55986">
        <ele>415.2</ele>
        <time>2017-02-27T10:03:52Z</time>
      </trkpt>
      <trkpt lat="43.34623" lon="2.55992">
        <ele>415.4</ele>
        <time>2017-02-27T10:03:59Z</time>
      </trkpt>
      <trkpt lat="43.3462" lon="2.55995">
        <ele>415.5</ele>
        <time>2017-02-27T10:04:06Z</time>
      </trkpt>
      <trkpt lat="43.34611" lon="2.55997">
        <ele>415.4</ele>
        <time>2017-02-27T10:04:26Z</time>
      </trkpt>
      <trkpt lat="43.34614" lon="2.56004">
        <ele>414.1</ele>
        <time>2017-02-27T10:05:06Z</time>
      </trkpt>
      <trkpt lat="43.34607" lon="2.56002">
        <ele>411.6</ele>
        <time>2017-02-27T10:05:27Z</time>
      </trkpt>
      <trkpt lat="43.34597" lon="2.56004">
        <ele>410</ele>
        <time>2017-02-27T10:05:48Z</time>
      </trkpt>
      <trkpt lat="43.34593" lon="2.56004">
        <ele>408.7</ele>
        <time>2017-02-27T10:05:55Z</time>
      </trkpt>
      <trkpt lat="43.3459" lon="2.56004">
        <ele>407.8</ele>
        <time>2017-02-27T10:06:02Z</time>
      </trkpt>
      <trkpt lat="43.34584" lon="2.56006">
        <ele>407.1</ele>
        <time>2017-02-27T10:06:09Z</time>
      </trkpt>
      <trkpt lat="43.34584" lon="2.56003">
        <ele>406.6</ele>
        <time>2017-02-27T10:06:16Z</time>
      </trkpt>
      <trkpt lat="43.34577" lon="2.5601">
        <ele>406.1</ele>
        <time>2017-02-27T10:06:25Z</time>
      </trkpt>
      <trkpt lat="43.34574" lon="2.56015">
        <ele>405.2</ele>
        <time>2017-02-27T10:06:32Z</time>
      </trkpt>
      <trkpt lat="43.34574" lon="2.56017">
        <ele>404.2</ele>
        <time>2017-02-27T10:06:39Z</time>
      </trkpt>
      <trkpt lat="43.3457" lon="2.56018">
        <ele>403.6</ele>
        <time>2017-02-27T10:06:46Z</time>
      </trkpt>
      <trkpt lat="43.34564" lon="2.56017">
        <ele>403.4</ele>
        <time>2017-02-27T10:06:53Z</time>
      </trkpt>
      <trkpt lat="43.34561" lon="2.56011">
        <ele>402.5</ele>
        <time>2017-02-27T10:07:00Z</time>
      </trkpt>
      <trkpt lat="43.34559" lon="2.5601">
        <ele>401.9</ele>
        <time>2017-02-27T10:07:07Z</time>
      </trkpt>
      <trkpt lat="43.34554" lon="2.56018">
        <ele>400.3</ele>
        <time>2017-02-27T10:07:25Z</time>
      </trkpt>
      <trkpt lat="43.34553" lon="2.56018">
        <ele>400.3</ele>
        <time>2017-02-27T10:07:32Z</time>
      </trkpt>
      <trkpt lat="43.34546" lon="2.5602">
        <ele>400.9</ele>
        <time>2017-02-27T10:07:08Z</time>
      </trkpt>
      <trkpt lat="43.34542" lon="2.56018">
        <ele>401.1</ele>
        <time>2017-02-27T10:08:20Z</time>
      </trkpt>
      <trkpt lat="43.34537" lon="2.56014">
        <ele>401.4</ele>
        <time>2017-02-27T10:08:27Z</time>
      </trkpt>
      <trkpt lat="43.3453" lon="2.56014">
        <ele>401.2</ele>
        <time>2017-02-27T10:08:34Z</time>
      </trkpt>
      <trkpt lat="43.34524" lon="2.56019">
        <ele>401.1</ele>
        <time>2017-02-27T10:08:41Z</time>
      </trkpt>
      <trkpt lat="43.34519" lon="2.56029">
        <ele>400.8</ele>
        <time>2017-02-27T10:08:48Z</time>
      </trkpt>
      <trkpt lat="43.34514" lon="2.56037">
        <ele>400.8</ele>
        <time>2017-02-27T10:08:54Z</time>
      </trkpt>
      <trkpt lat="43.34508" lon="2.56045">
        <ele>400.9</ele>
        <time>2017-02-27T10:09:00Z</time>
      </trkpt>
      <trkpt lat="43.34503" lon="2.5605">
        <ele>400.4</ele>
        <time>2017-02-27T10:09:07Z</time>
      </trkpt>
      <trkpt lat="43.34499" lon="2.56057">
        <ele>399.9</ele>
        <time>2017-02-27T10:09:14Z</time>
      </trkpt>
      <trkpt lat="43.34495" lon="2.56065">
        <ele>399.8</ele>
        <time>2017-02-27T10:09:21Z</time>
      </trkpt>
      <trkpt lat="43.34489" lon="2.56074">
        <ele>400</ele>
        <time>2017-02-27T10:09:27Z</time>
      </trkpt>
      <trkpt lat="43.34484" lon="2.56082">
        <ele>400.1</ele>
        <time>2017-02-27T10:09:32Z</time>
      </trkpt>
      <trkpt lat="43.3448" lon="2.56092">
        <ele>399.6</ele>
        <time>2017-02-27T10:09:38Z</time>
      </trkpt>
      <trkpt lat="43.34476" lon="2.56101">
        <ele>399</ele>
        <time>2017-02-27T10:09:43Z</time>
      </trkpt>
      <trkpt lat="43.34472" lon="2.5611">
        <ele>397.9</ele>
        <time>2017-02-27T10:09:47Z</time>
      </trkpt>
      <trkpt lat="43.3447" lon="2.56119">
        <ele>398.8</ele>
        <time>2017-02-27T10:09:54Z</time>
      </trkpt>
      <trkpt lat="43.34467" lon="2.56126">
        <ele>398.2</ele>
        <time>2017-02-27T10:10:01Z</time>
      </trkpt>
      <trkpt lat="43.34466" lon="2.56136">
        <ele>397.7</ele>
        <time>2017-02-27T10:10:08Z</time>
      </trkpt>
      <trkpt lat="43.34471" lon="2.56144">
        <ele>396.1</ele>
        <time>2017-02-27T10:10:15Z</time>
      </trkpt>
      <trkpt lat="43.34474" lon="2.56152">
        <ele>394.3</ele>
        <time>2017-02-27T10:10:22Z</time>
      </trkpt>
      <trkpt lat="43.34476" lon="2.56161">
        <ele>393.9</ele>
        <time>2017-02-27T10:10:29Z</time>
      </trkpt>
      <trkpt lat="43.34479" lon="2.56171">
        <ele>393.6</ele>
        <time>2017-02-27T10:10:37Z</time>
      </trkpt>
      <trkpt lat="43.34483" lon="2.5618">
        <ele>393.2</ele>
        <time>2017-02-27T10:10:43Z</time>
      </trkpt>
      <trkpt lat="43.34488" lon="2.56188">
        <ele>392.8</ele>
        <time>2017-02-27T10:10:50Z</time>
      </trkpt>
      <trkpt lat="43.3449" lon="2.56197">
        <ele>392.3</ele>
        <time>2017-02-27T10:10:57Z</time>
      </trkpt>
      <trkpt lat="43.34495" lon="2.56206">
        <ele>391.9</ele>
        <time>2017-02-27T10:11:04Z</time>
      </trkpt>
      <trkpt lat="43.34499" lon="2.56215">
        <ele>391.8</ele>
        <time>2017-02-27T10:11:11Z</time>
      </trkpt>
      <trkpt lat="43.34504" lon="2.56221">
        <ele>391.6</ele>
        <time>2017-02-27T10:11:18Z</time>
      </trkpt>
      <trkpt lat="43.34509" lon="2.56229">
        <ele>391.5</ele>
        <time>2017-02-27T10:11:25Z</time>
      </trkpt>
      <trkpt lat="43.34514" lon="2.56238">
        <ele>391.8</ele>
        <time>2017-02-27T10:11:32Z</time>
      </trkpt>
      <trkpt lat="43.34517" lon="2.56246">
        <ele>392</ele>
        <time>2017-02-27T10:11:38Z</time>
      </trkpt>
      <trkpt lat="43.34521" lon="2.56254">
        <ele>392.1</ele>
        <time>2017-02-27T10:11:45Z</time>
      </trkpt>
      <trkpt lat="43.34524" lon="2.56262">
        <ele>392.5</ele>
        <time>2017-02-27T10:11:53Z</time>
      </trkpt>
      <trkpt lat="43.34527" lon="2.56271">
        <ele>393.2</ele>
        <time>2017-02-27T10:11:59Z</time>
      </trkpt>
      <trkpt lat="43.34528" lon="2.56279">
        <ele>393.4</ele>
        <time>2017-02-27T10:12:06Z</time>
      </trkpt>
      <trkpt lat="43.34532" lon="2.56289">
        <ele>393.9</ele>
        <time>2017-02-27T10:12:13Z</time>
      </trkpt>
      <trkpt lat="43.34533" lon="2.56293">
        <ele>394.2</ele>
        <time>2017-02-27T10:12:20Z</time>
      </trkpt>
      <trkpt lat="43.34531" lon="2.56293">
        <ele>394.9</ele>
        <time>2017-02-27T10:12:27Z</time>
      </trkpt>
      <trkpt lat="43.34528" lon="2.56293">
        <ele>395.6</ele>
        <time>2017-02-27T10:12:34Z</time>
      </trkpt>
      <trkpt lat="43.34525" lon="2.56294">
        <ele>395.2</ele>
        <time>2017-02-27T10:12:41Z</time>
      </trkpt>
      <trkpt lat="43.34519" lon="2.56293">
        <ele>395.4</ele>
        <time>2017-02-27T10:12:48Z</time>
      </trkpt>
      <trkpt lat="43.34514" lon="2.56291">
        <ele>396.1</ele>
        <time>2017-02-27T10:12:55Z</time>
      </trkpt>
      <trkpt lat="43.34506" lon="2.56287">
        <ele>396.3</ele>
        <time>2017-02-27T10:13:02Z</time>
      </trkpt>
      <trkpt lat="43.34499" lon="2.56283">
        <ele>396.5</ele>
        <time>2017-02-27T10:13:09Z</time>
      </trkpt>
      <trkpt lat="43.34494" lon="2.56276">
        <ele>396.6</ele>
        <time>2017-02-27T10:13:16Z</time>
      </trkpt>
      <trkpt lat="43.34489" lon="2.5627">
        <ele>396.1</ele>
        <time>2017-02-27T10:13:23Z</time>
      </trkpt>
      <trkpt lat="43.34487" lon="2.56261">
        <ele>395.6</ele>
        <time>2017-02-27T10:13:30Z</time>
      </trkpt>
      <trkpt lat="43.34486" lon="2.56253">
        <ele>395.4</ele>
        <time>2017-02-27T10:13:38Z</time>
      </trkpt>
      <trkpt lat="43.34487" lon="2.5625">
        <ele>395.2</ele>
        <time>2017-02-27T10:13:44Z</time>
      </trkpt>
      <trkpt lat="43.34481" lon="2.56244">
        <ele>394.5</ele>
        <time>2017-02-27T10:13:55Z</time>
      </trkpt>
      <trkpt lat="43.34477" lon="2.56241">
        <ele>394.3</ele>
        <time>2017-02-27T10:14:02Z</time>
      </trkpt>
      <trkpt lat="43.34476" lon="2.56229">
        <ele>395.8</ele>
        <time>2017-02-27T10:15:22Z</time>
      </trkpt>
      <trkpt lat="43.34484" lon="2.56258">
        <ele>397.3</ele>
        <time>2017-02-27T10:17:03Z</time>
      </trkpt>
      <trkpt lat="43.34486" lon="2.56262">
        <ele>397.2</ele>
        <time>2017-02-27T10:17:10Z</time>
      </trkpt>
      <trkpt lat="43.34483" lon="2.56261">
        <ele>397.2</ele>
        <time>2017-02-27T10:18:03Z</time>
      </trkpt>
      <trkpt lat="43.34479" lon="2.56254">
        <ele>397.2</ele>
        <time>2017-02-27T10:18:10Z</time>
      </trkpt>
      <trkpt lat="43.34475" lon="2.56246">
        <ele>396.8</ele>
        <time>2017-02-27T10:18:17Z</time>
      </trkpt>
      <trkpt lat="43.34473" lon="2.56244">
        <ele>396.3</ele>
        <time>2017-02-27T10:18:24Z</time>
      </trkpt>
      <trkpt lat="43.34483" lon="2.56265">
        <ele>396.5</ele>
        <time>2017-02-27T10:43:47Z</time>
      </trkpt>
      <trkpt lat="43.34488" lon="2.5627">
        <ele>396.5</ele>
        <time>2017-02-27T10:43:54Z</time>
      </trkpt>
      <trkpt lat="43.34492" lon="2.56278">
        <ele>396.7</ele>
        <time>2017-02-27T10:44:01Z</time>
      </trkpt>
      <trkpt lat="43.34497" lon="2.56283">
        <ele>397.2</ele>
        <time>2017-02-27T10:44:07Z</time>
      </trkpt>
      <trkpt lat="43.34502" lon="2.5629">
        <ele>397.8</ele>
        <time>2017-02-27T10:44:14Z</time>
      </trkpt>
      <trkpt lat="43.34508" lon="2.56293">
        <ele>398.8</ele>
        <time>2017-02-27T10:44:21Z</time>
      </trkpt>
      <trkpt lat="43.34516" lon="2.56295">
        <ele>399.5</ele>
        <time>2017-02-27T10:44:28Z</time>
      </trkpt>
      <trkpt lat="43.34523" lon="2.56297">
        <ele>400.1</ele>
        <time>2017-02-27T10:44:35Z</time>
      </trkpt>
      <trkpt lat="43.3453" lon="2.56298">
        <ele>401.1</ele>
        <time>2017-02-27T10:44:42Z</time>
      </trkpt>
      <trkpt lat="43.34538" lon="2.563">
        <ele>402.1</ele>
        <time>2017-02-27T10:44:49Z</time>
      </trkpt>
      <trkpt lat="43.34544" lon="2.56305">
        <ele>403</ele>
        <time>2017-02-27T10:44:56Z</time>
      </trkpt>
      <trkpt lat="43.34546" lon="2.56307">
        <ele>403.2</ele>
        <time>2017-02-27T10:45:03Z</time>
      </trkpt>
      <trkpt lat="43.34546" lon="2.56309">
        <ele>403.4</ele>
        <time>2017-02-27T10:45:10Z</time>
      </trkpt>
      <trkpt lat="43.34542" lon="2.56316">
        <ele>404.5</ele>
        <time>2017-02-27T10:44:39Z</time>
      </trkpt>
      <trkpt lat="43.34545" lon="2.56316">
        <ele>407.4</ele>
        <time>2017-02-27T10:46:28Z</time>
      </trkpt>
      <trkpt lat="43.3455" lon="2.56313">
        <ele>407.7</ele>
        <time>2017-02-27T10:46:35Z</time>
      </trkpt>
      <trkpt lat="43.34553" lon="2.5631">
        <ele>407.4</ele>
        <time>2017-02-27T10:46:42Z</time>
      </trkpt>
      <trkpt lat="43.34559" lon="2.56307">
        <ele>407.5</ele>
        <time>2017-02-27T10:46:49Z</time>
      </trkpt>
      <trkpt lat="43.34563" lon="2.56305">
        <ele>407.7</ele>
        <time>2017-02-27T10:46:56Z</time>
      </trkpt>
      <trkpt lat="43.34569" lon="2.56305">
        <ele>408</ele>
        <time>2017-02-27T10:47:03Z</time>
      </trkpt>
      <trkpt lat="43.34577" lon="2.56304">
        <ele>408.6</ele>
        <time>2017-02-27T10:47:10Z</time>
      </trkpt>
      <trkpt lat="43.34585" lon="2.56304">
        <ele>409.3</ele>
        <time>2017-02-27T10:47:17Z</time>
      </trkpt>
      <trkpt lat="43.34592" lon="2.56302">
        <ele>409.9</ele>
        <time>2017-02-27T10:47:24Z</time>
      </trkpt>
      <trkpt lat="43.346" lon="2.56303">
        <ele>410.8</ele>
        <time>2017-02-27T10:47:31Z</time>
      </trkpt>
      <trkpt lat="43.34607" lon="2.56302">
        <ele>411.1</ele>
        <time>2017-02-27T10:47:38Z</time>
      </trkpt>
      <trkpt lat="43.34614" lon="2.56301">
        <ele>412.4</ele>
        <time>2017-02-27T10:47:43Z</time>
      </trkpt>
      <trkpt lat="43.3462" lon="2.56296">
        <ele>412.9</ele>
        <time>2017-02-27T10:47:50Z</time>
      </trkpt>
      <trkpt lat="43.34626" lon="2.5629">
        <ele>413</ele>
        <time>2017-02-27T10:47:57Z</time>
      </trkpt>
      <trkpt lat="43.34631" lon="2.56284">
        <ele>413.5</ele>
        <time>2017-02-27T10:48:04Z</time>
      </trkpt>
      <trkpt lat="43.34637" lon="2.56277">
        <ele>414.1</ele>
        <time>2017-02-27T10:48:11Z</time>
      </trkpt>
      <trkpt lat="43.34644" lon="2.56271">
        <ele>414.6</ele>
        <time>2017-02-27T10:48:18Z</time>
      </trkpt>
      <trkpt lat="43.3465" lon="2.56266">
        <ele>415.8</ele>
        <time>2017-02-27T10:48:24Z</time>
      </trkpt>
      <trkpt lat="43.34656" lon="2.5626">
        <ele>416.4</ele>
        <time>2017-02-27T10:48:31Z</time>
      </trkpt>
      <trkpt lat="43.34662" lon="2.56253">
        <ele>417.4</ele>
        <time>2017-02-27T10:48:38Z</time>
      </trkpt>
      <trkpt lat="43.3467" lon="2.56249">
        <ele>418.2</ele>
        <time>2017-02-27T10:48:45Z</time>
      </trkpt>
      <trkpt lat="43.34677" lon="2.56243">
        <ele>418.7</ele>
        <time>2017-02-27T10:48:52Z</time>
      </trkpt>
      <trkpt lat="43.34683" lon="2.56239">
        <ele>419.4</ele>
        <time>2017-02-27T10:48:59Z</time>
      </trkpt>
      <trkpt lat="43.34691" lon="2.56235">
        <ele>420.1</ele>
        <time>2017-02-27T10:49:04Z</time>
      </trkpt>
      <trkpt lat="43.34699" lon="2.56231">
        <ele>420.9</ele>
        <time>2017-02-27T10:49:11Z</time>
      </trkpt>
      <trkpt lat="43.34702" lon="2.56223">
        <ele>421.6</ele>
        <time>2017-02-27T10:49:18Z</time>
      </trkpt>
      <trkpt lat="43.34709" lon="2.56217">
        <ele>422.4</ele>
        <time>2017-02-27T10:49:25Z</time>
      </trkpt>
      <trkpt lat="43.34715" lon="2.56212">
        <ele>423.5</ele>
        <time>2017-02-27T10:49:31Z</time>
      </trkpt>
      <trkpt lat="43.34721" lon="2.56205">
        <ele>424.4</ele>
        <time>2017-02-27T10:49:38Z</time>
      </trkpt>
      <trkpt lat="43.34726" lon="2.562">
        <ele>425.6</ele>
        <time>2017-02-27T10:49:45Z</time>
      </trkpt>
      <trkpt lat="43.34732" lon="2.56195">
        <ele>426.5</ele>
        <time>2017-02-27T10:49:51Z</time>
      </trkpt>
      <trkpt lat="43.34739" lon="2.5619">
        <ele>427.5</ele>
        <time>2017-02-27T10:49:58Z</time>
      </trkpt>
      <trkpt lat="43.34744" lon="2.56182">
        <ele>428.6</ele>
        <time>2017-02-27T10:50:05Z</time>
      </trkpt>
      <trkpt lat="43.3475" lon="2.56174">
        <ele>429.4</ele>
        <time>2017-02-27T10:50:12Z</time>
      </trkpt>
      <trkpt lat="43.34756" lon="2.56167">
        <ele>431.1</ele>
        <time>2017-02-27T10:50:19Z</time>
      </trkpt>
      <trkpt lat="43.34762" lon="2.56163">
        <ele>432.9</ele>
        <time>2017-02-27T10:50:26Z</time>
      </trkpt>
      <trkpt lat="43.34768" lon="2.56157">
        <ele>434.3</ele>
        <time>2017-02-27T10:50:33Z</time>
      </trkpt>
      <trkpt lat="43.34774" lon="2.56151">
        <ele>436.1</ele>
        <time>2017-02-27T10:50:40Z</time>
      </trkpt>
      <trkpt lat="43.34782" lon="2.56147">
        <ele>438.3</ele>
        <time>2017-02-27T10:50:47Z</time>
      </trkpt>
      <trkpt lat="43.3479" lon="2.56142">
        <ele>439.4</ele>
        <time>2017-02-27T10:50:54Z</time>
      </trkpt>
      <trkpt lat="43.34796" lon="2.56138">
        <ele>439.8</ele>
        <time>2017-02-27T10:51:01Z</time>
      </trkpt>
      <trkpt lat="43.34802" lon="2.56133">
        <ele>440.5</ele>
        <time>2017-02-27T10:51:08Z</time>
      </trkpt>
      <trkpt lat="43.34809" lon="2.56127">
        <ele>441.6</ele>
        <time>2017-02-27T10:51:14Z</time>
      </trkpt>
      <trkpt lat="43.34815" lon="2.56122">
        <ele>443</ele>
        <time>2017-02-27T10:51:21Z</time>
      </trkpt>
      <trkpt lat="43.34823" lon="2.56117">
        <ele>443.8</ele>
        <time>2017-02-27T10:51:28Z</time>
      </trkpt>
      <trkpt lat="43.34828" lon="2.5611">
        <ele>444.2</ele>
        <time>2017-02-27T10:51:35Z</time>
      </trkpt>
      <trkpt lat="43.3483" lon="2.56108">
        <ele>444.8</ele>
        <time>2017-02-27T10:51:42Z</time>
      </trkpt>
      <trkpt lat="43.34836" lon="2.56101">
        <ele>445.8</ele>
        <time>2017-02-27T10:51:51Z</time>
      </trkpt>
      <trkpt lat="43.34843" lon="2.56096">
        <ele>445.4</ele>
        <time>2017-02-27T10:51:58Z</time>
      </trkpt>
      <trkpt lat="43.3485" lon="2.5609">
        <ele>445.4</ele>
        <time>2017-02-27T10:52:05Z</time>
      </trkpt>
      <trkpt lat="43.34856" lon="2.56084">
        <ele>445.6</ele>
        <time>2017-02-27T10:52:12Z</time>
      </trkpt>
      <trkpt lat="43.34863" lon="2.56078">
        <ele>445</ele>
        <time>2017-02-27T10:52:19Z</time>
      </trkpt>
      <trkpt lat="43.34868" lon="2.56071">
        <ele>444.4</ele>
        <time>2017-02-27T10:52:26Z</time>
      </trkpt>
      <trkpt lat="43.34876" lon="2.56066">
        <ele>444.2</ele>
        <time>2017-02-27T10:52:33Z</time>
      </trkpt>
      <trkpt lat="43.34881" lon="2.56058">
        <ele>444.1</ele>
        <time>2017-02-27T10:52:40Z</time>
      </trkpt>
      <trkpt lat="43.34886" lon="2.56049">
        <ele>443.5</ele>
        <time>2017-02-27T10:52:46Z</time>
      </trkpt>
      <trkpt lat="43.34889" lon="2.56039">
        <ele>442.8</ele>
        <time>2017-02-27T10:52:52Z</time>
      </trkpt>
      <trkpt lat="43.34895" lon="2.56031">
        <ele>443</ele>
        <time>2017-02-27T10:52:59Z</time>
      </trkpt>
      <trkpt lat="43.34899" lon="2.56023">
        <ele>443.2</ele>
        <time>2017-02-27T10:53:05Z</time>
      </trkpt>
      <trkpt lat="43.349" lon="2.56012">
        <ele>443.2</ele>
        <time>2017-02-27T10:53:12Z</time>
      </trkpt>
      <trkpt lat="43.34901" lon="2.56">
        <ele>443</ele>
        <time>2017-02-27T10:53:18Z</time>
      </trkpt>
      <trkpt lat="43.34902" lon="2.55989">
        <ele>443.8</ele>
        <time>2017-02-27T10:53:24Z</time>
      </trkpt>
      <trkpt lat="43.34904" lon="2.55979">
        <ele>445</ele>
        <time>2017-02-27T10:53:31Z</time>
      </trkpt>
      <trkpt lat="43.34906" lon="2.55969">
        <ele>448.8</ele>
        <time>2017-02-27T10:53:38Z</time>
      </trkpt>
      <trkpt lat="43.34908" lon="2.55958">
        <ele>449.9</ele>
        <time>2017-02-27T10:53:43Z</time>
      </trkpt>
      <trkpt lat="43.3491" lon="2.55948">
        <ele>449.9</ele>
        <time>2017-02-27T10:53:50Z</time>
      </trkpt>
      <trkpt lat="43.34909" lon="2.55939">
        <ele>449.9</ele>
        <time>2017-02-27T10:53:56Z</time>
      </trkpt>
      <trkpt lat="43.3491" lon="2.55927">
        <ele>449.8</ele>
        <time>2017-02-27T10:54:03Z</time>
      </trkpt>
      <trkpt lat="43.34912" lon="2.55917">
        <ele>450.2</ele>
        <time>2017-02-27T10:54:09Z</time>
      </trkpt>
      <trkpt lat="43.34914" lon="2.55907">
        <ele>450.7</ele>
        <time>2017-02-27T10:54:16Z</time>
      </trkpt>
      <trkpt lat="43.34916" lon="2.55896">
        <ele>451.5</ele>
        <time>2017-02-27T10:54:21Z</time>
      </trkpt>
      <trkpt lat="43.34916" lon="2.55884">
        <ele>451.7</ele>
        <time>2017-02-27T10:54:27Z</time>
      </trkpt>
      <trkpt lat="43.34918" lon="2.55874">
        <ele>452.1</ele>
        <time>2017-02-27T10:54:33Z</time>
      </trkpt>
      <trkpt lat="43.34918" lon="2.55862">
        <ele>452.3</ele>
        <time>2017-02-27T10:54:39Z</time>
      </trkpt>
      <trkpt lat="43.34919" lon="2.55851">
        <ele>452.1</ele>
        <time>2017-02-27T10:54:45Z</time>
      </trkpt>
      <trkpt lat="43.34924" lon="2.55841">
        <ele>452.6</ele>
        <time>2017-02-27T10:54:51Z</time>
      </trkpt>
      <trkpt lat="43.34927" lon="2.55831">
        <ele>452.5</ele>
        <time>2017-02-27T10:54:57Z</time>
      </trkpt>
      <trkpt lat="43.34929" lon="2.55822">
        <ele>452.8</ele>
        <time>2017-02-27T10:55:03Z</time>
      </trkpt>
      <trkpt lat="43.34931" lon="2.55809">
        <ele>452</ele>
        <time>2017-02-27T10:55:10Z</time>
      </trkpt>
      <trkpt lat="43.3493" lon="2.55798">
        <ele>452.6</ele>
        <time>2017-02-27T10:55:15Z</time>
      </trkpt>
      <trkpt lat="43.3493" lon="2.55786">
        <ele>452.9</ele>
        <time>2017-02-27T10:55:21Z</time>
      </trkpt>
      <trkpt lat="43.3493" lon="2.55775">
        <ele>453.8</ele>
        <time>2017-02-27T10:55:26Z</time>
      </trkpt>
      <trkpt lat="43.34931" lon="2.55765">
        <ele>454.7</ele>
        <time>2017-02-27T10:55:31Z</time>
      </trkpt>
      <trkpt lat="43.34933" lon="2.55756">
        <ele>454.8</ele>
        <time>2017-02-27T10:55:36Z</time>
      </trkpt>
      <trkpt lat="43.34934" lon="2.55745">
        <ele>455</ele>
        <time>2017-02-27T10:55:42Z</time>
      </trkpt>
      <trkpt lat="43.34935" lon="2.55734">
        <ele>455.3</ele>
        <time>2017-02-27T10:55:47Z</time>
      </trkpt>
      <trkpt lat="43.34938" lon="2.55725">
        <ele>454</ele>
        <time>2017-02-27T10:55:54Z</time>
      </trkpt>
      <trkpt lat="43.3494" lon="2.55715">
        <ele>452.7</ele>
        <time>2017-02-27T10:56:01Z</time>
      </trkpt>
      <trkpt lat="43.34943" lon="2.55707">
        <ele>449.8</ele>
        <time>2017-02-27T10:56:08Z</time>
      </trkpt>
      <trkpt lat="43.34945" lon="2.55696">
        <ele>447.4</ele>
        <time>2017-02-27T10:56:14Z</time>
      </trkpt>
      <trkpt lat="43.34946" lon="2.55686">
        <ele>447</ele>
        <time>2017-02-27T10:56:20Z</time>
      </trkpt>
      <trkpt lat="43.34948" lon="2.55675">
        <ele>447</ele>
        <time>2017-02-27T10:56:26Z</time>
      </trkpt>
      <trkpt lat="43.3495" lon="2.55664">
        <ele>447</ele>
        <time>2017-02-27T10:56:32Z</time>
      </trkpt>
      <trkpt lat="43.34952" lon="2.55653">
        <ele>448.3</ele>
        <time>2017-02-27T10:56:38Z</time>
      </trkpt>
      <trkpt lat="43.34952" lon="2.55648">
        <ele>450.2</ele>
        <time>2017-02-27T10:56:45Z</time>
      </trkpt>
      <trkpt lat="43.34959" lon="2.55644">
        <ele>453.1</ele>
        <time>2017-02-27T10:56:55Z</time>
      </trkpt>
      <trkpt lat="43.34964" lon="2.55639">
        <ele>453.6</ele>
        <time>2017-02-27T10:57:02Z</time>
      </trkpt>
      <trkpt lat="43.3497" lon="2.55631">
        <ele>455</ele>
        <time>2017-02-27T10:57:08Z</time>
      </trkpt>
      <trkpt lat="43.34975" lon="2.55625">
        <ele>455</ele>
        <time>2017-02-27T10:57:14Z</time>
      </trkpt>
      <trkpt lat="43.34983" lon="2.55622">
        <ele>454.3</ele>
        <time>2017-02-27T10:57:20Z</time>
      </trkpt>
      <trkpt lat="43.3499" lon="2.55624">
        <ele>454.4</ele>
        <time>2017-02-27T10:57:27Z</time>
      </trkpt>
      <trkpt lat="43.34995" lon="2.55632">
        <ele>455.4</ele>
        <time>2017-02-27T10:57:34Z</time>
      </trkpt>
      <trkpt lat="43.35" lon="2.55639">
        <ele>457</ele>
        <time>2017-02-27T10:57:40Z</time>
      </trkpt>
      <trkpt lat="43.35004" lon="2.55649">
        <ele>458.2</ele>
        <time>2017-02-27T10:57:46Z</time>
      </trkpt>
      <trkpt lat="43.35009" lon="2.55658">
        <ele>458.8</ele>
        <time>2017-02-27T10:57:52Z</time>
      </trkpt>
      <trkpt lat="43.35015" lon="2.55666">
        <ele>460.1</ele>
        <time>2017-02-27T10:57:58Z</time>
      </trkpt>
      <trkpt lat="43.3502" lon="2.55673">
        <ele>461.1</ele>
        <time>2017-02-27T10:58:05Z</time>
      </trkpt>
      <trkpt lat="43.35026" lon="2.5568">
        <ele>461.4</ele>
        <time>2017-02-27T10:58:12Z</time>
      </trkpt>
      <trkpt lat="43.35031" lon="2.55687">
        <ele>461.9</ele>
        <time>2017-02-27T10:58:18Z</time>
      </trkpt>
      <trkpt lat="43.35036" lon="2.55695">
        <ele>462.1</ele>
        <time>2017-02-27T10:58:24Z</time>
      </trkpt>
      <trkpt lat="43.35043" lon="2.55701">
        <ele>462.9</ele>
        <time>2017-02-27T10:58:30Z</time>
      </trkpt>
      <trkpt lat="43.3505" lon="2.55705">
        <ele>465.2</ele>
        <time>2017-02-27T10:58:36Z</time>
      </trkpt>
      <trkpt lat="43.35058" lon="2.55702">
        <ele>468.1</ele>
        <time>2017-02-27T10:58:42Z</time>
      </trkpt>
      <trkpt lat="43.35063" lon="2.55695">
        <ele>469.6</ele>
        <time>2017-02-27T10:58:49Z</time>
      </trkpt>
      <trkpt lat="43.35068" lon="2.55687">
        <ele>470.5</ele>
        <time>2017-02-27T10:58:56Z</time>
      </trkpt>
      <trkpt lat="43.35074" lon="2.5568">
        <ele>471.4</ele>
        <time>2017-02-27T10:59:02Z</time>
      </trkpt>
      <trkpt lat="43.3508" lon="2.55673">
        <ele>472.6</ele>
        <time>2017-02-27T10:59:08Z</time>
      </trkpt>
      <trkpt lat="43.35086" lon="2.55667">
        <ele>474.1</ele>
        <time>2017-02-27T10:59:14Z</time>
      </trkpt>
      <trkpt lat="43.35093" lon="2.55661">
        <ele>474.6</ele>
        <time>2017-02-27T10:59:20Z</time>
      </trkpt>
      <trkpt lat="43.351" lon="2.55656">
        <ele>474.7</ele>
        <time>2017-02-27T10:59:26Z</time>
      </trkpt>
      <trkpt lat="43.35107" lon="2.55651">
        <ele>474.5</ele>
        <time>2017-02-27T10:59:33Z</time>
      </trkpt>
      <trkpt lat="43.35115" lon="2.5565">
        <ele>474.9</ele>
        <time>2017-02-27T10:59:40Z</time>
      </trkpt>
      <trkpt lat="43.35122" lon="2.5565">
        <ele>475.3</ele>
        <time>2017-02-27T10:59:46Z</time>
      </trkpt>
      <trkpt lat="43.35131" lon="2.5565">
        <ele>477.1</ele>
        <time>2017-02-27T10:59:52Z</time>
      </trkpt>
      <trkpt lat="43.35139" lon="2.55651">
        <ele>477.8</ele>
        <time>2017-02-27T10:59:59Z</time>
      </trkpt>
      <trkpt lat="43.35145" lon="2.55657">
        <ele>478.6</ele>
        <time>2017-02-27T11:00:06Z</time>
      </trkpt>
      <trkpt lat="43.3515" lon="2.55666">
        <ele>478.6</ele>
        <time>2017-02-27T11:00:13Z</time>
      </trkpt>
      <trkpt lat="43.35154" lon="2.55673">
        <ele>479.1</ele>
        <time>2017-02-27T11:00:18Z</time>
      </trkpt>
      <trkpt lat="43.35162" lon="2.55679">
        <ele>480.1</ele>
        <time>2017-02-27T11:00:25Z</time>
      </trkpt>
      <trkpt lat="43.35169" lon="2.55679">
        <ele>481.1</ele>
        <time>2017-02-27T11:00:31Z</time>
      </trkpt>
      <trkpt lat="43.35176" lon="2.55676">
        <ele>481.5</ele>
        <time>2017-02-27T11:00:37Z</time>
      </trkpt>
      <trkpt lat="43.35182" lon="2.55667">
        <ele>483.4</ele>
        <time>2017-02-27T11:00:44Z</time>
      </trkpt>
      <trkpt lat="43.35188" lon="2.55662">
        <ele>484.5</ele>
        <time>2017-02-27T11:00:50Z</time>
      </trkpt>
      <trkpt lat="43.35196" lon="2.55663">
        <ele>485.1</ele>
        <time>2017-02-27T11:00:56Z</time>
      </trkpt>
      <trkpt lat="43.35203" lon="2.55663">
        <ele>486.4</ele>
        <time>2017-02-27T11:01:03Z</time>
      </trkpt>
      <trkpt lat="43.3521" lon="2.55666">
        <ele>487.9</ele>
        <time>2017-02-27T11:01:10Z</time>
      </trkpt>
      <trkpt lat="43.35218" lon="2.55669">
        <ele>489.1</ele>
        <time>2017-02-27T11:01:16Z</time>
      </trkpt>
      <trkpt lat="43.35226" lon="2.5567">
        <ele>490.5</ele>
        <time>2017-02-27T11:01:22Z</time>
      </trkpt>
      <trkpt lat="43.35233" lon="2.55671">
        <ele>490.6</ele>
        <time>2017-02-27T11:01:28Z</time>
      </trkpt>
      <trkpt lat="43.3524" lon="2.55671">
        <ele>490.6</ele>
        <time>2017-02-27T11:01:35Z</time>
      </trkpt>
      <trkpt lat="43.35245" lon="2.5567">
        <ele>489.5</ele>
        <time>2017-02-27T11:01:42Z</time>
      </trkpt>
      <trkpt lat="43.35251" lon="2.55671">
        <ele>489.3</ele>
        <time>2017-02-27T11:01:49Z</time>
      </trkpt>
      <trkpt lat="43.35259" lon="2.5567">
        <ele>487.9</ele>
        <time>2017-02-27T11:01:56Z</time>
      </trkpt>
      <trkpt lat="43.35267" lon="2.55668">
        <ele>490.9</ele>
        <time>2017-02-27T11:02:00Z</time>
      </trkpt>
      <trkpt lat="43.35275" lon="2.55667">
        <ele>491.5</ele>
        <time>2017-02-27T11:02:06Z</time>
      </trkpt>
      <trkpt lat="43.35283" lon="2.55666">
        <ele>492.9</ele>
        <time>2017-02-27T11:02:11Z</time>
      </trkpt>
      <trkpt lat="43.35289" lon="2.55666">
        <ele>493.2</ele>
        <time>2017-02-27T11:02:18Z</time>
      </trkpt>
      <trkpt lat="43.35296" lon="2.55666">
        <ele>493.9</ele>
        <time>2017-02-27T11:02:25Z</time>
      </trkpt>
      <trkpt lat="43.35304" lon="2.55669">
        <ele>493.1</ele>
        <time>2017-02-27T11:02:31Z</time>
      </trkpt>
      <trkpt lat="43.35311" lon="2.55671">
        <ele>492.6</ele>
        <time>2017-02-27T11:02:36Z</time>
      </trkpt>
      <trkpt lat="43.35318" lon="2.55675">
        <ele>492.2</ele>
        <time>2017-02-27T11:02:43Z</time>
      </trkpt>
      <trkpt lat="43.35325" lon="2.55677">
        <ele>490.7</ele>
        <time>2017-02-27T11:02:49Z</time>
      </trkpt>
      <trkpt lat="43.35331" lon="2.55682">
        <ele>490.9</ele>
        <time>2017-02-27T11:02:54Z</time>
      </trkpt>
      <trkpt lat="43.35338" lon="2.55689">
        <ele>492.9</ele>
        <time>2017-02-27T11:03:01Z</time>
      </trkpt>
      <trkpt lat="43.35341" lon="2.55699">
        <ele>493.4</ele>
        <time>2017-02-27T11:03:07Z</time>
      </trkpt>
      <trkpt lat="43.35343" lon="2.55709">
        <ele>494.5</ele>
        <time>2017-02-27T11:03:12Z</time>
      </trkpt>
      <trkpt lat="43.35346" lon="2.55719">
        <ele>494.9</ele>
        <time>2017-02-27T11:03:17Z</time>
      </trkpt>
      <trkpt lat="43.35349" lon="2.5573">
        <ele>495.4</ele>
        <time>2017-02-27T11:03:23Z</time>
      </trkpt>
      <trkpt lat="43.35353" lon="2.55739">
        <ele>495.9</ele>
        <time>2017-02-27T11:03:29Z</time>
      </trkpt>
      <trkpt lat="43.35356" lon="2.5575">
        <ele>495.6</ele>
        <time>2017-02-27T11:03:35Z</time>
      </trkpt>
      <trkpt lat="43.35358" lon="2.5576">
        <ele>496.1</ele>
        <time>2017-02-27T11:03:41Z</time>
      </trkpt>
      <trkpt lat="43.35359" lon="2.55771">
        <ele>497.3</ele>
        <time>2017-02-27T11:03:46Z</time>
      </trkpt>
      <trkpt lat="43.35364" lon="2.5578">
        <ele>498.3</ele>
        <time>2017-02-27T11:03:52Z</time>
      </trkpt>
      <trkpt lat="43.35371" lon="2.55786">
        <ele>499.3</ele>
        <time>2017-02-27T11:03:58Z</time>
      </trkpt>
      <trkpt lat="43.35378" lon="2.55792">
        <ele>499.8</ele>
        <time>2017-02-27T11:04:04Z</time>
      </trkpt>
      <trkpt lat="43.35383" lon="2.55801">
        <ele>501.4</ele>
        <time>2017-02-27T11:04:10Z</time>
      </trkpt>
      <trkpt lat="43.35383" lon="2.55811">
        <ele>502.5</ele>
        <time>2017-02-27T11:04:17Z</time>
      </trkpt>
      <trkpt lat="43.35386" lon="2.55822">
        <ele>503.4</ele>
        <time>2017-02-27T11:04:24Z</time>
      </trkpt>
      <trkpt lat="43.35389" lon="2.55833">
        <ele>503.5</ele>
        <time>2017-02-27T11:04:31Z</time>
      </trkpt>
      <trkpt lat="43.35392" lon="2.55842">
        <ele>503.6</ele>
        <time>2017-02-27T11:04:37Z</time>
      </trkpt>
      <trkpt lat="43.3539" lon="2.55853">
        <ele>504.2</ele>
        <time>2017-02-27T11:04:44Z</time>
      </trkpt>
      <trkpt lat="43.35388" lon="2.55864">
        <ele>503.3</ele>
        <time>2017-02-27T11:04:51Z</time>
      </trkpt>
      <trkpt lat="43.35387" lon="2.55874">
        <ele>503.1</ele>
        <time>2017-02-27T11:04:57Z</time>
      </trkpt>
      <trkpt lat="43.35387" lon="2.55884">
        <ele>504</ele>
        <time>2017-02-27T11:05:02Z</time>
      </trkpt>
      <trkpt lat="43.35387" lon="2.55895">
        <ele>505.1</ele>
        <time>2017-02-27T11:05:07Z</time>
      </trkpt>
      <trkpt lat="43.35388" lon="2.55906">
        <ele>505</ele>
        <time>2017-02-27T11:05:13Z</time>
      </trkpt>
      <trkpt lat="43.35388" lon="2.55916">
        <ele>505.1</ele>
        <time>2017-02-27T11:05:18Z</time>
      </trkpt>
      <trkpt lat="43.35386" lon="2.55927">
        <ele>504.1</ele>
        <time>2017-02-27T11:05:24Z</time>
      </trkpt>
      <trkpt lat="43.35386" lon="2.55937">
        <ele>503.9</ele>
        <time>2017-02-27T11:05:30Z</time>
      </trkpt>
      <trkpt lat="43.35387" lon="2.55949">
        <ele>504.4</ele>
        <time>2017-02-27T11:05:36Z</time>
      </trkpt>
      <trkpt lat="43.35388" lon="2.5596">
        <ele>504.2</ele>
        <time>2017-02-27T11:05:42Z</time>
      </trkpt>
      <trkpt lat="43.35386" lon="2.55971">
        <ele>503.5</ele>
        <time>2017-02-27T11:05:48Z</time>
      </trkpt>
      <trkpt lat="43.35385" lon="2.5598">
        <ele>502.3</ele>
        <time>2017-02-27T11:05:54Z</time>
      </trkpt>
      <trkpt lat="43.35382" lon="2.55991">
        <ele>502.2</ele>
        <time>2017-02-27T11:06:00Z</time>
      </trkpt>
      <trkpt lat="43.35384" lon="2.56001">
        <ele>499.9</ele>
        <time>2017-02-27T11:06:06Z</time>
      </trkpt>
      <trkpt lat="43.35385" lon="2.56011">
        <ele>499</ele>
        <time>2017-02-27T11:06:11Z</time>
      </trkpt>
      <trkpt lat="43.35385" lon="2.56022">
        <ele>499</ele>
        <time>2017-02-27T11:06:17Z</time>
      </trkpt>
      <trkpt lat="43.35388" lon="2.56032">
        <ele>499.2</ele>
        <time>2017-02-27T11:06:24Z</time>
      </trkpt>
      <trkpt lat="43.35392" lon="2.56043">
        <ele>499.2</ele>
        <time>2017-02-27T11:06:31Z</time>
      </trkpt>
      <trkpt lat="43.35392" lon="2.56054">
        <ele>499.5</ele>
        <time>2017-02-27T11:06:36Z</time>
      </trkpt>
      <trkpt lat="43.35394" lon="2.56064">
        <ele>499.3</ele>
        <time>2017-02-27T11:06:42Z</time>
      </trkpt>
      <trkpt lat="43.35394" lon="2.56075">
        <ele>500.2</ele>
        <time>2017-02-27T11:06:47Z</time>
      </trkpt>
      <trkpt lat="43.35396" lon="2.56086">
        <ele>501.6</ele>
        <time>2017-02-27T11:06:53Z</time>
      </trkpt>
      <trkpt lat="43.35398" lon="2.56096">
        <ele>503</ele>
        <time>2017-02-27T11:07:00Z</time>
      </trkpt>
      <trkpt lat="43.354" lon="2.56105">
        <ele>503.1</ele>
        <time>2017-02-27T11:07:07Z</time>
      </trkpt>
      <trkpt lat="43.35403" lon="2.56116">
        <ele>504.8</ele>
        <time>2017-02-27T11:07:13Z</time>
      </trkpt>
      <trkpt lat="43.35405" lon="2.56118">
        <ele>506.4</ele>
        <time>2017-02-27T11:07:20Z</time>
      </trkpt>
      <trkpt lat="43.35406" lon="2.56127">
        <ele>506.5</ele>
        <time>2017-02-27T11:07:51Z</time>
      </trkpt>
      <trkpt lat="43.35411" lon="2.56138">
        <ele>504.3</ele>
        <time>2017-02-27T11:08:05Z</time>
      </trkpt>
      <trkpt lat="43.35414" lon="2.56147">
        <ele>504.1</ele>
        <time>2017-02-27T11:08:12Z</time>
      </trkpt>
      <trkpt lat="43.3542" lon="2.56155">
        <ele>503.5</ele>
        <time>2017-02-27T11:08:19Z</time>
      </trkpt>
      <trkpt lat="43.35422" lon="2.56165">
        <ele>503.9</ele>
        <time>2017-02-27T11:08:26Z</time>
      </trkpt>
      <trkpt lat="43.35425" lon="2.56174">
        <ele>504</ele>
        <time>2017-02-27T11:08:33Z</time>
      </trkpt>
      <trkpt lat="43.35428" lon="2.56182">
        <ele>504.5</ele>
        <time>2017-02-27T11:08:39Z</time>
      </trkpt>
      <trkpt lat="43.35432" lon="2.56193">
        <ele>506.4</ele>
        <time>2017-02-27T11:08:45Z</time>
      </trkpt>
      <trkpt lat="43.35436" lon="2.56201">
        <ele>507.8</ele>
        <time>2017-02-27T11:08:51Z</time>
      </trkpt>
      <trkpt lat="43.3544" lon="2.56211">
        <ele>509.7</ele>
        <time>2017-02-27T11:08:58Z</time>
      </trkpt>
      <trkpt lat="43.35443" lon="2.56221">
        <ele>511.3</ele>
        <time>2017-02-27T11:09:04Z</time>
      </trkpt>
      <trkpt lat="43.35445" lon="2.56228">
        <ele>512.6</ele>
        <time>2017-02-27T11:09:11Z</time>
      </trkpt>
      <trkpt lat="43.35449" lon="2.56238">
        <ele>513.6</ele>
        <time>2017-02-27T11:09:18Z</time>
      </trkpt>
      <trkpt lat="43.35452" lon="2.56246">
        <ele>514.4</ele>
        <time>2017-02-27T11:09:24Z</time>
      </trkpt>
      <trkpt lat="43.35456" lon="2.56257">
        <ele>515</ele>
        <time>2017-02-27T11:09:30Z</time>
      </trkpt>
      <trkpt lat="43.35459" lon="2.56267">
        <ele>515.6</ele>
        <time>2017-02-27T11:09:35Z</time>
      </trkpt>
      <trkpt lat="43.35461" lon="2.56277">
        <ele>516.5</ele>
        <time>2017-02-27T11:09:41Z</time>
      </trkpt>
      <trkpt lat="43.35463" lon="2.56287">
        <ele>516.5</ele>
        <time>2017-02-27T11:09:45Z</time>
      </trkpt>
      <trkpt lat="43.35467" lon="2.5629">
        <ele>516.8</ele>
        <time>2017-02-27T11:09:52Z</time>
      </trkpt>
      <trkpt lat="43.35473" lon="2.56286">
        <ele>516.7</ele>
        <time>2017-02-27T11:09:59Z</time>
      </trkpt>
      <trkpt lat="43.3548" lon="2.56281">
        <ele>516.2</ele>
        <time>2017-02-27T11:10:06Z</time>
      </trkpt>
      <trkpt lat="43.35488" lon="2.5628">
        <ele>516.4</ele>
        <time>2017-02-27T11:10:13Z</time>
      </trkpt>
      <trkpt lat="43.35495" lon="2.56277">
        <ele>518.3</ele>
        <time>2017-02-27T11:10:20Z</time>
      </trkpt>
      <trkpt lat="43.35502" lon="2.5628">
        <ele>518.9</ele>
        <time>2017-02-27T11:10:26Z</time>
      </trkpt>
      <trkpt lat="43.3551" lon="2.56282">
        <ele>519.2</ele>
        <time>2017-02-27T11:10:33Z</time>
      </trkpt>
      <trkpt lat="43.35518" lon="2.56282">
        <ele>519.3</ele>
        <time>2017-02-27T11:10:40Z</time>
      </trkpt>
      <trkpt lat="43.35526" lon="2.56281">
        <ele>519</ele>
        <time>2017-02-27T11:10:46Z</time>
      </trkpt>
      <trkpt lat="43.35533" lon="2.5628">
        <ele>519.1</ele>
        <time>2017-02-27T11:10:52Z</time>
      </trkpt>
      <trkpt lat="43.35541" lon="2.56278">
        <ele>519</ele>
        <time>2017-02-27T11:10:58Z</time>
      </trkpt>
      <trkpt lat="43.35547" lon="2.56273">
        <ele>519.2</ele>
        <time>2017-02-27T11:11:04Z</time>
      </trkpt>
      <trkpt lat="43.35554" lon="2.56266">
        <ele>520.4</ele>
        <time>2017-02-27T11:11:11Z</time>
      </trkpt>
      <trkpt lat="43.35558" lon="2.56263">
        <ele>520.6</ele>
        <time>2017-02-27T11:11:18Z</time>
      </trkpt>
      <trkpt lat="43.35562" lon="2.56269">
        <ele>520.3</ele>
        <time>2017-02-27T11:11:25Z</time>
      </trkpt>
      <trkpt lat="43.35568" lon="2.56274">
        <ele>520.2</ele>
        <time>2017-02-27T11:11:32Z</time>
      </trkpt>
      <trkpt lat="43.35575" lon="2.56276">
        <ele>519.7</ele>
        <time>2017-02-27T11:11:38Z</time>
      </trkpt>
      <trkpt lat="43.35583" lon="2.56276">
        <ele>519</ele>
        <time>2017-02-27T11:11:45Z</time>
      </trkpt>
      <trkpt lat="43.35591" lon="2.56278">
        <ele>517.8</ele>
        <time>2017-02-27T11:11:52Z</time>
      </trkpt>
      <trkpt lat="43.35598" lon="2.56282">
        <ele>517.1</ele>
        <time>2017-02-27T11:11:58Z</time>
      </trkpt>
      <trkpt lat="43.35606" lon="2.56287">
        <ele>516.3</ele>
        <time>2017-02-27T11:12:05Z</time>
      </trkpt>
      <trkpt lat="43.35608" lon="2.56289">
        <ele>516.7</ele>
        <time>2017-02-27T11:12:12Z</time>
      </trkpt>
      <trkpt lat="43.35616" lon="2.56289">
        <ele>518.8</ele>
        <time>2017-02-27T11:12:47Z</time>
      </trkpt>
      <trkpt lat="43.35622" lon="2.56293">
        <ele>518</ele>
        <time>2017-02-27T11:12:54Z</time>
      </trkpt>
      <trkpt lat="43.35628" lon="2.56298">
        <ele>517.3</ele>
        <time>2017-02-27T11:13:01Z</time>
      </trkpt>
      <trkpt lat="43.35632" lon="2.56305">
        <ele>516.3</ele>
        <time>2017-02-27T11:13:08Z</time>
      </trkpt>
      <trkpt lat="43.35634" lon="2.56307">
        <ele>516.1</ele>
        <time>2017-02-27T11:13:15Z</time>
      </trkpt>
      <trkpt lat="43.35632" lon="2.56311">
        <ele>515.5</ele>
        <time>2017-02-27T11:13:22Z</time>
      </trkpt>
      <trkpt lat="43.3563" lon="2.56316">
        <ele>515</ele>
        <time>2017-02-27T11:13:29Z</time>
      </trkpt>
      <trkpt lat="43.35629" lon="2.5632">
        <ele>514.8</ele>
        <time>2017-02-27T11:13:36Z</time>
      </trkpt>
      <trkpt lat="43.35627" lon="2.56322">
        <ele>514.3</ele>
        <time>2017-02-27T11:13:43Z</time>
      </trkpt>
      <trkpt lat="43.35628" lon="2.56327">
        <ele>513.9</ele>
        <time>2017-02-27T11:13:50Z</time>
      </trkpt>
      <trkpt lat="43.35632" lon="2.5632">
        <ele>513.9</ele>
        <time>2017-02-27T11:13:57Z</time>
      </trkpt>
      <trkpt lat="43.35633" lon="2.56312">
        <ele>513</ele>
        <time>2017-02-27T11:14:04Z</time>
      </trkpt>
      <trkpt lat="43.35633" lon="2.56309">
        <ele>513.7</ele>
        <time>2017-02-27T11:14:11Z</time>
      </trkpt>
      <trkpt lat="43.35636" lon="2.56308">
        <ele>513</ele>
        <time>2017-02-27T11:14:18Z</time>
      </trkpt>
      <trkpt lat="43.3564" lon="2.5631">
        <ele>512.3</ele>
        <time>2017-02-27T11:14:25Z</time>
      </trkpt>
      <trkpt lat="43.35641" lon="2.56313">
        <ele>511.6</ele>
        <time>2017-02-27T11:14:32Z</time>
      </trkpt>
      <trkpt lat="43.35644" lon="2.56324">
        <ele>510.6</ele>
        <time>2017-02-27T11:14:47Z</time>
      </trkpt>
      <trkpt lat="43.35646" lon="2.56325">
        <ele>510.3</ele>
        <time>2017-02-27T11:14:54Z</time>
      </trkpt>
      <trkpt lat="43.35649" lon="2.56329">
        <ele>509.5</ele>
        <time>2017-02-27T11:15:01Z</time>
      </trkpt>
      <trkpt lat="43.35655" lon="2.56333">
        <ele>509</ele>
        <time>2017-02-27T11:15:08Z</time>
      </trkpt>
      <trkpt lat="43.3566" lon="2.56337">
        <ele>508.4</ele>
        <time>2017-02-27T11:15:15Z</time>
      </trkpt>
      <trkpt lat="43.35663" lon="2.56339">
        <ele>507.7</ele>
        <time>2017-02-27T11:15:22Z</time>
      </trkpt>
      <trkpt lat="43.35668" lon="2.56339">
        <ele>507</ele>
        <time>2017-02-27T11:15:29Z</time>
      </trkpt>
      <trkpt lat="43.35672" lon="2.56342">
        <ele>505.8</ele>
        <time>2017-02-27T11:15:36Z</time>
      </trkpt>
      <trkpt lat="43.35671" lon="2.56341">
        <ele>505.3</ele>
        <time>2017-02-27T11:15:43Z</time>
      </trkpt>
      <trkpt lat="43.35668" lon="2.56341">
        <ele>505</ele>
        <time>2017-02-27T11:15:50Z</time>
      </trkpt>
      <trkpt lat="43.35663" lon="2.5634">
        <ele>504.6</ele>
        <time>2017-02-27T11:15:57Z</time>
      </trkpt>
      <trkpt lat="43.35657" lon="2.56336">
        <ele>502.9</ele>
        <time>2017-02-27T11:16:04Z</time>
      </trkpt>
      <trkpt lat="43.35649" lon="2.56334">
        <ele>502.2</ele>
        <time>2017-02-27T11:16:11Z</time>
      </trkpt>
      <trkpt lat="43.35647" lon="2.56328">
        <ele>502.5</ele>
        <time>2017-02-27T11:16:18Z</time>
      </trkpt>
      <trkpt lat="43.35641" lon="2.56321">
        <ele>503</ele>
        <time>2017-02-27T11:16:25Z</time>
      </trkpt>
      <trkpt lat="43.35636" lon="2.56314">
        <ele>503.2</ele>
        <time>2017-02-27T11:16:32Z</time>
      </trkpt>
      <trkpt lat="43.35631" lon="2.56309">
        <ele>503.6</ele>
        <time>2017-02-27T11:16:39Z</time>
      </trkpt>
      <trkpt lat="43.35631" lon="2.56309">
        <ele>503.7</ele>
        <time>2017-02-27T11:16:46Z</time>
      </trkpt>
      <trkpt lat="43.35631" lon="2.56303">
        <ele>508.2</ele>
        <time>2017-02-27T11:18:20Z</time>
      </trkpt>
      <trkpt lat="43.3563" lon="2.56313">
        <ele>509.5</ele>
        <time>2017-02-27T11:19:22Z</time>
      </trkpt>
      <trkpt lat="43.35629" lon="2.56316">
        <ele>509.9</ele>
        <time>2017-02-27T11:19:29Z</time>
      </trkpt>
      <trkpt lat="43.35631" lon="2.56311">
        <ele>510.4</ele>
        <time>2017-02-27T11:19:36Z</time>
      </trkpt>
      <trkpt lat="43.35627" lon="2.563">
        <ele>511.4</ele>
        <time>2017-02-27T11:19:55Z</time>
      </trkpt>
      <trkpt lat="43.35622" lon="2.56296">
        <ele>511.7</ele>
        <time>2017-02-27T11:20:02Z</time>
      </trkpt>
      <trkpt lat="43.35618" lon="2.56293">
        <ele>512</ele>
        <time>2017-02-27T11:20:09Z</time>
      </trkpt>
      <trkpt lat="43.35611" lon="2.56288">
        <ele>512.3</ele>
        <time>2017-02-27T11:20:16Z</time>
      </trkpt>
      <trkpt lat="43.35605" lon="2.56284">
        <ele>512.2</ele>
        <time>2017-02-27T11:20:23Z</time>
      </trkpt>
      <trkpt lat="43.35599" lon="2.56279">
        <ele>512.1</ele>
        <time>2017-02-27T11:20:30Z</time>
      </trkpt>
      <trkpt lat="43.35592" lon="2.56274">
        <ele>512.2</ele>
        <time>2017-02-27T11:20:37Z</time>
      </trkpt>
      <trkpt lat="43.35585" lon="2.56272">
        <ele>512</ele>
        <time>2017-02-27T11:20:44Z</time>
      </trkpt>
      <trkpt lat="43.35577" lon="2.56271">
        <ele>510.9</ele>
        <time>2017-02-27T11:20:51Z</time>
      </trkpt>
      <trkpt lat="43.35569" lon="2.5627">
        <ele>510.4</ele>
        <time>2017-02-27T11:20:58Z</time>
      </trkpt>
      <trkpt lat="43.35563" lon="2.56266">
        <ele>509.9</ele>
        <time>2017-02-27T11:21:05Z</time>
      </trkpt>
      <trkpt lat="43.35558" lon="2.56261">
        <ele>509.5</ele>
        <time>2017-02-27T11:21:12Z</time>
      </trkpt>
      <trkpt lat="43.35553" lon="2.56262">
        <ele>509.2</ele>
        <time>2017-02-27T11:21:19Z</time>
      </trkpt>
      <trkpt lat="43.35548" lon="2.56269">
        <ele>509.1</ele>
        <time>2017-02-27T11:21:26Z</time>
      </trkpt>
      <trkpt lat="43.35543" lon="2.56273">
        <ele>509.2</ele>
        <time>2017-02-27T11:21:33Z</time>
      </trkpt>
      <trkpt lat="43.35535" lon="2.56275">
        <ele>509.3</ele>
        <time>2017-02-27T11:21:40Z</time>
      </trkpt>
      <trkpt lat="43.35527" lon="2.56276">
        <ele>509.4</ele>
        <time>2017-02-27T11:21:47Z</time>
      </trkpt>
      <trkpt lat="43.35519" lon="2.56276">
        <ele>509.3</ele>
        <time>2017-02-27T11:21:54Z</time>
      </trkpt>
      <trkpt lat="43.35511" lon="2.56276">
        <ele>508.7</ele>
        <time>2017-02-27T11:22:00Z</time>
      </trkpt>
      <trkpt lat="43.35504" lon="2.56275">
        <ele>506.9</ele>
        <time>2017-02-27T11:22:07Z</time>
      </trkpt>
      <trkpt lat="43.35497" lon="2.56271">
        <ele>505.7</ele>
        <time>2017-02-27T11:22:14Z</time>
      </trkpt>
      <trkpt lat="43.3549" lon="2.56273">
        <ele>504.9</ele>
        <time>2017-02-27T11:22:21Z</time>
      </trkpt>
      <trkpt lat="43.35482" lon="2.56275">
        <ele>504.1</ele>
        <time>2017-02-27T11:22:28Z</time>
      </trkpt>
      <trkpt lat="43.35475" lon="2.5628">
        <ele>503.5</ele>
        <time>2017-02-27T11:22:35Z</time>
      </trkpt>
      <trkpt lat="43.35468" lon="2.56285">
        <ele>502.9</ele>
        <time>2017-02-27T11:22:42Z</time>
      </trkpt>
      <trkpt lat="43.35462" lon="2.56289">
        <ele>503.1</ele>
        <time>2017-02-27T11:22:49Z</time>
      </trkpt>
      <trkpt lat="43.35458" lon="2.56288">
        <ele>502.1</ele>
        <time>2017-02-27T11:22:56Z</time>
      </trkpt>
      <trkpt lat="43.35456" lon="2.56279">
        <ele>500.1</ele>
        <time>2017-02-27T11:23:03Z</time>
      </trkpt>
      <trkpt lat="43.35451" lon="2.56271">
        <ele>498.6</ele>
        <time>2017-02-27T11:23:10Z</time>
      </trkpt>
      <trkpt lat="43.35449" lon="2.56264">
        <ele>496.6</ele>
        <time>2017-02-27T11:23:17Z</time>
      </trkpt>
      <trkpt lat="43.35446" lon="2.56256">
        <ele>494</ele>
        <time>2017-02-27T11:23:24Z</time>
      </trkpt>
      <trkpt lat="43.35443" lon="2.56246">
        <ele>492.2</ele>
        <time>2017-02-27T11:23:31Z</time>
      </trkpt>
      <trkpt lat="43.3544" lon="2.56235">
        <ele>491.1</ele>
        <time>2017-02-27T11:23:38Z</time>
      </trkpt>
      <trkpt lat="43.35436" lon="2.56226">
        <ele>489.9</ele>
        <time>2017-02-27T11:23:44Z</time>
      </trkpt>
      <trkpt lat="43.35432" lon="2.56215">
        <ele>488.5</ele>
        <time>2017-02-27T11:23:50Z</time>
      </trkpt>
      <trkpt lat="43.35427" lon="2.56206">
        <ele>487.6</ele>
        <time>2017-02-27T11:23:55Z</time>
      </trkpt>
      <trkpt lat="43.35422" lon="2.56197">
        <ele>487.4</ele>
        <time>2017-02-27T11:23:59Z</time>
      </trkpt>
      <trkpt lat="43.35419" lon="2.56187">
        <ele>486.7</ele>
        <time>2017-02-27T11:24:05Z</time>
      </trkpt>
      <trkpt lat="43.35417" lon="2.56174">
        <ele>486.5</ele>
        <time>2017-02-27T11:24:09Z</time>
      </trkpt>
      <trkpt lat="43.35414" lon="2.56163">
        <ele>486.2</ele>
        <time>2017-02-27T11:24:13Z</time>
      </trkpt>
      <trkpt lat="43.35411" lon="2.56154">
        <ele>487.3</ele>
        <time>2017-02-27T11:24:16Z</time>
      </trkpt>
      <trkpt lat="43.35407" lon="2.56143">
        <ele>490.3</ele>
        <time>2017-02-27T11:24:21Z</time>
      </trkpt>
      <trkpt lat="43.35403" lon="2.56134">
        <ele>492</ele>
        <time>2017-02-27T11:24:26Z</time>
      </trkpt>
      <trkpt lat="43.35399" lon="2.56124">
        <ele>494.1</ele>
        <time>2017-02-27T11:24:32Z</time>
      </trkpt>
      <trkpt lat="43.35395" lon="2.56115">
        <ele>494.7</ele>
        <time>2017-02-27T11:24:38Z</time>
      </trkpt>
      <trkpt lat="43.35394" lon="2.56105">
        <ele>495.2</ele>
        <time>2017-02-27T11:24:45Z</time>
      </trkpt>
      <trkpt lat="43.35392" lon="2.56095">
        <ele>495.9</ele>
        <time>2017-02-27T11:24:52Z</time>
      </trkpt>
      <trkpt lat="43.35391" lon="2.56084">
        <ele>497.1</ele>
        <time>2017-02-27T11:24:59Z</time>
      </trkpt>
      <trkpt lat="43.35389" lon="2.56074">
        <ele>498.5</ele>
        <time>2017-02-27T11:25:04Z</time>
      </trkpt>
      <trkpt lat="43.35388" lon="2.56062">
        <ele>499.2</ele>
        <time>2017-02-27T11:25:10Z</time>
      </trkpt>
      <trkpt lat="43.35386" lon="2.56052">
        <ele>499.5</ele>
        <time>2017-02-27T11:25:16Z</time>
      </trkpt>
      <trkpt lat="43.35385" lon="2.56042">
        <ele>499.6</ele>
        <time>2017-02-27T11:25:21Z</time>
      </trkpt>
      <trkpt lat="43.35384" lon="2.56031">
        <ele>500.8</ele>
        <time>2017-02-27T11:25:28Z</time>
      </trkpt>
      <trkpt lat="43.35382" lon="2.5602">
        <ele>501.5</ele>
        <time>2017-02-27T11:25:34Z</time>
      </trkpt>
      <trkpt lat="43.3538" lon="2.56009">
        <ele>502</ele>
        <time>2017-02-27T11:25:40Z</time>
      </trkpt>
      <trkpt lat="43.3538" lon="2.55999">
        <ele>503</ele>
        <time>2017-02-27T11:25:47Z</time>
      </trkpt>
      <trkpt lat="43.35382" lon="2.55989">
        <ele>503.2</ele>
        <time>2017-02-27T11:25:52Z</time>
      </trkpt>
      <trkpt lat="43.35385" lon="2.55979">
        <ele>503.3</ele>
        <time>2017-02-27T11:25:58Z</time>
      </trkpt>
      <trkpt lat="43.35384" lon="2.55968">
        <ele>501.8</ele>
        <time>2017-02-27T11:26:05Z</time>
      </trkpt>
      <trkpt lat="43.35381" lon="2.55957">
        <ele>499.2</ele>
        <time>2017-02-27T11:26:11Z</time>
      </trkpt>
      <trkpt lat="43.35379" lon="2.55947">
        <ele>496.7</ele>
        <time>2017-02-27T11:26:16Z</time>
      </trkpt>
      <trkpt lat="43.35379" lon="2.55937">
        <ele>495.2</ele>
        <time>2017-02-27T11:26:22Z</time>
      </trkpt>
      <trkpt lat="43.3538" lon="2.55926">
        <ele>495.1</ele>
        <time>2017-02-27T11:26:27Z</time>
      </trkpt>
      <trkpt lat="43.3538" lon="2.55915">
        <ele>494</ele>
        <time>2017-02-27T11:26:32Z</time>
      </trkpt>
      <trkpt lat="43.3538" lon="2.55903">
        <ele>492.7</ele>
        <time>2017-02-27T11:26:38Z</time>
      </trkpt>
      <trkpt lat="43.35378" lon="2.55892">
        <ele>492.1</ele>
        <time>2017-02-27T11:26:44Z</time>
      </trkpt>
      <trkpt lat="43.35381" lon="2.55882">
        <ele>493.2</ele>
        <time>2017-02-27T11:26:50Z</time>
      </trkpt>
      <trkpt lat="43.35382" lon="2.55871">
        <ele>493.5</ele>
        <time>2017-02-27T11:26:55Z</time>
      </trkpt>
      <trkpt lat="43.35386" lon="2.55863">
        <ele>494</ele>
        <time>2017-02-27T11:27:01Z</time>
      </trkpt>
      <trkpt lat="43.35389" lon="2.55852">
        <ele>494.6</ele>
        <time>2017-02-27T11:27:07Z</time>
      </trkpt>
      <trkpt lat="43.35387" lon="2.55841">
        <ele>494.2</ele>
        <time>2017-02-27T11:27:12Z</time>
      </trkpt>
      <trkpt lat="43.35383" lon="2.55831">
        <ele>494.3</ele>
        <time>2017-02-27T11:27:16Z</time>
      </trkpt>
      <trkpt lat="43.35379" lon="2.55822">
        <ele>494.6</ele>
        <time>2017-02-27T11:27:22Z</time>
      </trkpt>
      <trkpt lat="43.35378" lon="2.55811">
        <ele>494.6</ele>
        <time>2017-02-27T11:27:29Z</time>
      </trkpt>
      <trkpt lat="43.35376" lon="2.55799">
        <ele>495.1</ele>
        <time>2017-02-27T11:27:35Z</time>
      </trkpt>
      <trkpt lat="43.3537" lon="2.55791">
        <ele>494.9</ele>
        <time>2017-02-27T11:27:40Z</time>
      </trkpt>
      <trkpt lat="43.35363" lon="2.55786">
        <ele>494.4</ele>
        <time>2017-02-27T11:27:45Z</time>
      </trkpt>
      <trkpt lat="43.35358" lon="2.5578">
        <ele>494</ele>
        <time>2017-02-27T11:27:50Z</time>
      </trkpt>
      <trkpt lat="43.35353" lon="2.55771">
        <ele>494.2</ele>
        <time>2017-02-27T11:27:56Z</time>
      </trkpt>
      <trkpt lat="43.35351" lon="2.5576">
        <ele>494.6</ele>
        <time>2017-02-27T11:28:02Z</time>
      </trkpt>
      <trkpt lat="43.35349" lon="2.55749">
        <ele>495</ele>
        <time>2017-02-27T11:28:09Z</time>
      </trkpt>
      <trkpt lat="43.35349" lon="2.55738">
        <ele>495.8</ele>
        <time>2017-02-27T11:28:16Z</time>
      </trkpt>
      <trkpt lat="43.35345" lon="2.5573">
        <ele>496.1</ele>
        <time>2017-02-27T11:28:21Z</time>
      </trkpt>
      <trkpt lat="43.3534" lon="2.5572">
        <ele>495.9</ele>
        <time>2017-02-27T11:28:26Z</time>
      </trkpt>
      <trkpt lat="43.35337" lon="2.5571">
        <ele>496</ele>
        <time>2017-02-27T11:28:31Z</time>
      </trkpt>
      <trkpt lat="43.35336" lon="2.55699">
        <ele>496.2</ele>
        <time>2017-02-27T11:28:37Z</time>
      </trkpt>
      <trkpt lat="43.35336" lon="2.55688">
        <ele>495.8</ele>
        <time>2017-02-27T11:28:43Z</time>
      </trkpt>
      <trkpt lat="43.35334" lon="2.55679">
        <ele>495.6</ele>
        <time>2017-02-27T11:28:48Z</time>
      </trkpt>
      <trkpt lat="43.35326" lon="2.55675">
        <ele>493.6</ele>
        <time>2017-02-27T11:28:54Z</time>
      </trkpt>
      <trkpt lat="43.35319" lon="2.55669">
        <ele>491.2</ele>
        <time>2017-02-27T11:28:59Z</time>
      </trkpt>
      <trkpt lat="43.35313" lon="2.55664">
        <ele>489</ele>
        <time>2017-02-27T11:29:04Z</time>
      </trkpt>
      <trkpt lat="43.35306" lon="2.5566">
        <ele>485.2</ele>
        <time>2017-02-27T11:29:11Z</time>
      </trkpt>
      <trkpt lat="43.35298" lon="2.55659">
        <ele>480.9</ele>
        <time>2017-02-27T11:29:17Z</time>
      </trkpt>
      <trkpt lat="43.3529" lon="2.55659">
        <ele>476.7</ele>
        <time>2017-02-27T11:29:22Z</time>
      </trkpt>
      <trkpt lat="43.35281" lon="2.55658">
        <ele>471.9</ele>
        <time>2017-02-27T11:29:28Z</time>
      </trkpt>
      <trkpt lat="43.35273" lon="2.55659">
        <ele>468.7</ele>
        <time>2017-02-27T11:29:32Z</time>
      </trkpt>
      <trkpt lat="43.35266" lon="2.55661">
        <ele>465.1</ele>
        <time>2017-02-27T11:29:37Z</time>
      </trkpt>
      <trkpt lat="43.35258" lon="2.55661">
        <ele>461.9</ele>
        <time>2017-02-27T11:29:42Z</time>
      </trkpt>
      <trkpt lat="43.3525" lon="2.55661">
        <ele>459.2</ele>
        <time>2017-02-27T11:29:47Z</time>
      </trkpt>
      <trkpt lat="43.35243" lon="2.55659">
        <ele>454.9</ele>
        <time>2017-02-27T11:29:54Z</time>
      </trkpt>
      <trkpt lat="43.35234" lon="2.5566">
        <ele>451.1</ele>
        <time>2017-02-27T11:30:01Z</time>
      </trkpt>
      <trkpt lat="43.35227" lon="2.55658">
        <ele>448.2</ele>
        <time>2017-02-27T11:30:07Z</time>
      </trkpt>
      <trkpt lat="43.35217" lon="2.55661">
        <ele>447</ele>
        <time>2017-02-27T11:30:12Z</time>
      </trkpt>
      <trkpt lat="43.3521" lon="2.55661">
        <ele>447.2</ele>
        <time>2017-02-27T11:30:16Z</time>
      </trkpt>
      <trkpt lat="43.35202" lon="2.55656">
        <ele>446.6</ele>
        <time>2017-02-27T11:30:20Z</time>
      </trkpt>
      <trkpt lat="43.35195" lon="2.55652">
        <ele>445.3</ele>
        <time>2017-02-27T11:30:26Z</time>
      </trkpt>
      <trkpt lat="43.35189" lon="2.55651">
        <ele>442.9</ele>
        <time>2017-02-27T11:30:33Z</time>
      </trkpt>
      <trkpt lat="43.35182" lon="2.55655">
        <ele>441.1</ele>
        <time>2017-02-27T11:30:38Z</time>
      </trkpt>
      <trkpt lat="43.35175" lon="2.55657">
        <ele>440.4</ele>
        <time>2017-02-27T11:30:42Z</time>
      </trkpt>
      <trkpt lat="43.35167" lon="2.55661">
        <ele>439.9</ele>
        <time>2017-02-27T11:30:46Z</time>
      </trkpt>
      <trkpt lat="43.3516" lon="2.55664">
        <ele>437.7</ele>
        <time>2017-02-27T11:30:52Z</time>
      </trkpt>
      <trkpt lat="43.35153" lon="2.55664">
        <ele>434.6</ele>
        <time>2017-02-27T11:30:59Z</time>
      </trkpt>
      <trkpt lat="43.35145" lon="2.55665">
        <ele>434.7</ele>
        <time>2017-02-27T11:31:05Z</time>
      </trkpt>
      <trkpt lat="43.3514" lon="2.55661">
        <ele>434.7</ele>
        <time>2017-02-27T11:31:12Z</time>
      </trkpt>
      <trkpt lat="43.35134" lon="2.55652">
        <ele>434.2</ele>
        <time>2017-02-27T11:31:19Z</time>
      </trkpt>
      <trkpt lat="43.35126" lon="2.55649">
        <ele>433</ele>
        <time>2017-02-27T11:31:25Z</time>
      </trkpt>
      <trkpt lat="43.35119" lon="2.55644">
        <ele>431.8</ele>
        <time>2017-02-27T11:31:31Z</time>
      </trkpt>
      <trkpt lat="43.35111" lon="2.55642">
        <ele>431</ele>
        <time>2017-02-27T11:31:36Z</time>
      </trkpt>
      <trkpt lat="43.35103" lon="2.55643">
        <ele>429.8</ele>
        <time>2017-02-27T11:31:41Z</time>
      </trkpt>
      <trkpt lat="43.35095" lon="2.55645">
        <ele>428.1</ele>
        <time>2017-02-27T11:31:47Z</time>
      </trkpt>
      <trkpt lat="43.35089" lon="2.55651">
        <ele>426.2</ele>
        <time>2017-02-27T11:31:52Z</time>
      </trkpt>
      <trkpt lat="43.35083" lon="2.55657">
        <ele>424.4</ele>
        <time>2017-02-27T11:31:57Z</time>
      </trkpt>
      <trkpt lat="43.35076" lon="2.55664">
        <ele>422.6</ele>
        <time>2017-02-27T11:32:02Z</time>
      </trkpt>
      <trkpt lat="43.35069" lon="2.5567">
        <ele>421.5</ele>
        <time>2017-02-27T11:32:07Z</time>
      </trkpt>
      <trkpt lat="43.35062" lon="2.55675">
        <ele>422.1</ele>
        <time>2017-02-27T11:32:11Z</time>
      </trkpt>
      <trkpt lat="43.35055" lon="2.55679">
        <ele>422.6</ele>
        <time>2017-02-27T11:32:15Z</time>
      </trkpt>
      <trkpt lat="43.3505" lon="2.55688">
        <ele>424.6</ele>
        <time>2017-02-27T11:32:20Z</time>
      </trkpt>
      <trkpt lat="43.35048" lon="2.55698">
        <ele>427.6</ele>
        <time>2017-02-27T11:32:26Z</time>
      </trkpt>
      <trkpt lat="43.3504" lon="2.55704">
        <ele>430.3</ele>
        <time>2017-02-27T11:32:32Z</time>
      </trkpt>
      <trkpt lat="43.35033" lon="2.55704">
        <ele>430.8</ele>
        <time>2017-02-27T11:32:39Z</time>
      </trkpt>
      <trkpt lat="43.35027" lon="2.55697">
        <ele>434</ele>
        <time>2017-02-27T11:32:46Z</time>
      </trkpt>
      <trkpt lat="43.35023" lon="2.55688">
        <ele>436.2</ele>
        <time>2017-02-27T11:32:52Z</time>
      </trkpt>
      <trkpt lat="43.35017" lon="2.5568">
        <ele>437.6</ele>
        <time>2017-02-27T11:32:58Z</time>
      </trkpt>
      <trkpt lat="43.35012" lon="2.55672">
        <ele>437.3</ele>
        <time>2017-02-27T11:33:05Z</time>
      </trkpt>
      <trkpt lat="43.35007" lon="2.55663">
        <ele>437</ele>
        <time>2017-02-27T11:33:12Z</time>
      </trkpt>
      <trkpt lat="43.35002" lon="2.55656">
        <ele>437.5</ele>
        <time>2017-02-27T11:33:19Z</time>
      </trkpt>
      <trkpt lat="43.34997" lon="2.55649">
        <ele>438.2</ele>
        <time>2017-02-27T11:33:25Z</time>
      </trkpt>
      <trkpt lat="43.34992" lon="2.55639">
        <ele>438</ele>
        <time>2017-02-27T11:33:31Z</time>
      </trkpt>
      <trkpt lat="43.34988" lon="2.55629">
        <ele>437.9</ele>
        <time>2017-02-27T11:33:36Z</time>
      </trkpt>
      <trkpt lat="43.34984" lon="2.55621">
        <ele>436.8</ele>
        <time>2017-02-27T11:33:41Z</time>
      </trkpt>
      <trkpt lat="43.34975" lon="2.55619">
        <ele>435.3</ele>
        <time>2017-02-27T11:33:48Z</time>
      </trkpt>
      <trkpt lat="43.34967" lon="2.55622">
        <ele>434.3</ele>
        <time>2017-02-27T11:33:54Z</time>
      </trkpt>
      <trkpt lat="43.3496" lon="2.55626">
        <ele>433.8</ele>
        <time>2017-02-27T11:34:01Z</time>
      </trkpt>
      <trkpt lat="43.34953" lon="2.55631">
        <ele>432.8</ele>
        <time>2017-02-27T11:34:07Z</time>
      </trkpt>
      <trkpt lat="43.34947" lon="2.55634">
        <ele>432.2</ele>
        <time>2017-02-27T11:34:14Z</time>
      </trkpt>
      <trkpt lat="43.34946" lon="2.5563">
        <ele>431.7</ele>
        <time>2017-02-27T11:34:21Z</time>
      </trkpt>
      <trkpt lat="43.34948" lon="2.55621">
        <ele>431.3</ele>
        <time>2017-02-27T11:34:28Z</time>
      </trkpt>
      <trkpt lat="43.34949" lon="2.5561">
        <ele>431</ele>
        <time>2017-02-27T11:34:34Z</time>
      </trkpt>
      <trkpt lat="43.34949" lon="2.55599">
        <ele>430.6</ele>
        <time>2017-02-27T11:34:39Z</time>
      </trkpt>
      <trkpt lat="43.34949" lon="2.55589">
        <ele>430.4</ele>
        <time>2017-02-27T11:34:43Z</time>
      </trkpt>
      <trkpt lat="43.3495" lon="2.55577">
        <ele>430.6</ele>
        <time>2017-02-27T11:34:49Z</time>
      </trkpt>
      <trkpt lat="43.34952" lon="2.55567">
        <ele>431.3</ele>
        <time>2017-02-27T11:34:55Z</time>
      </trkpt>
      <trkpt lat="43.34953" lon="2.55557">
        <ele>432.3</ele>
        <time>2017-02-27T11:35:00Z</time>
      </trkpt>
      <trkpt lat="43.34954" lon="2.55547">
        <ele>432.8</ele>
        <time>2017-02-27T11:35:06Z</time>
      </trkpt>
      <trkpt lat="43.34955" lon="2.55536">
        <ele>432.8</ele>
        <time>2017-02-27T11:35:11Z</time>
      </trkpt>
      <trkpt lat="43.34955" lon="2.55525">
        <ele>432.9</ele>
        <time>2017-02-27T11:35:16Z</time>
      </trkpt>
      <trkpt lat="43.34955" lon="2.55514">
        <ele>433.4</ele>
        <time>2017-02-27T11:35:21Z</time>
      </trkpt>
      <trkpt lat="43.34954" lon="2.55504">
        <ele>432.8</ele>
        <time>2017-02-27T11:35:26Z</time>
      </trkpt>
      <trkpt lat="43.34955" lon="2.55493">
        <ele>432.3</ele>
        <time>2017-02-27T11:35:31Z</time>
      </trkpt>
      <trkpt lat="43.34956" lon="2.55482">
        <ele>432.9</ele>
        <time>2017-02-27T11:35:37Z</time>
      </trkpt>
      <trkpt lat="43.34957" lon="2.55473">
        <ele>433</ele>
        <time>2017-02-27T11:35:42Z</time>
      </trkpt>
      <trkpt lat="43.34959" lon="2.55463">
        <ele>433.1</ele>
        <time>2017-02-27T11:35:48Z</time>
      </trkpt>
      <trkpt lat="43.3496" lon="2.55452">
        <ele>433.4</ele>
        <time>2017-02-27T11:35:54Z</time>
      </trkpt>
      <trkpt lat="43.34959" lon="2.5544">
        <ele>434</ele>
        <time>2017-02-27T11:36:00Z</time>
      </trkpt>
      <trkpt lat="43.34962" lon="2.55429">
        <ele>434</ele>
        <time>2017-02-27T11:36:07Z</time>
      </trkpt>
      <trkpt lat="43.34965" lon="2.5542">
        <ele>434.1</ele>
        <time>2017-02-27T11:36:13Z</time>
      </trkpt>
      <trkpt lat="43.34969" lon="2.5541">
        <ele>435</ele>
        <time>2017-02-27T11:36:19Z</time>
      </trkpt>
      <trkpt lat="43.34975" lon="2.55402">
        <ele>435.5</ele>
        <time>2017-02-27T11:36:25Z</time>
      </trkpt>
      <trkpt lat="43.34981" lon="2.55394">
        <ele>435.4</ele>
        <time>2017-02-27T11:36:30Z</time>
      </trkpt>
      <trkpt lat="43.34983" lon="2.55384">
        <ele>434.5</ele>
        <time>2017-02-27T11:36:35Z</time>
      </trkpt>
      <trkpt lat="43.34982" lon="2.55373">
        <ele>432.5</ele>
        <time>2017-02-27T11:36:40Z</time>
      </trkpt>
      <trkpt lat="43.3498" lon="2.55362">
        <ele>431.2</ele>
        <time>2017-02-27T11:36:45Z</time>
      </trkpt>
      <trkpt lat="43.34975" lon="2.55353">
        <ele>430.5</ele>
        <time>2017-02-27T11:36:50Z</time>
      </trkpt>
      <trkpt lat="43.3497" lon="2.55343">
        <ele>428.9</ele>
        <time>2017-02-27T11:36:56Z</time>
      </trkpt>
      <trkpt lat="43.34964" lon="2.55335">
        <ele>427.8</ele>
        <time>2017-02-27T11:37:02Z</time>
      </trkpt>
      <trkpt lat="43.34959" lon="2.55326">
        <ele>425.9</ele>
        <time>2017-02-27T11:37:08Z</time>
      </trkpt>
      <trkpt lat="43.34954" lon="2.55319">
        <ele>424.5</ele>
        <time>2017-02-27T11:37:13Z</time>
      </trkpt>
      <trkpt lat="43.34948" lon="2.55313">
        <ele>423.4</ele>
        <time>2017-02-27T11:37:17Z</time>
      </trkpt>
      <trkpt lat="43.34942" lon="2.55306">
        <ele>422.2</ele>
        <time>2017-02-27T11:37:24Z</time>
      </trkpt>
      <trkpt lat="43.34936" lon="2.55301">
        <ele>421</ele>
        <time>2017-02-27T11:37:31Z</time>
      </trkpt>
      <trkpt lat="43.34929" lon="2.55295">
        <ele>419.9</ele>
        <time>2017-02-27T11:37:36Z</time>
      </trkpt>
      <trkpt lat="43.34922" lon="2.55289">
        <ele>417.8</ele>
        <time>2017-02-27T11:37:43Z</time>
      </trkpt>
      <trkpt lat="43.34915" lon="2.55282">
        <ele>415.9</ele>
        <time>2017-02-27T11:37:49Z</time>
      </trkpt>
      <trkpt lat="43.34907" lon="2.55277">
        <ele>415.4</ele>
        <time>2017-02-27T11:37:55Z</time>
      </trkpt>
      <trkpt lat="43.349" lon="2.55274">
        <ele>414.3</ele>
        <time>2017-02-27T11:38:02Z</time>
      </trkpt>
      <trkpt lat="43.34894" lon="2.55269">
        <ele>412.3</ele>
        <time>2017-02-27T11:38:07Z</time>
      </trkpt>
      <trkpt lat="43.34887" lon="2.55264">
        <ele>410.3</ele>
        <time>2017-02-27T11:38:13Z</time>
      </trkpt>
      <trkpt lat="43.34879" lon="2.55261">
        <ele>409.3</ele>
        <time>2017-02-27T11:38:17Z</time>
      </trkpt>
      <trkpt lat="43.34871" lon="2.55257">
        <ele>408.6</ele>
        <time>2017-02-27T11:38:21Z</time>
      </trkpt>
      <trkpt lat="43.34864" lon="2.55253">
        <ele>407.9</ele>
        <time>2017-02-27T11:38:25Z</time>
      </trkpt>
      <trkpt lat="43.34856" lon="2.55252">
        <ele>406.9</ele>
        <time>2017-02-27T11:38:31Z</time>
      </trkpt>
      <trkpt lat="43.34851" lon="2.55255">
        <ele>404.9</ele>
        <time>2017-02-27T11:38:38Z</time>
      </trkpt>
      <trkpt lat="43.34843" lon="2.55255">
        <ele>404.2</ele>
        <time>2017-02-27T11:38:42Z</time>
      </trkpt>
      <trkpt lat="43.34836" lon="2.55255">
        <ele>402.6</ele>
        <time>2017-02-27T11:38:48Z</time>
      </trkpt>
      <trkpt lat="43.34828" lon="2.55253">
        <ele>402.6</ele>
        <time>2017-02-27T11:38:53Z</time>
      </trkpt>
      <trkpt lat="43.34821" lon="2.5525">
        <ele>401.8</ele>
        <time>2017-02-27T11:38:58Z</time>
      </trkpt>
      <trkpt lat="43.34813" lon="2.55247">
        <ele>401.7</ele>
        <time>2017-02-27T11:39:04Z</time>
      </trkpt>
      <trkpt lat="43.34806" lon="2.55243">
        <ele>401.3</ele>
        <time>2017-02-27T11:39:09Z</time>
      </trkpt>
      <trkpt lat="43.348" lon="2.55238">
        <ele>399.8</ele>
        <time>2017-02-27T11:39:16Z</time>
      </trkpt>
      <trkpt lat="43.34792" lon="2.55237">
        <ele>397.7</ele>
        <time>2017-02-27T11:39:23Z</time>
      </trkpt>
      <trkpt lat="43.34783" lon="2.55238">
        <ele>397.3</ele>
        <time>2017-02-27T11:39:29Z</time>
      </trkpt>
      <trkpt lat="43.34776" lon="2.55239">
        <ele>396.4</ele>
        <time>2017-02-27T11:39:35Z</time>
      </trkpt>
      <trkpt lat="43.34768" lon="2.55239">
        <ele>396.1</ele>
        <time>2017-02-27T11:39:40Z</time>
      </trkpt>
      <trkpt lat="43.3476" lon="2.55237">
        <ele>394.7</ele>
        <time>2017-02-27T11:39:46Z</time>
      </trkpt>
      <trkpt lat="43.34752" lon="2.55233">
        <ele>394.4</ele>
        <time>2017-02-27T11:39:51Z</time>
      </trkpt>
      <trkpt lat="43.34745" lon="2.55232">
        <ele>393.3</ele>
        <time>2017-02-27T11:39:57Z</time>
      </trkpt>
      <trkpt lat="43.34737" lon="2.55233">
        <ele>392.8</ele>
        <time>2017-02-27T11:40:02Z</time>
      </trkpt>
      <trkpt lat="43.3473" lon="2.55232">
        <ele>391.5</ele>
        <time>2017-02-27T11:40:07Z</time>
      </trkpt>
      <trkpt lat="43.34722" lon="2.55231">
        <ele>390.5</ele>
        <time>2017-02-27T11:40:12Z</time>
      </trkpt>
      <trkpt lat="43.34714" lon="2.55229">
        <ele>389</ele>
        <time>2017-02-27T11:40:18Z</time>
      </trkpt>
      <trkpt lat="43.34707" lon="2.55225">
        <ele>388</ele>
        <time>2017-02-27T11:40:23Z</time>
      </trkpt>
      <trkpt lat="43.347" lon="2.55222">
        <ele>387.2</ele>
        <time>2017-02-27T11:40:29Z</time>
      </trkpt>
      <trkpt lat="43.34692" lon="2.55218">
        <ele>385.4</ele>
        <time>2017-02-27T11:40:35Z</time>
      </trkpt>
      <trkpt lat="43.34685" lon="2.55213">
        <ele>383.3</ele>
        <time>2017-02-27T11:40:41Z</time>
      </trkpt>
      <trkpt lat="43.34677" lon="2.5521">
        <ele>380.3</ele>
        <time>2017-02-27T11:40:47Z</time>
      </trkpt>
      <trkpt lat="43.3467" lon="2.55208">
        <ele>376.3</ele>
        <time>2017-02-27T11:40:53Z</time>
      </trkpt>
      <trkpt lat="43.34662" lon="2.55207">
        <ele>371</ele>
        <time>2017-02-27T11:41:00Z</time>
      </trkpt>
      <trkpt lat="43.34654" lon="2.55207">
        <ele>365.6</ele>
        <time>2017-02-27T11:41:06Z</time>
      </trkpt>
      <trkpt lat="43.34646" lon="2.55204">
        <ele>362.2</ele>
        <time>2017-02-27T11:41:11Z</time>
      </trkpt>
      <trkpt lat="43.34638" lon="2.55207">
        <ele>361.6</ele>
        <time>2017-02-27T11:41:14Z</time>
      </trkpt>
      <trkpt lat="43.34631" lon="2.5521">
        <ele>363.1</ele>
        <time>2017-02-27T11:41:18Z</time>
      </trkpt>
      <trkpt lat="43.34623" lon="2.55208">
        <ele>362.8</ele>
        <time>2017-02-27T11:41:23Z</time>
      </trkpt>
      <trkpt lat="43.34617" lon="2.55202">
        <ele>362.1</ele>
        <time>2017-02-27T11:41:28Z</time>
      </trkpt>
      <trkpt lat="43.34611" lon="2.55195">
        <ele>361.3</ele>
        <time>2017-02-27T11:41:33Z</time>
      </trkpt>
      <trkpt lat="43.34604" lon="2.55187">
        <ele>360.7</ele>
        <time>2017-02-27T11:41:39Z</time>
      </trkpt>
      <trkpt lat="43.346" lon="2.55178">
        <ele>359.2</ele>
        <time>2017-02-27T11:41:44Z</time>
      </trkpt>
      <trkpt lat="43.34592" lon="2.55175">
        <ele>359.4</ele>
        <time>2017-02-27T11:41:49Z</time>
      </trkpt>
      <trkpt lat="43.34585" lon="2.5517">
        <ele>359.3</ele>
        <time>2017-02-27T11:41:55Z</time>
      </trkpt>
      <trkpt lat="43.34579" lon="2.55164">
        <ele>360.5</ele>
        <time>2017-02-27T11:41:59Z</time>
      </trkpt>
      <trkpt lat="43.34572" lon="2.55157">
        <ele>361.4</ele>
        <time>2017-02-27T11:42:04Z</time>
      </trkpt>
      <trkpt lat="43.34567" lon="2.55149">
        <ele>362.6</ele>
        <time>2017-02-27T11:42:09Z</time>
      </trkpt>
      <trkpt lat="43.34561" lon="2.55144">
        <ele>366.6</ele>
        <time>2017-02-27T11:42:14Z</time>
      </trkpt>
      <trkpt lat="43.34555" lon="2.55136">
        <ele>371.5</ele>
        <time>2017-02-27T11:42:20Z</time>
      </trkpt>
      <trkpt lat="43.3455" lon="2.55128">
        <ele>374.5</ele>
        <time>2017-02-27T11:42:25Z</time>
      </trkpt>
      <trkpt lat="43.34548" lon="2.55118">
        <ele>377.8</ele>
        <time>2017-02-27T11:42:31Z</time>
      </trkpt>
      <trkpt lat="43.34546" lon="2.55107">
        <ele>378.9</ele>
        <time>2017-02-27T11:42:38Z</time>
      </trkpt>
      <trkpt lat="43.34544" lon="2.55096">
        <ele>381.3</ele>
        <time>2017-02-27T11:42:45Z</time>
      </trkpt>
      <trkpt lat="43.34543" lon="2.55086">
        <ele>383.4</ele>
        <time>2017-02-27T11:42:51Z</time>
      </trkpt>
      <trkpt lat="43.34541" lon="2.55074">
        <ele>383.9</ele>
        <time>2017-02-27T11:42:57Z</time>
      </trkpt>
      <trkpt lat="43.3454" lon="2.55064">
        <ele>384.1</ele>
        <time>2017-02-27T11:43:02Z</time>
      </trkpt>
      <trkpt lat="43.34538" lon="2.55055">
        <ele>385.6</ele>
        <time>2017-02-27T11:43:08Z</time>
      </trkpt>
      <trkpt lat="43.34536" lon="2.55049">
        <ele>385.5</ele>
        <time>2017-02-27T11:43:15Z</time>
      </trkpt>
      <trkpt lat="43.34531" lon="2.55045">
        <ele>392.1</ele>
        <time>2017-02-27T11:43:31Z</time>
      </trkpt>
      <trkpt lat="43.3453" lon="2.55037">
        <ele>394.4</ele>
        <time>2017-02-27T11:43:41Z</time>
      </trkpt>
      <trkpt lat="43.34528" lon="2.55026">
        <ele>395.5</ele>
        <time>2017-02-27T11:43:47Z</time>
      </trkpt>
      <trkpt lat="43.34525" lon="2.55015">
        <ele>396.5</ele>
        <time>2017-02-27T11:43:53Z</time>
      </trkpt>
      <trkpt lat="43.34523" lon="2.55004">
        <ele>397.7</ele>
        <time>2017-02-27T11:43:59Z</time>
      </trkpt>
      <trkpt lat="43.34519" lon="2.54994">
        <ele>398</ele>
        <time>2017-02-27T11:44:04Z</time>
      </trkpt>
      <trkpt lat="43.34514" lon="2.54985">
        <ele>398.8</ele>
        <time>2017-02-27T11:44:08Z</time>
      </trkpt>
      <trkpt lat="43.3451" lon="2.54977">
        <ele>399.8</ele>
        <time>2017-02-27T11:44:13Z</time>
      </trkpt>
      <trkpt lat="43.34504" lon="2.5497">
        <ele>401.9</ele>
        <time>2017-02-27T11:44:19Z</time>
      </trkpt>
      <trkpt lat="43.34498" lon="2.54964">
        <ele>402.5</ele>
        <time>2017-02-27T11:44:26Z</time>
      </trkpt>
      <trkpt lat="43.34493" lon="2.5496">
        <ele>403.5</ele>
        <time>2017-02-27T11:44:33Z</time>
      </trkpt>
      <trkpt lat="43.34486" lon="2.54957">
        <ele>403.9</ele>
        <time>2017-02-27T11:44:38Z</time>
      </trkpt>
      <trkpt lat="43.34479" lon="2.54952">
        <ele>402.8</ele>
        <time>2017-02-27T11:44:43Z</time>
      </trkpt>
      <trkpt lat="43.34472" lon="2.54947">
        <ele>403.1</ele>
        <time>2017-02-27T11:44:49Z</time>
      </trkpt>
      <trkpt lat="43.34465" lon="2.54941">
        <ele>403.3</ele>
        <time>2017-02-27T11:44:54Z</time>
      </trkpt>
      <trkpt lat="43.34458" lon="2.54937">
        <ele>403.8</ele>
        <time>2017-02-27T11:44:59Z</time>
      </trkpt>
      <trkpt lat="43.3445" lon="2.54935">
        <ele>404.7</ele>
        <time>2017-02-27T11:45:06Z</time>
      </trkpt>
      <trkpt lat="43.34442" lon="2.54937">
        <ele>404.9</ele>
        <time>2017-02-27T11:45:12Z</time>
      </trkpt>
      <trkpt lat="43.34435" lon="2.54941">
        <ele>405.3</ele>
        <time>2017-02-27T11:45:17Z</time>
      </trkpt>
      <trkpt lat="43.34427" lon="2.54943">
        <ele>405.2</ele>
        <time>2017-02-27T11:45:22Z</time>
      </trkpt>
      <trkpt lat="43.3442" lon="2.54946">
        <ele>405.6</ele>
        <time>2017-02-27T11:45:28Z</time>
      </trkpt>
      <trkpt lat="43.34411" lon="2.54947">
        <ele>405.2</ele>
        <time>2017-02-27T11:45:35Z</time>
      </trkpt>
      <trkpt lat="43.34403" lon="2.54949">
        <ele>404.9</ele>
        <time>2017-02-27T11:45:41Z</time>
      </trkpt>
      <trkpt lat="43.34396" lon="2.54952">
        <ele>404.4</ele>
        <time>2017-02-27T11:45:46Z</time>
      </trkpt>
      <trkpt lat="43.34389" lon="2.54954">
        <ele>403.7</ele>
        <time>2017-02-27T11:45:50Z</time>
      </trkpt>
      <trkpt lat="43.34382" lon="2.54957">
        <ele>402.2</ele>
        <time>2017-02-27T11:45:55Z</time>
      </trkpt>
      <trkpt lat="43.34375" lon="2.54962">
        <ele>400.3</ele>
        <time>2017-02-27T11:46:01Z</time>
      </trkpt>
      <trkpt lat="43.34369" lon="2.54968">
        <ele>397.8</ele>
        <time>2017-02-27T11:46:07Z</time>
      </trkpt>
      <trkpt lat="43.34362" lon="2.54971">
        <ele>395.6</ele>
        <time>2017-02-27T11:46:14Z</time>
      </trkpt>
      <trkpt lat="43.34358" lon="2.5497">
        <ele>394.6</ele>
        <time>2017-02-27T11:46:21Z</time>
      </trkpt>
      <trkpt lat="43.34352" lon="2.54966">
        <ele>395.1</ele>
        <time>2017-02-27T11:46:35Z</time>
      </trkpt>
      <trkpt lat="43.3435" lon="2.54959">
        <ele>394.5</ele>
        <time>2017-02-27T11:46:42Z</time>
      </trkpt>
      <trkpt lat="43.34345" lon="2.5495">
        <ele>393</ele>
        <time>2017-02-27T11:46:49Z</time>
      </trkpt>
      <trkpt lat="43.34341" lon="2.54941">
        <ele>391.6</ele>
        <time>2017-02-27T11:46:54Z</time>
      </trkpt>
      <trkpt lat="43.34336" lon="2.54933">
        <ele>390.6</ele>
        <time>2017-02-27T11:47:00Z</time>
      </trkpt>
      <trkpt lat="43.3433" lon="2.54925">
        <ele>389.8</ele>
        <time>2017-02-27T11:47:07Z</time>
      </trkpt>
      <trkpt lat="43.34325" lon="2.54916">
        <ele>389.2</ele>
        <time>2017-02-27T11:47:12Z</time>
      </trkpt>
      <trkpt lat="43.34321" lon="2.54908">
        <ele>389.6</ele>
        <time>2017-02-27T11:47:19Z</time>
      </trkpt>
      <trkpt lat="43.34318" lon="2.54899">
        <ele>389.5</ele>
        <time>2017-02-27T11:47:24Z</time>
      </trkpt>
      <trkpt lat="43.34313" lon="2.5489">
        <ele>389.2</ele>
        <time>2017-02-27T11:47:30Z</time>
      </trkpt>
      <trkpt lat="43.34309" lon="2.5488">
        <ele>388.6</ele>
        <time>2017-02-27T11:47:36Z</time>
      </trkpt>
      <trkpt lat="43.34305" lon="2.54871">
        <ele>388.1</ele>
        <time>2017-02-27T11:47:42Z</time>
      </trkpt>
      <trkpt lat="43.343" lon="2.54863">
        <ele>387.2</ele>
        <time>2017-02-27T11:47:48Z</time>
      </trkpt>
      <trkpt lat="43.34296" lon="2.54854">
        <ele>385.6</ele>
        <time>2017-02-27T11:47:55Z</time>
      </trkpt>
      <trkpt lat="43.34291" lon="2.54846">
        <ele>384.1</ele>
        <time>2017-02-27T11:48:01Z</time>
      </trkpt>
      <trkpt lat="43.34285" lon="2.54837">
        <ele>383.1</ele>
        <time>2017-02-27T11:48:07Z</time>
      </trkpt>
      <trkpt lat="43.34281" lon="2.54827">
        <ele>382.7</ele>
        <time>2017-02-27T11:48:12Z</time>
      </trkpt>
      <trkpt lat="43.34277" lon="2.54818">
        <ele>382.6</ele>
        <time>2017-02-27T11:48:18Z</time>
      </trkpt>
      <trkpt lat="43.34274" lon="2.54807">
        <ele>383.5</ele>
        <time>2017-02-27T11:48:25Z</time>
      </trkpt>
      <trkpt lat="43.34272" lon="2.54799">
        <ele>383.4</ele>
        <time>2017-02-27T11:48:32Z</time>
      </trkpt>
      <trkpt lat="43.34269" lon="2.54788">
        <ele>382.5</ele>
        <time>2017-02-27T11:48:38Z</time>
      </trkpt>
      <trkpt lat="43.34268" lon="2.54778">
        <ele>381.3</ele>
        <time>2017-02-27T11:48:45Z</time>
      </trkpt>
      <trkpt lat="43.34264" lon="2.54769">
        <ele>379.4</ele>
        <time>2017-02-27T11:48:50Z</time>
      </trkpt>
      <trkpt lat="43.34259" lon="2.54761">
        <ele>377.8</ele>
        <time>2017-02-27T11:48:56Z</time>
      </trkpt>
      <trkpt lat="43.34254" lon="2.54753">
        <ele>376.4</ele>
        <time>2017-02-27T11:49:03Z</time>
      </trkpt>
      <trkpt lat="43.34249" lon="2.54746">
        <ele>375.4</ele>
        <time>2017-02-27T11:49:10Z</time>
      </trkpt>
      <trkpt lat="43.34244" lon="2.54738">
        <ele>374.2</ele>
        <time>2017-02-27T11:49:15Z</time>
      </trkpt>
      <trkpt lat="43.34239" lon="2.5473">
        <ele>372.1</ele>
        <time>2017-02-27T11:49:19Z</time>
      </trkpt>
      <trkpt lat="43.34234" lon="2.54723">
        <ele>370.4</ele>
        <time>2017-02-27T11:49:24Z</time>
      </trkpt>
      <trkpt lat="43.34229" lon="2.54715">
        <ele>369.3</ele>
        <time>2017-02-27T11:49:29Z</time>
      </trkpt>
      <trkpt lat="43.34225" lon="2.54705">
        <ele>369.3</ele>
        <time>2017-02-27T11:49:35Z</time>
      </trkpt>
      <trkpt lat="43.3422" lon="2.54697">
        <ele>369.7</ele>
        <time>2017-02-27T11:49:41Z</time>
      </trkpt>
      <trkpt lat="43.34215" lon="2.54688">
        <ele>370.4</ele>
        <time>2017-02-27T11:49:47Z</time>
      </trkpt>
      <trkpt lat="43.34212" lon="2.54684">
        <ele>369.1</ele>
        <time>2017-02-27T11:49:54Z</time>
      </trkpt>
      <trkpt lat="43.34207" lon="2.54676">
        <ele>373.6</ele>
        <time>2017-02-27T11:50:39Z</time>
      </trkpt>
      <trkpt lat="43.34202" lon="2.54672">
        <ele>373.6</ele>
        <time>2017-02-27T11:50:46Z</time>
      </trkpt>
      <trkpt lat="43.34196" lon="2.54667">
        <ele>372.7</ele>
        <time>2017-02-27T11:50:53Z</time>
      </trkpt>
      <trkpt lat="43.34189" lon="2.54663">
        <ele>371.1</ele>
        <time>2017-02-27T11:50:58Z</time>
      </trkpt>
      <trkpt lat="43.34182" lon="2.54659">
        <ele>368.6</ele>
        <time>2017-02-27T11:51:03Z</time>
      </trkpt>
      <trkpt lat="43.34175" lon="2.54654">
        <ele>367</ele>
        <time>2017-02-27T11:51:08Z</time>
      </trkpt>
      <trkpt lat="43.34168" lon="2.54648">
        <ele>366.1</ele>
        <time>2017-02-27T11:51:14Z</time>
      </trkpt>
      <trkpt lat="43.34162" lon="2.54642">
        <ele>365.2</ele>
        <time>2017-02-27T11:51:20Z</time>
      </trkpt>
      <trkpt lat="43.34155" lon="2.54635">
        <ele>365</ele>
        <time>2017-02-27T11:51:27Z</time>
      </trkpt>
      <trkpt lat="43.34148" lon="2.54633">
        <ele>365</ele>
        <time>2017-02-27T11:51:32Z</time>
      </trkpt>
      <trkpt lat="43.34142" lon="2.5463">
        <ele>365.1</ele>
        <time>2017-02-27T11:51:39Z</time>
      </trkpt>
      <trkpt lat="43.34136" lon="2.54626">
        <ele>364.5</ele>
        <time>2017-02-27T11:51:45Z</time>
      </trkpt>
      <trkpt lat="43.34128" lon="2.54621">
        <ele>363.2</ele>
        <time>2017-02-27T11:51:51Z</time>
      </trkpt>
      <trkpt lat="43.34121" lon="2.54617">
        <ele>362.7</ele>
        <time>2017-02-27T11:51:58Z</time>
      </trkpt>
      <trkpt lat="43.34114" lon="2.54612">
        <ele>361.6</ele>
        <time>2017-02-27T11:52:04Z</time>
      </trkpt>
      <trkpt lat="43.34107" lon="2.54608">
        <ele>360.7</ele>
        <time>2017-02-27T11:52:11Z</time>
      </trkpt>
      <trkpt lat="43.341" lon="2.54606">
        <ele>359.6</ele>
        <time>2017-02-27T11:52:18Z</time>
      </trkpt>
      <trkpt lat="43.34093" lon="2.54603">
        <ele>359.1</ele>
        <time>2017-02-27T11:52:24Z</time>
      </trkpt>
      <trkpt lat="43.34086" lon="2.54599">
        <ele>358.3</ele>
        <time>2017-02-27T11:52:30Z</time>
      </trkpt>
      <trkpt lat="43.34078" lon="2.546">
        <ele>357.8</ele>
        <time>2017-02-27T11:52:35Z</time>
      </trkpt>
      <trkpt lat="43.3407" lon="2.546">
        <ele>356.8</ele>
        <time>2017-02-27T11:52:40Z</time>
      </trkpt>
      <trkpt lat="43.34061" lon="2.54597">
        <ele>356.3</ele>
        <time>2017-02-27T11:52:45Z</time>
      </trkpt>
      <trkpt lat="43.34053" lon="2.54593">
        <ele>354.1</ele>
        <time>2017-02-27T11:52:52Z</time>
      </trkpt>
      <trkpt lat="43.34046" lon="2.54592">
        <ele>352.9</ele>
        <time>2017-02-27T11:52:59Z</time>
      </trkpt>
      <trkpt lat="43.34038" lon="2.5459">
        <ele>351.5</ele>
        <time>2017-02-27T11:53:06Z</time>
      </trkpt>
      <trkpt lat="43.34031" lon="2.54593">
        <ele>350.8</ele>
        <time>2017-02-27T11:53:09Z</time>
      </trkpt>
      <trkpt lat="43.34023" lon="2.54592">
        <ele>349.8</ele>
        <time>2017-02-27T11:53:16Z</time>
      </trkpt>
      <trkpt lat="43.34015" lon="2.54594">
        <ele>349.6</ele>
        <time>2017-02-27T11:53:23Z</time>
      </trkpt>
      <trkpt lat="43.34007" lon="2.54594">
        <ele>349</ele>
        <time>2017-02-27T11:53:28Z</time>
      </trkpt>
      <trkpt lat="43.34" lon="2.54596">
        <ele>348.7</ele>
        <time>2017-02-27T11:53:33Z</time>
      </trkpt>
      <trkpt lat="43.33992" lon="2.54597">
        <ele>348.6</ele>
        <time>2017-02-27T11:53:40Z</time>
      </trkpt>
      <trkpt lat="43.33985" lon="2.546">
        <ele>347.7</ele>
        <time>2017-02-27T11:53:47Z</time>
      </trkpt>
      <trkpt lat="43.33977" lon="2.54603">
        <ele>346.8</ele>
        <time>2017-02-27T11:53:54Z</time>
      </trkpt>
      <trkpt lat="43.33969" lon="2.54605">
        <ele>346.1</ele>
        <time>2017-02-27T11:54:01Z</time>
      </trkpt>
      <trkpt lat="43.33963" lon="2.54606">
        <ele>345.1</ele>
        <time>2017-02-27T11:54:08Z</time>
      </trkpt>
      <trkpt lat="43.33955" lon="2.54607">
        <ele>344.2</ele>
        <time>2017-02-27T11:54:14Z</time>
      </trkpt>
      <trkpt lat="43.33947" lon="2.54606">
        <ele>342.9</ele>
        <time>2017-02-27T11:54:19Z</time>
      </trkpt>
      <trkpt lat="43.3394" lon="2.54603">
        <ele>341.8</ele>
        <time>2017-02-27T11:54:26Z</time>
      </trkpt>
      <trkpt lat="43.33932" lon="2.54603">
        <ele>340.4</ele>
        <time>2017-02-27T11:54:33Z</time>
      </trkpt>
      <trkpt lat="43.33924" lon="2.54603">
        <ele>338.8</ele>
        <time>2017-02-27T11:54:40Z</time>
      </trkpt>
      <trkpt lat="43.33917" lon="2.54606">
        <ele>337.2</ele>
        <time>2017-02-27T11:54:45Z</time>
      </trkpt>
      <trkpt lat="43.3391" lon="2.54604">
        <ele>335.7</ele>
        <time>2017-02-27T11:54:51Z</time>
      </trkpt>
      <trkpt lat="43.33902" lon="2.54605">
        <ele>333.8</ele>
        <time>2017-02-27T11:54:58Z</time>
      </trkpt>
      <trkpt lat="43.33896" lon="2.54603">
        <ele>331.7</ele>
        <time>2017-02-27T11:55:05Z</time>
      </trkpt>
      <trkpt lat="43.3389" lon="2.54603">
        <ele>329.5</ele>
        <time>2017-02-27T11:55:12Z</time>
      </trkpt>
      <trkpt lat="43.33882" lon="2.54608">
        <ele>327.2</ele>
        <time>2017-02-27T11:55:19Z</time>
      </trkpt>
      <trkpt lat="43.33875" lon="2.5461">
        <ele>325.6</ele>
        <time>2017-02-27T11:55:24Z</time>
      </trkpt>
      <trkpt lat="43.33867" lon="2.54613">
        <ele>324.8</ele>
        <time>2017-02-27T11:55:28Z</time>
      </trkpt>
      <trkpt lat="43.33859" lon="2.54618">
        <ele>323.4</ele>
        <time>2017-02-27T11:55:34Z</time>
      </trkpt>
      <trkpt lat="43.33854" lon="2.54622">
        <ele>322.5</ele>
        <time>2017-02-27T11:55:41Z</time>
      </trkpt>
      <trkpt lat="43.33853" lon="2.54624">
        <ele>322</ele>
        <time>2017-02-27T11:55:48Z</time>
      </trkpt>
      <trkpt lat="43.33848" lon="2.54635">
        <ele>322.4</ele>
        <time>2017-02-27T11:55:51Z</time>
      </trkpt>
      <trkpt lat="43.33847" lon="2.54635">
        <ele>322.5</ele>
        <time>2017-02-27T11:55:58Z</time>
      </trkpt>
      <trkpt lat="43.33848" lon="2.54634">
        <ele>330.2</ele>
        <time>2017-02-27T11:55:34Z</time>
      </trkpt>
      <trkpt lat="43.33841" lon="2.54645">
        <ele>330.2</ele>
        <time>2017-02-27T11:56:55Z</time>
      </trkpt>
      <trkpt lat="43.33836" lon="2.54649">
        <ele>329.9</ele>
        <time>2017-02-27T11:57:02Z</time>
      </trkpt>
      <trkpt lat="43.3383" lon="2.54655">
        <ele>330.1</ele>
        <time>2017-02-27T11:57:08Z</time>
      </trkpt>
      <trkpt lat="43.33826" lon="2.54656">
        <ele>330.2</ele>
        <time>2017-02-27T11:57:15Z</time>
      </trkpt>
      <trkpt lat="43.33819" lon="2.54659">
        <ele>330.3</ele>
        <time>2017-02-27T11:57:22Z</time>
      </trkpt>
      <trkpt lat="43.33814" lon="2.5466">
        <ele>330.5</ele>
        <time>2017-02-27T11:57:29Z</time>
      </trkpt>
      <trkpt lat="43.33806" lon="2.54664">
        <ele>329.7</ele>
        <time>2017-02-27T11:57:35Z</time>
      </trkpt>
      <trkpt lat="43.33801" lon="2.54663">
        <ele>328</ele>
        <time>2017-02-27T11:57:42Z</time>
      </trkpt>
      <trkpt lat="43.33793" lon="2.54666">
        <ele>326.8</ele>
        <time>2017-02-27T11:57:48Z</time>
      </trkpt>
      <trkpt lat="43.33785" lon="2.54668">
        <ele>325.3</ele>
        <time>2017-02-27T11:57:55Z</time>
      </trkpt>
      <trkpt lat="43.33778" lon="2.54669">
        <ele>324.3</ele>
        <time>2017-02-27T11:58:02Z</time>
      </trkpt>
      <trkpt lat="43.33773" lon="2.54673">
        <ele>322.9</ele>
        <time>2017-02-27T11:58:09Z</time>
      </trkpt>
      <trkpt lat="43.33766" lon="2.54674">
        <ele>322</ele>
        <time>2017-02-27T11:58:15Z</time>
      </trkpt>
      <trkpt lat="43.33758" lon="2.54673">
        <ele>321.3</ele>
        <time>2017-02-27T11:58:20Z</time>
      </trkpt>
      <trkpt lat="43.3375" lon="2.54674">
        <ele>320.7</ele>
        <time>2017-02-27T11:58:27Z</time>
      </trkpt>
      <trkpt lat="43.33743" lon="2.54674">
        <ele>318.6</ele>
        <time>2017-02-27T11:58:34Z</time>
      </trkpt>
      <trkpt lat="43.33737" lon="2.54673">
        <ele>317.5</ele>
        <time>2017-02-27T11:58:41Z</time>
      </trkpt>
      <trkpt lat="43.33731" lon="2.54673">
        <ele>316.4</ele>
        <time>2017-02-27T11:58:48Z</time>
      </trkpt>
      <trkpt lat="43.33723" lon="2.54676">
        <ele>315.6</ele>
        <time>2017-02-27T11:58:54Z</time>
      </trkpt>
      <trkpt lat="43.33715" lon="2.54678">
        <ele>314.5</ele>
        <time>2017-02-27T11:59:01Z</time>
      </trkpt>
      <trkpt lat="43.33708" lon="2.54678">
        <ele>313.2</ele>
        <time>2017-02-27T11:59:08Z</time>
      </trkpt>
      <trkpt lat="43.33704" lon="2.5468">
        <ele>312.5</ele>
        <time>2017-02-27T11:59:15Z</time>
      </trkpt>
      <trkpt lat="43.33697" lon="2.54678">
        <ele>312.6</ele>
        <time>2017-02-27T11:59:22Z</time>
      </trkpt>
      <trkpt lat="43.33692" lon="2.54669">
        <ele>312.7</ele>
        <time>2017-02-27T11:59:29Z</time>
      </trkpt>
      <trkpt lat="43.33688" lon="2.54661">
        <ele>312.5</ele>
        <time>2017-02-27T11:59:35Z</time>
      </trkpt>
      <trkpt lat="43.33685" lon="2.54651">
        <ele>312.4</ele>
        <time>2017-02-27T11:59:41Z</time>
      </trkpt>
      <trkpt lat="43.33681" lon="2.54642">
        <ele>310.7</ele>
        <time>2017-02-27T11:59:48Z</time>
      </trkpt>
      <trkpt lat="43.33675" lon="2.54634">
        <ele>309.4</ele>
        <time>2017-02-27T11:59:55Z</time>
      </trkpt>
      <trkpt lat="43.33674" lon="2.5463">
        <ele>309.6</ele>
        <time>2017-02-27T12:00:02Z</time>
      </trkpt>
      <trkpt lat="43.33677" lon="2.54627">
        <ele>309.4</ele>
        <time>2017-02-27T12:00:09Z</time>
      </trkpt>
      <trkpt lat="43.3368" lon="2.54625">
        <ele>308.8</ele>
        <time>2017-02-27T12:00:16Z</time>
      </trkpt>
      <trkpt lat="43.33681" lon="2.54625">
        <ele>308.7</ele>
        <time>2017-02-27T12:00:23Z</time>
      </trkpt>
      <trkpt lat="43.33679" lon="2.54626">
        <ele>307.8</ele>
        <time>2017-02-27T12:00:30Z</time>
      </trkpt>
      <trkpt lat="43.33673" lon="2.54623">
        <ele>306.9</ele>
        <time>2017-02-27T12:00:37Z</time>
      </trkpt>
      <trkpt lat="43.33668" lon="2.54618">
        <ele>306.3</ele>
        <time>2017-02-27T12:00:44Z</time>
      </trkpt>
      <trkpt lat="43.33664" lon="2.54614">
        <ele>305.7</ele>
        <time>2017-02-27T12:00:51Z</time>
      </trkpt>
      <trkpt lat="43.33661" lon="2.54611">
        <ele>305.9</ele>
        <time>2017-02-27T12:00:58Z</time>
      </trkpt>
      <trkpt lat="43.33655" lon="2.54612">
        <ele>306</ele>
        <time>2017-02-27T12:01:05Z</time>
      </trkpt>
      <trkpt lat="43.33654" lon="2.54618">
        <ele>306.3</ele>
        <time>2017-02-27T12:01:12Z</time>
      </trkpt>
      <trkpt lat="43.33653" lon="2.54628">
        <ele>306</ele>
        <time>2017-02-27T12:01:19Z</time>
      </trkpt>
      <trkpt lat="43.33653" lon="2.54635">
        <ele>305.8</ele>
        <time>2017-02-27T12:01:26Z</time>
      </trkpt>
      <trkpt lat="43.33653" lon="2.54643">
        <ele>305</ele>
        <time>2017-02-27T12:01:33Z</time>
      </trkpt>
      <trkpt lat="43.33654" lon="2.54655">
        <ele>304.2</ele>
        <time>2017-02-27T12:01:39Z</time>
      </trkpt>
      <trkpt lat="43.33656" lon="2.54665">
        <ele>303.7</ele>
        <time>2017-02-27T12:01:46Z</time>
      </trkpt>
      <trkpt lat="43.3366" lon="2.54675">
        <ele>302.6</ele>
        <time>2017-02-27T12:01:52Z</time>
      </trkpt>
      <trkpt lat="43.33663" lon="2.54684">
        <ele>302</ele>
        <time>2017-02-27T12:01:58Z</time>
      </trkpt>
      <trkpt lat="43.33666" lon="2.54694">
        <ele>301.3</ele>
        <time>2017-02-27T12:02:04Z</time>
      </trkpt>
      <trkpt lat="43.33669" lon="2.54705">
        <ele>300.6</ele>
        <time>2017-02-27T12:02:11Z</time>
      </trkpt>
      <trkpt lat="43.3367" lon="2.54716">
        <ele>300.1</ele>
        <time>2017-02-27T12:02:18Z</time>
      </trkpt>
      <trkpt lat="43.33672" lon="2.54726">
        <ele>299.8</ele>
        <time>2017-02-27T12:02:25Z</time>
      </trkpt>
      <trkpt lat="43.33671" lon="2.54737">
        <ele>299.4</ele>
        <time>2017-02-27T12:02:32Z</time>
      </trkpt>
      <trkpt lat="43.33671" lon="2.54748">
        <ele>299</ele>
        <time>2017-02-27T12:02:39Z</time>
      </trkpt>
      <trkpt lat="43.33671" lon="2.54759">
        <ele>298.6</ele>
        <time>2017-02-27T12:02:45Z</time>
      </trkpt>
      <trkpt lat="43.3367" lon="2.54768">
        <ele>298.1</ele>
        <time>2017-02-27T12:02:52Z</time>
      </trkpt>
      <trkpt lat="43.33669" lon="2.54777">
        <ele>298.2</ele>
        <time>2017-02-27T12:02:59Z</time>
      </trkpt>
      <trkpt lat="43.3367" lon="2.54784">
        <ele>298.9</ele>
        <time>2017-02-27T12:03:06Z</time>
      </trkpt>
      <trkpt lat="43.33667" lon="2.54794">
        <ele>299.1</ele>
        <time>2017-02-27T12:03:12Z</time>
      </trkpt>
      <trkpt lat="43.33664" lon="2.54803">
        <ele>299.5</ele>
        <time>2017-02-27T12:03:19Z</time>
      </trkpt>
      <trkpt lat="43.3366" lon="2.54813">
        <ele>300.2</ele>
        <time>2017-02-27T12:03:26Z</time>
      </trkpt>
      <trkpt lat="43.33658" lon="2.54822">
        <ele>300.7</ele>
        <time>2017-02-27T12:03:33Z</time>
      </trkpt>
      <trkpt lat="43.3366" lon="2.54831">
        <ele>300.6</ele>
        <time>2017-02-27T12:03:40Z</time>
      </trkpt>
      <trkpt lat="43.33661" lon="2.54841">
        <ele>300.1</ele>
        <time>2017-02-27T12:03:47Z</time>
      </trkpt>
      <trkpt lat="43.33661" lon="2.5485">
        <ele>299.2</ele>
        <time>2017-02-27T12:03:54Z</time>
      </trkpt>
      <trkpt lat="43.33663" lon="2.54859">
        <ele>298.7</ele>
        <time>2017-02-27T12:04:01Z</time>
      </trkpt>
      <trkpt lat="43.33661" lon="2.54869">
        <ele>297.8</ele>
        <time>2017-02-27T12:04:08Z</time>
      </trkpt>
      <trkpt lat="43.3366" lon="2.54878">
        <ele>297.1</ele>
        <time>2017-02-27T12:04:15Z</time>
      </trkpt>
      <trkpt lat="43.33659" lon="2.54887">
        <ele>297.3</ele>
        <time>2017-02-27T12:04:22Z</time>
      </trkpt>
      <trkpt lat="43.33654" lon="2.54891">
        <ele>297.6</ele>
        <time>2017-02-27T12:04:29Z</time>
      </trkpt>
      <trkpt lat="43.33649" lon="2.54895">
        <ele>297.9</ele>
        <time>2017-02-27T12:04:36Z</time>
      </trkpt>
      <trkpt lat="43.33645" lon="2.54899">
        <ele>297.9</ele>
        <time>2017-02-27T12:04:43Z</time>
      </trkpt>
      <trkpt lat="43.33639" lon="2.54899">
        <ele>297.9</ele>
        <time>2017-02-27T12:04:50Z</time>
      </trkpt>
      <trkpt lat="43.33631" lon="2.549">
        <ele>297.8</ele>
        <time>2017-02-27T12:04:57Z</time>
      </trkpt>
      <trkpt lat="43.33623" lon="2.54902">
        <ele>297.8</ele>
        <time>2017-02-27T12:05:02Z</time>
      </trkpt>
      <trkpt lat="43.33616" lon="2.54898">
        <ele>297.8</ele>
        <time>2017-02-27T12:05:08Z</time>
      </trkpt>
      <trkpt lat="43.33609" lon="2.54892">
        <ele>297.5</ele>
        <time>2017-02-27T12:05:15Z</time>
      </trkpt>
      <trkpt lat="43.33603" lon="2.54888">
        <ele>297.2</ele>
        <time>2017-02-27T12:05:21Z</time>
      </trkpt>
      <trkpt lat="43.33594" lon="2.54885">
        <ele>296.9</ele>
        <time>2017-02-27T12:05:28Z</time>
      </trkpt>
      <trkpt lat="43.33587" lon="2.54879">
        <ele>296.7</ele>
        <time>2017-02-27T12:05:35Z</time>
      </trkpt>
      <trkpt lat="43.33584" lon="2.54871">
        <ele>294.7</ele>
        <time>2017-02-27T12:05:42Z</time>
      </trkpt>
      <trkpt lat="43.33581" lon="2.54861">
        <ele>292.7</ele>
        <time>2017-02-27T12:05:47Z</time>
      </trkpt>
      <trkpt lat="43.3358" lon="2.54858">
        <ele>288.8</ele>
        <time>2017-02-27T12:05:54Z</time>
      </trkpt>
      <trkpt lat="43.33581" lon="2.54854">
        <ele>284.5</ele>
        <time>2017-02-27T12:06:01Z</time>
      </trkpt>
      <trkpt lat="43.33587" lon="2.54848">
        <ele>279.7</ele>
        <time>2017-02-27T12:06:08Z</time>
      </trkpt>
      <trkpt lat="43.33585" lon="2.54844">
        <ele>278.1</ele>
        <time>2017-02-27T12:06:15Z</time>
      </trkpt>
      <trkpt lat="43.33582" lon="2.54834">
        <ele>276.3</ele>
        <time>2017-02-27T12:06:20Z</time>
      </trkpt>
      <trkpt lat="43.33577" lon="2.54824">
        <ele>274.3</ele>
        <time>2017-02-27T12:06:27Z</time>
      </trkpt>
      <trkpt lat="43.33574" lon="2.54818">
        <ele>272.1</ele>
        <time>2017-02-27T12:06:34Z</time>
      </trkpt>
      <trkpt lat="43.33571" lon="2.54811">
        <ele>269.6</ele>
        <time>2017-02-27T12:06:41Z</time>
      </trkpt>
      <trkpt lat="43.3357" lon="2.54806">
        <ele>268.4</ele>
        <time>2017-02-27T12:06:48Z</time>
      </trkpt>
      <trkpt lat="43.33571" lon="2.54797">
        <ele>266.5</ele>
        <time>2017-02-27T12:06:55Z</time>
      </trkpt>
      <trkpt lat="43.3357" lon="2.54789">
        <ele>265</ele>
        <time>2017-02-27T12:07:02Z</time>
      </trkpt>
      <trkpt lat="43.33567" lon="2.54783">
        <ele>263.9</ele>
        <time>2017-02-27T12:07:09Z</time>
      </trkpt>
      <trkpt lat="43.33564" lon="2.54776">
        <ele>263.8</ele>
        <time>2017-02-27T12:07:16Z</time>
      </trkpt>
      <trkpt lat="43.33561" lon="2.54768">
        <ele>262.9</ele>
        <time>2017-02-27T12:07:23Z</time>
      </trkpt>
      <trkpt lat="43.33558" lon="2.54758">
        <ele>260.5</ele>
        <time>2017-02-27T12:07:29Z</time>
      </trkpt>
      <trkpt lat="43.33554" lon="2.5475">
        <ele>258.6</ele>
        <time>2017-02-27T12:07:34Z</time>
      </trkpt>
      <trkpt lat="43.3355" lon="2.54742">
        <ele>257.3</ele>
        <time>2017-02-27T12:07:41Z</time>
      </trkpt>
      <trkpt lat="43.33546" lon="2.54736">
        <ele>256.1</ele>
        <time>2017-02-27T12:07:48Z</time>
      </trkpt>
      <trkpt lat="43.33543" lon="2.54728">
        <ele>254.3</ele>
        <time>2017-02-27T12:07:55Z</time>
      </trkpt>
      <trkpt lat="43.33539" lon="2.54718">
        <ele>252.6</ele>
        <time>2017-02-27T12:08:02Z</time>
      </trkpt>
      <trkpt lat="43.33537" lon="2.54711">
        <ele>251.9</ele>
        <time>2017-02-27T12:08:09Z</time>
      </trkpt>
      <trkpt lat="43.33531" lon="2.54704">
        <ele>250.2</ele>
        <time>2017-02-27T12:08:16Z</time>
      </trkpt>
      <trkpt lat="43.33529" lon="2.54696">
        <ele>248.6</ele>
        <time>2017-02-27T12:08:23Z</time>
      </trkpt>
      <trkpt lat="43.33528" lon="2.54692">
        <ele>247.8</ele>
        <time>2017-02-27T12:08:30Z</time>
      </trkpt>
      <trkpt lat="43.33526" lon="2.54683">
        <ele>246.9</ele>
        <time>2017-02-27T12:08:37Z</time>
      </trkpt>
      <trkpt lat="43.33524" lon="2.54678">
        <ele>246</ele>
        <time>2017-02-27T12:08:44Z</time>
      </trkpt>
      <trkpt lat="43.33521" lon="2.54672">
        <ele>244.4</ele>
        <time>2017-02-27T12:08:51Z</time>
      </trkpt>
      <trkpt lat="43.33516" lon="2.54667">
        <ele>242.8</ele>
        <time>2017-02-27T12:08:58Z</time>
      </trkpt>
      <trkpt lat="43.33512" lon="2.54662">
        <ele>242.5</ele>
        <time>2017-02-27T12:09:05Z</time>
      </trkpt>
      <trkpt lat="43.3351" lon="2.54662">
        <ele>241.2</ele>
        <time>2017-02-27T12:09:12Z</time>
      </trkpt>
      <trkpt lat="43.33505" lon="2.54653">
        <ele>240</ele>
        <time>2017-02-27T12:09:20Z</time>
      </trkpt>
      <trkpt lat="43.33502" lon="2.54644">
        <ele>239.2</ele>
        <time>2017-02-27T12:09:27Z</time>
      </trkpt>
      <trkpt lat="43.33499" lon="2.54634">
        <ele>238.8</ele>
        <time>2017-02-27T12:09:33Z</time>
      </trkpt>
      <trkpt lat="43.33497" lon="2.54626">
        <ele>238</ele>
        <time>2017-02-27T12:09:40Z</time>
      </trkpt>
      <trkpt lat="43.33494" lon="2.54616">
        <ele>236.8</ele>
        <time>2017-02-27T12:09:47Z</time>
      </trkpt>
      <trkpt lat="43.33493" lon="2.54606">
        <ele>235.2</ele>
        <time>2017-02-27T12:09:53Z</time>
      </trkpt>
      <trkpt lat="43.33491" lon="2.54595">
        <ele>233.8</ele>
        <time>2017-02-27T12:09:59Z</time>
      </trkpt>
      <trkpt lat="43.33489" lon="2.54585">
        <ele>231.6</ele>
        <time>2017-02-27T12:10:05Z</time>
      </trkpt>
      <trkpt lat="43.33491" lon="2.54574">
        <ele>229.8</ele>
        <time>2017-02-27T12:10:12Z</time>
      </trkpt>
      <trkpt lat="43.33494" lon="2.54565">
        <ele>228.7</ele>
        <time>2017-02-27T12:10:18Z</time>
      </trkpt>
      <trkpt lat="43.33496" lon="2.54556">
        <ele>226.6</ele>
        <time>2017-02-27T12:10:25Z</time>
      </trkpt>
      <trkpt lat="43.33496" lon="2.54547">
        <ele>224.6</ele>
        <time>2017-02-27T12:10:32Z</time>
      </trkpt>
      <trkpt lat="43.33494" lon="2.5454">
        <ele>223.9</ele>
        <time>2017-02-27T12:10:39Z</time>
      </trkpt>
      <trkpt lat="43.33489" lon="2.54534">
        <ele>222.9</ele>
        <time>2017-02-27T12:10:46Z</time>
      </trkpt>
      <trkpt lat="43.33482" lon="2.54529">
        <ele>220.5</ele>
        <time>2017-02-27T12:10:53Z</time>
      </trkpt>
      <trkpt lat="43.33476" lon="2.54523">
        <ele>219.1</ele>
        <time>2017-02-27T12:11:00Z</time>
      </trkpt>
      <trkpt lat="43.33469" lon="2.54522">
        <ele>217.8</ele>
        <time>2017-02-27T12:11:07Z</time>
      </trkpt>
      <trkpt lat="43.33463" lon="2.54517">
        <ele>216.1</ele>
        <time>2017-02-27T12:11:14Z</time>
      </trkpt>
      <trkpt lat="43.33455" lon="2.54512">
        <ele>214.4</ele>
        <time>2017-02-27T12:11:20Z</time>
      </trkpt>
      <trkpt lat="43.33452" lon="2.54502">
        <ele>212.6</ele>
        <time>2017-02-27T12:11:25Z</time>
      </trkpt>
      <trkpt lat="43.33459" lon="2.54494">
        <ele>210.5</ele>
        <time>2017-02-27T12:11:31Z</time>
      </trkpt>
      <trkpt lat="43.33461" lon="2.54484">
        <ele>208.2</ele>
        <time>2017-02-27T12:11:38Z</time>
      </trkpt>
      <trkpt lat="43.33467" lon="2.54479">
        <ele>205.9</ele>
        <time>2017-02-27T12:11:44Z</time>
      </trkpt>
      <trkpt lat="43.33472" lon="2.54469">
        <ele>204.6</ele>
        <time>2017-02-27T12:11:51Z</time>
      </trkpt>
      <trkpt lat="43.33473" lon="2.54459">
        <ele>204</ele>
        <time>2017-02-27T12:11:58Z</time>
      </trkpt>
      <trkpt lat="43.33479" lon="2.54451">
        <ele>202.9</ele>
        <time>2017-02-27T12:12:04Z</time>
      </trkpt>
      <trkpt lat="43.33482" lon="2.54442">
        <ele>201.8</ele>
        <time>2017-02-27T12:12:11Z</time>
      </trkpt>
      <trkpt lat="43.33487" lon="2.54437">
        <ele>201.5</ele>
        <time>2017-02-27T12:12:18Z</time>
      </trkpt>
      <trkpt lat="43.33491" lon="2.54436">
        <ele>201.5</ele>
        <time>2017-02-27T12:12:25Z</time>
      </trkpt>
      <trkpt lat="43.33494" lon="2.54435">
        <ele>201.5</ele>
        <time>2017-02-27T12:12:32Z</time>
      </trkpt>
      <trkpt lat="43.33501" lon="2.54431">
        <ele>203.6</ele>
        <time>2017-02-27T12:13:02Z</time>
      </trkpt>
      <trkpt lat="43.33508" lon="2.54428">
        <ele>203.9</ele>
        <time>2017-02-27T12:13:09Z</time>
      </trkpt>
      <trkpt lat="43.3351" lon="2.5443">
        <ele>204.4</ele>
        <time>2017-02-27T12:13:16Z</time>
      </trkpt>
      <trkpt lat="43.33516" lon="2.54425">
        <ele>204.1</ele>
        <time>2017-02-27T12:13:30Z</time>
      </trkpt>
      <trkpt lat="43.33523" lon="2.54421">
        <ele>202.9</ele>
        <time>2017-02-27T12:13:37Z</time>
      </trkpt>
      <trkpt lat="43.33526" lon="2.54421">
        <ele>201.7</ele>
        <time>2017-02-27T12:13:44Z</time>
      </trkpt>
      <trkpt lat="43.33524" lon="2.54411">
        <ele>201.1</ele>
        <time>2017-02-27T12:13:51Z</time>
      </trkpt>
      <trkpt lat="43.33516" lon="2.54413">
        <ele>201.7</ele>
        <time>2017-02-27T12:14:01Z</time>
      </trkpt>
      <trkpt lat="43.33511" lon="2.54416">
        <ele>201.9</ele>
        <time>2017-02-27T12:14:08Z</time>
      </trkpt>
      <trkpt lat="43.33504" lon="2.54421">
        <ele>200.9</ele>
        <time>2017-02-27T12:14:14Z</time>
      </trkpt>
      <trkpt lat="43.33501" lon="2.54423">
        <ele>200.6</ele>
        <time>2017-02-27T12:14:21Z</time>
      </trkpt>
      <trkpt lat="43.33493" lon="2.54417">
        <ele>200.9</ele>
        <time>2017-02-27T12:14:49Z</time>
      </trkpt>
      <trkpt lat="43.33491" lon="2.54413">
        <ele>201.4</ele>
        <time>2017-02-27T12:15:03Z</time>
      </trkpt>
      <trkpt lat="43.33479" lon="2.54422">
        <ele>204.9</ele>
        <time>2017-02-27T12:14:42Z</time>
      </trkpt>
      <trkpt lat="43.33473" lon="2.54427">
        <ele>205.3</ele>
        <time>2017-02-27T12:15:54Z</time>
      </trkpt>
      <trkpt lat="43.33467" lon="2.5443">
        <ele>204.2</ele>
        <time>2017-02-27T12:16:01Z</time>
      </trkpt>
      <trkpt lat="43.3346" lon="2.54435">
        <ele>202.4</ele>
        <time>2017-02-27T12:16:08Z</time>
      </trkpt>
      <trkpt lat="43.33456" lon="2.5444">
        <ele>200.8</ele>
        <time>2017-02-27T12:16:15Z</time>
      </trkpt>
      <trkpt lat="43.33451" lon="2.54444">
        <ele>199.5</ele>
        <time>2017-02-27T12:16:22Z</time>
      </trkpt>
      <trkpt lat="43.33447" lon="2.54454">
        <ele>199.1</ele>
        <time>2017-02-27T12:16:54Z</time>
      </trkpt>
      <trkpt lat="43.33448" lon="2.54457">
        <ele>199.5</ele>
        <time>2017-02-27T12:17:01Z</time>
      </trkpt>
      <trkpt lat="43.33446" lon="2.54459">
        <ele>200.5</ele>
        <time>2017-02-27T12:17:08Z</time>
      </trkpt>
      <trkpt lat="43.33439" lon="2.54459">
        <ele>201.9</ele>
        <time>2017-02-27T12:17:15Z</time>
      </trkpt>
    </trkseg>
  </trk>
</gpx>